Provisional Data: Conodoguinet Creek near Schlusser, PA


Please select a monitoring station.
Please select start date.
Please select start date.

Toggle Unit: C/F Toggle Unit: C/F
Sample Time Temperature (C) Temperature (F) Specific Conductivity (mS/cm) pH   Turbidity (NTU+) DO (mg/L)
8/9/2021 12:00:00 AM 24.21 75.578 0.037 8.03 1027 5.8
8/9/2021 12:15:00 AM 24.17 75.506 0.037 8.01 1533 5.77
8/9/2021 12:30:00 AM 24.13 75.434 0.038 8.02 1454 5.93
8/9/2021 12:45:00 AM 24.06 75.308 0.038 8.01 1538 5.87
8/9/2021 1:00:00 AM 24.05 75.29 0.039 8.01 1699 5.85
8/9/2021 1:15:00 AM 23.97 75.146 0.041 8.01 1647 5.91
8/9/2021 1:30:00 AM 23.97 75.146 0.04 8.02 1530 5.94
8/9/2021 1:45:00 AM 23.93 75.074 0.04 8.01 1383 5.96
8/9/2021 2:00:00 AM 23.82 74.876 0.039 8.01 1908 5.89
8/9/2021 2:15:00 AM 23.79 74.82201 0.039 8.01 1728 5.84
8/9/2021 2:30:00 AM 23.81 74.858 0.039 8.01 1585 5.85
8/9/2021 2:45:00 AM 23.8 74.84 0.041 8.01 2777 5.87
8/9/2021 3:00:00 AM 23.75 74.75 0.042 8 2850 5.97
8/9/2021 3:15:00 AM 23.78 74.804 0.045 8.01 2644 6.03
8/9/2021 3:30:00 AM 23.76 74.768 0.05 8.01 2698 6.05
8/9/2021 3:45:00 AM 23.73 74.714 0.06 8.01 2728 6.02
8/9/2021 4:00:00 AM 23.72 74.696 0.068 8.01 2742 6.05
8/9/2021 4:15:00 AM 23.7 74.66 0.084 8.01 2804 6.08
8/9/2021 4:30:00 AM 23.66 74.588 0.095 8.02 2780 6.13
8/9/2021 4:45:00 AM 23.65 74.57 0.106 8.01 3019 6.11
8/9/2021 5:00:00 AM 23.61 74.498 0.115 8.02 3061 6.08
8/9/2021 5:15:00 AM 23.59 74.462 0.128 8.01 3069 6.06
8/9/2021 5:30:00 AM 23.54 74.372 0.143 8.02 2574 6.15
8/9/2021 5:45:00 AM 23.54 74.372 0.141 8.02 2135 6.08
8/9/2021 6:00:00 AM 23.49 74.282 0.138 8.01 2273 5.56
8/9/2021 6:15:00 AM 23.47 74.246 0.13 8.01 2304 6.16
8/9/2021 6:30:00 AM 23.46 74.228 0.124 8.01 2298 6.17
8/9/2021 6:45:00 AM 23.44 74.192 0.121 8.01 2291 6.18
8/9/2021 7:00:00 AM 23.4 74.12 0.113 8.02 2273 6.24
8/9/2021 7:15:00 AM 23.4 74.12 0.096 8.01 2262 6.25
8/9/2021 7:30:00 AM 23.42 74.156 0.081 8.02 2233 6.36
8/9/2021 7:45:00 AM 23.43 74.174 0.073 8.02 2250 6.39
8/9/2021 8:00:00 AM 23.43 74.174 0.067 8.02 2128 6.59
8/9/2021 8:15:00 AM 23.47 74.246 0.078 8.04 2117 6.79
8/9/2021 8:30:00 AM 23.53 74.354 0.071 8.04 2074 6.91
8/9/2021 8:45:00 AM 23.59 74.462 0.067 8.06 2078 7.11
8/9/2021 9:00:00 AM 23.63 74.534 0.061 8.07 2074 7.28
8/9/2021 9:15:00 AM 23.74 74.732 0.054 8.08 2067 7.41
8/9/2021 9:30:00 AM 23.82 74.876 0.049 8.09 2050 7.55
8/9/2021 9:45:00 AM 23.88 74.984 0.048 8.1 2178 7.73
8/9/2021 10:00:00 AM 23.95 75.11 0.05 8.12 2197 7.98
8/9/2021 10:15:00 AM 24.05 75.29 0.046 8.13 2313 8.27
8/9/2021 10:30:00 AM 24.16 75.488 0.049 8.15 2313 8.45
8/9/2021 10:45:00 AM 24.26 75.668 0.047 8.17 2426 8.61
8/9/2021 11:00:00 AM 24.38 75.884 0.046 8.19 2516 8.85
8/9/2021 11:15:00 AM 24.54 76.172 0.04 8.21 2572 9.06
8/9/2021 11:30:00 AM 24.74 76.532 0.038 8.22 2489 9.33
8/9/2021 11:45:00 AM 24.99 76.982 0.041 8.23 2413 9.56
8/9/2021 12:00:00 PM 25.28 77.504 0.039 8.25 2456 9.87
8/9/2021 12:15:00 PM 25.58 78.044 0.051 8.27 2503 10.16
8/9/2021 12:30:00 PM 25.89 78.602 0.041 8.29 2520 10.45
8/9/2021 12:45:00 PM 26.18 79.124 0.036 8.31 2497 10.69
8/9/2021 1:00:00 PM 26.49 79.682 0.035 8.33 2480 10.89
8/9/2021 1:15:00 PM 26.93 80.474 0.034 8.34 2506 11.17
8/9/2021 1:30:00 PM 27.32 81.176 0.031 8.35 2494 11.4
8/9/2021 1:45:00 PM 27.72 81.896 0.029 8.37 2071 11.64
8/9/2021 2:00:00 PM 28.11 82.598 0.027 8.38 2070 11.83
8/9/2021 2:15:00 PM 28.19 82.742 0.025 8.39 2116 12.04
8/9/2021 2:30:00 PM 28.13 82.634 0.023 8.4 2110 11.9
8/9/2021 2:45:00 PM 28.22 82.796 0.024 8.41 2173 11.77
8/9/2021 3:00:00 PM 28.28 82.904 0.022 8.4 2185 11.68
8/9/2021 3:15:00 PM 28.05 82.49 0.022 8.39 2195 11.51
8/9/2021 3:30:00 PM 28.15 82.67 0.022 8.39 2234 11.34
8/9/2021 3:45:00 PM 28.41 83.138 0.023 8.39 2266 11.32
8/9/2021 4:00:00 PM 28.57 83.426 0.022 8.39 2250 11.55
8/9/2021 4:15:00 PM 28.7 83.66 0.021 8.39 2215 11.51
8/9/2021 4:30:00 PM 28.83 83.894 0.02 8.38 2245 11.34
8/9/2021 4:45:00 PM 28.84 83.912 0.02 8.38 2256 11.36
8/9/2021 5:00:00 PM 28.53 83.354 0.021 8.38 2279 11.05
8/9/2021 5:15:00 PM 28.3 82.94 0.02 8.36 2318 10.63
8/9/2021 5:30:00 PM 28.16 82.688 0.019 8.34 2314 10.31
8/9/2021 5:45:00 PM 28.12 82.616 0.02 8.33 2337 10.13
8/9/2021 6:00:00 PM 28.11 82.598 0.02 8.33 2396 10
8/9/2021 6:15:00 PM 27.97 82.346 0.02 8.32 2388 9.84
8/9/2021 6:30:00 PM 27.79 82.022 0.02 8.31 2400 9.6
8/9/2021 6:45:00 PM 27.59 81.662 0.02 8.3 2401 9.3
8/9/2021 7:00:00 PM 27.37 81.266 0.02 8.28 2417 8.98
8/9/2021 7:15:00 PM 27.15 80.87 0.021 8.27 2260 8.67
8/9/2021 7:30:00 PM 27.06 80.708 0.022 8.24 3156 8.39
8/9/2021 7:45:00 PM 26.79 80.222 0.021 8.23 2935 8.1
8/9/2021 8:00:00 PM 26.6 79.88 0.023 8.21 2961 7.78
8/9/2021 8:15:00 PM 26.46 79.628 0.023 8.18 2970 7.47
8/9/2021 8:30:00 PM 26.3 79.34 0.022 8.17 3117 7.24
8/9/2021 8:45:00 PM 26.19 79.142 0.022 8.14 2797 6.99
8/9/2021 9:00:00 PM 26.03 78.854 0.023 8.13 2425 6.84
8/9/2021 9:15:00 PM 25.95 78.71 0.023 8.11 2453 6.65
8/9/2021 9:30:00 PM 25.89 78.602 0.024 8.1 2467 6.51
8/9/2021 9:45:00 PM 25.81 78.458 0.024 8.07 2842 6.35
8/9/2021 10:00:00 PM 25.72 78.296 0.025 8.06 2654 6.17
8/9/2021 10:15:00 PM 25.65 78.17 0.027 8.05 2670 6.06
8/9/2021 10:30:00 PM 25.59 78.062 0.029 8.03 2236 6.03
8/9/2021 10:45:00 PM 25.54 77.972 0.03 8.02 1488 5.94
8/9/2021 11:00:00 PM 25.48 77.864 0.032 8.01 1546 5.9
8/9/2021 11:15:00 PM 25.41 77.738 0.032 8 1581 5.87
8/9/2021 11:30:00 PM 25.35 77.63 0.032 7.99 1886 5.74
8/9/2021 11:45:00 PM 25.33 77.594 0.031 7.99 1694 5.75
8/10/2021 12:00:00 AM 25.29 77.522 0.031 7.98 1718 5.71
8/10/2021 12:15:00 AM 25.24 77.432 0.03 7.98 1725 5.69
8/10/2021 12:30:00 AM 25.21 77.378 0.029 7.97 1740 5.69
8/10/2021 12:45:00 AM 25.2 77.36 0.029 7.97 1522 5.66
8/10/2021 1:00:00 AM 25.17 77.306 0.029 7.96 1913 5.63
8/10/2021 1:15:00 AM 25.14 77.252 0.027 7.96 1812 5.61
8/10/2021 1:30:00 AM 25.09 77.162 0.026 7.96 2428 5.65
8/10/2021 1:45:00 AM 25.08 77.144 0.024 7.96 1492 5.73
8/10/2021 2:00:00 AM 25.02 77.036 0.023 7.96 1462 5.77
8/10/2021 2:15:00 AM 25.01 77.018 0.023 7.97 1477 5.83
8/10/2021 2:30:00 AM 24.97 76.946 0.023 7.96 1598 5.68
8/10/2021 2:45:00 AM 24.94 76.892 0.023 8.03 1527 5.73
8/10/2021 3:00:00 AM 24.93 76.874 0.023 8 1528 5.82
8/10/2021 3:15:00 AM 24.87 76.766 0.023 8 1528 5.8
8/10/2021 3:30:00 AM 24.88 76.784 0.022 7.98 1615 5.8
8/10/2021 3:45:00 AM 24.84 76.712 0.022 7.97 1635 5.78
8/10/2021 4:00:00 AM 24.81 76.658 0.022 7.98 1697 5.83
8/10/2021 4:15:00 AM 24.83 76.694 0.022 7.97 1737 5.8
8/10/2021 4:30:00 AM 24.77 76.586 0.022 7.97 1638 5.82
8/10/2021 4:45:00 AM 24.74 76.532 0.022 7.97 1208 5.77
8/10/2021 5:00:00 AM 24.72 76.496 0.022 8 1689 5.68
8/10/2021 5:15:00 AM 24.72 76.496 0.022 7.97 1586 5.72
8/10/2021 5:30:00 AM 24.69 76.442 0.022 7.97 1881 5.71
8/10/2021 5:45:00 AM 24.66 76.388 0.021 7.97 1768 5.67
8/10/2021 6:00:00 AM 24.68 76.424 0.021 7.96 1456 5.72
8/10/2021 6:15:00 AM 24.7 76.46 0.021 7.96 1247 5.71
8/10/2021 6:30:00 AM 24.67 76.406 0.021 7.96 1534 5.73
8/10/2021 6:45:00 AM 24.53 76.154 0.021 7.96 1605 5.79
8/10/2021 7:00:00 AM 24.7 76.46 0.021 7.95 1699 5.74
8/10/2021 7:15:00 AM 24.69 76.442 0.021 7.95 1750 5.76
8/10/2021 7:30:00 AM 24.73 76.514 0.022 7.95 1796 5.81
8/10/2021 7:45:00 AM 24.74 76.532 0.022 7.95 1867 5.84
8/10/2021 8:00:00 AM 24.78 76.604 0.022 7.95 1801 5.94
8/10/2021 8:15:00 AM 24.74 76.532 0.022 7.96 1833 6.1
8/10/2021 8:30:00 AM 24.8 76.64 0.022 7.97 1857 6.28
8/10/2021 8:45:00 AM 24.94 76.892 0.021 7.98 1891 6.52
8/10/2021 9:00:00 AM 25.02 77.036 0.021 7.99 1883 6.72
8/10/2021 9:15:00 AM 25.09 77.162 0.02 8 1858 6.8
8/10/2021 9:30:00 AM 25.15 77.27 0.02 8.02 1770 7.08
8/10/2021 9:45:00 AM 25.25 77.45 0.02 8.03 1838 7.48
8/10/2021 10:00:00 AM 25.41 77.738 0.02 8.06 1890 7.68
8/10/2021 10:15:00 AM 25.52 77.936 0.02 8.07 1802 8.04
8/10/2021 10:30:00 AM 25.37 77.666 0.019 8.1 1763 8.25
8/10/2021 10:45:00 AM 25.77 78.386 0.014 8.12 1910 8.49
8/10/2021 11:00:00 AM 25.99 78.782 0.014 8.15 2436 8.85
8/10/2021 11:15:00 AM 26.12 79.016 0.012 8.17 1879 9.14
8/10/2021 11:30:00 AM 26.2 79.16 0.012 8.19 1772 9.41
8/10/2021 11:45:00 AM 26.4 79.52 0.011 8.22 1834 9.73
8/10/2021 12:00:00 PM 26.6 79.88 0.01 8.24 1735 9.99
8/10/2021 12:15:00 PM 26.92 80.456 0.01 8.28 1863 10.28
8/10/2021 12:30:00 PM 27.03 80.654 0.01 8.29 1850 10.56
8/10/2021 12:45:00 PM 27.13 80.834 0.01 8.3 2223 10.46
8/10/2021 1:00:00 PM 27.17 80.906 0.011 8.32 1702 10.62
8/10/2021 1:15:00 PM 27.49 81.482 0.009 8.32 1851 10.73
8/10/2021 1:30:00 PM 27.69 81.842 0.009 8.34 1773 10.99
8/10/2021 1:45:00 PM 27.65 81.77 0.006 8.35 1737 11.19
8/10/2021 2:00:00 PM 28.4 83.12 0.006 8.36 1745 11.3
8/10/2021 2:15:00 PM 28.06 82.508 0.005 8.37 1727 11.57
8/10/2021 2:30:00 PM 28.35 83.03 0.005 8.39 1771 11.39
8/10/2021 2:45:00 PM 28.59 83.462 0.004 8.38 1720 11.16
8/10/2021 3:00:00 PM 28.99 84.182 0.004 8.38 1609 11.33
8/10/2021 3:15:00 PM 29.47 85.046 0.004 8.38 1616 11.7
8/10/2021 3:30:00 PM 29.97 85.946 0.003 8.39 1667 11.93
8/10/2021 3:45:00 PM 29.17 84.506 0.003 8.4 1712 12.09
8/10/2021 4:00:00 PM 29.74 85.532 0.003 8.39 1698 11.87
8/10/2021 4:15:00 PM 30.53 86.954 0.003 8.38 1791 11.52
8/10/2021 4:30:00 PM 29.67 85.406 0.003 8.38 1819 11.3
8/10/2021 4:45:00 PM 29.67 85.406 0.003 8.37 1611 10.83
8/10/2021 5:00:00 PM 28.93 84.074 0.004 8.35 1896 9.54
8/10/2021 5:15:00 PM 28.94 84.092 0.022 8.3 1987 8.48
8/10/2021 5:30:00 PM 28.86 83.948 0.108 8.27 1957 8.47
8/10/2021 5:45:00 PM 28.75 83.75 0.323 8.25 2022 8.43
8/10/2021 6:00:00 PM 28.55 83.39 0.421 8.22 2215 8.04
8/10/2021 6:15:00 PM 28.29 82.922 0.406 8.21 2110 7.85
8/10/2021 6:30:00 PM 28.06 82.508 0.372 8.19 2163 7.65
8/10/2021 6:45:00 PM 27.86 82.148 0.346 8.18 1911 7.5
8/10/2021 7:00:00 PM 27.69 81.842 0.337 8.17 2321 7.36
8/10/2021 7:15:00 PM 27.52 81.536 0.323 8.15 1373 7.25
8/10/2021 7:30:00 PM 27.34 81.212 0.334 8.13 1314 7.02
8/10/2021 7:45:00 PM 27.17 80.906 0.341 8.12 1305 6.85
8/10/2021 8:00:00 PM 27.02 80.636 0.362 8.1 1206 6.73
8/10/2021 8:15:00 PM 26.89 80.402 0.347 8.09 1992 6.52
8/10/2021 8:30:00 PM 26.75 80.15 0.348 8.07 1862 6.33
8/10/2021 8:45:00 PM 26.64 79.952 0.35 8.04 3055 6.32
8/10/2021 9:00:00 PM 26.53 79.754 0.347 8.06 3098 6.23
8/10/2021 9:15:00 PM 26.41 79.538 0.356 8.04 3248 6.15
8/10/2021 9:30:00 PM 26.33 79.394 0.368 8.03 3196 6.08
8/10/2021 9:45:00 PM 26.22 79.196 0.358 8.03 3992 5.9
8/10/2021 10:00:00 PM 26.16 79.088 0.341 8.02 3406 5.9
8/10/2021 10:15:00 PM 26.1 78.98 0.34 8.01 3915 5.8
8/10/2021 10:30:00 PM 26.02 78.836 0.334 8 4723 5.77
8/10/2021 10:45:00 PM 25.98 78.764 0.32 7.99 2878 5.68
8/10/2021 11:00:00 PM 25.92 78.656 0.315 7.98 1798 5.62
8/10/2021 11:15:00 PM 25.86 78.548 0.303 7.97 2219 5.61
8/10/2021 11:30:00 PM 25.81 78.458 0.298 7.97 1438 5.55
8/10/2021 11:45:00 PM 25.76 78.368 0.297 7.96 2105 5.56
8/11/2021 12:00:00 AM 25.73 78.314 0.291 7.95 2083 5.58
8/11/2021 12:15:00 AM 25.7 78.26 0.269 7.95 2143 5.56
8/11/2021 12:30:00 AM 25.63 78.134 0.266 7.95 2410 5.58
8/11/2021 12:45:00 AM 25.61 78.098 0.252 7.94 2442 5.52
8/11/2021 1:00:00 AM 25.57 78.026 0.237 7.94 2419 5.55
8/11/2021 1:15:00 AM 25.54 77.972 0.217 7.94 2438 5.52
8/11/2021 1:30:00 AM 25.5 77.9 0.194 7.94 2511 5.53
8/11/2021 1:45:00 AM 25.38 77.684 0.166 7.94 2519 5.49
8/11/2021 2:00:00 AM 25.44 77.792 0.131 7.93 2552 5.5
8/11/2021 2:15:00 AM 25.39 77.702 0.061 7.93 2555 5.53
8/11/2021 2:30:00 AM 25.37 77.666 0.048 7.93 3872 5.42
8/11/2021 2:45:00 AM 25.35 77.63 0.04 7.93 3507 5.47
8/11/2021 3:00:00 AM 25.31 77.558 0.033 7.92 2892 5.47
8/11/2021 3:15:00 AM 25.29 77.522 0.027 7.91 2998 5.45
8/11/2021 3:30:00 AM 25.26 77.468 0.023 7.92 2967 5.54
8/11/2021 3:45:00 AM 25.21 77.378 0.021 7.91 3022 5.49
8/11/2021 4:00:00 AM 25.17 77.306 0.018 7.9 2928 5.52
8/11/2021 4:15:00 AM 25.12 77.216 0.016 7.9 3327 5.52
8/11/2021 4:30:00 AM 25.11 77.198 0.014 7.92 2760 5.44
8/11/2021 4:45:00 AM 25.03 77.054 0.013 7.92 2808 5.51
8/11/2021 5:00:00 AM 25.01 77.018 0.012 7.92 2836 5.48
8/11/2021 5:15:00 AM 25.02 77.036 0.011 7.91 2841 5.53
8/11/2021 5:30:00 AM 24.9 76.82 0.01 7.91 3590 5.4
8/11/2021 5:45:00 AM 24.89 76.802 0.009 7.91 2482 5.46
8/11/2021 6:00:00 AM 24.87 76.766 0.009 7.9 3018 5.52
8/11/2021 6:15:00 AM 24.88 76.784 0.008 7.91 3123 5.56
8/11/2021 6:30:00 AM 24.83 76.694 0.008 7.91 3130 5.55
8/11/2021 6:45:00 AM 24.85 76.73 0.009 7.91 3131 5.57
8/11/2021 7:00:00 AM 24.83 76.694 0.009 7.9 3036 5.6
8/11/2021 7:15:00 AM 24.86 76.748 0.01 7.91 2940 5.64
8/11/2021 7:30:00 AM 24.91 76.838 0.011 7.91 3057 5.71
8/11/2021 7:45:00 AM 24.93 76.874 0.012 7.9 3098 5.79
8/11/2021 8:00:00 AM 24.98 76.964 0.012 7.92 2912 5.95
8/11/2021 8:15:00 AM 25.01 77.018 0.013 7.92 3021 6.09
8/11/2021 8:30:00 AM 25.08 77.144 0.013 7.94 2783 6.3
8/11/2021 8:45:00 AM 25.2 77.36 0.013 7.94 2784 6.48
8/11/2021 9:00:00 AM 25.28 77.504 0.014 7.97 2718 6.68
8/11/2021 9:15:00 AM 25.37 77.666 0.015 7.97 2717 6.88
8/11/2021 9:30:00 AM 25.44 77.792 0.013 7.99 2719 7.08
8/11/2021 9:45:00 AM 25.53 77.954 0.012 8.01 2601 7.26
8/11/2021 10:00:00 AM 25.66 78.188 0.012 8.03 2602 7.38
8/11/2021 10:15:00 AM 25.71 78.278 0.012 8.05 2599 7.58
8/11/2021 10:30:00 AM 25.82 78.476 0.012 8.06 2589 7.73
8/11/2021 10:45:00 AM 25.92 78.656 0.013 8.08 2674 7.81
8/11/2021 11:00:00 AM 26.04 78.872 0.012 8.1 2731 8.14
8/11/2021 11:15:00 AM 26.17 79.106 0.01 8.12 2801 8.38
8/11/2021 11:30:00 AM 26.39 79.502 0.01 8.14 2539 8.63
8/11/2021 11:45:00 AM 26.66 79.988 0.01 8.16 2583 8.91
8/11/2021 12:00:00 PM 26.98 80.564 0.009 8.18 2575 9.23
8/11/2021 12:15:00 PM 27.32 81.176 0.01 8.2 2575 9.52
8/11/2021 12:30:00 PM 27.62 81.716 0.011 8.23 2608 9.76
8/11/2021 12:45:00 PM 27.96 82.328 0.011 8.24 2676 10.01
8/11/2021 1:00:00 PM 28.38 83.084 0.011 8.26 2706 10.33
8/11/2021 1:15:00 PM 28.73 83.714 0.008 8.28 2687 10.38
8/11/2021 1:30:00 PM 29.14 84.452 0.009 8.3 2536 10.17
8/11/2021 1:45:00 PM 29.47 85.046 0.009 8.31 2578 10.83
8/11/2021 2:00:00 PM 29.78 85.604 0.004 8.34 2533 11.33
8/11/2021 2:15:00 PM 30.02 86.036 0.007 8.35 2540 11.51
8/11/2021 2:30:00 PM 30.17 86.306 0.003 8.37 2537 11.6
8/11/2021 2:45:00 PM 30.23 86.414 0.003 8.37 2528 11.81
8/11/2021 3:00:00 PM 30.1 86.18 0.002 8.39 2535 11.96
8/11/2021 3:15:00 PM 30.55 86.99 0.002 8.39 2537 11.89
8/11/2021 3:30:00 PM 30.62 87.116 0.002 8.39 2532 11.56
8/11/2021 3:45:00 PM 30.47 86.84599 0.002 8.39 2551 11.54
8/11/2021 4:00:00 PM 30.87 87.566 0.002 8.38 2547 11.55
8/11/2021 4:15:00 PM 30.57 87.026 0.002 8.37 2546 11.07
8/11/2021 4:30:00 PM 30.89 87.60201 0.002 8.35 2542 10.9
8/11/2021 4:45:00 PM 29.94 85.892 0.002 8.35 2558 10.48
8/11/2021 5:00:00 PM 29.19 84.542 0.002 8.32 2594 9.35
8/11/2021 5:15:00 PM 29.16 84.488 0.004 8.3 2632 8.83
8/11/2021 5:30:00 PM 29.18 84.524 0.017 8.27 2690 8.38
8/11/2021 5:45:00 PM 28.92 84.056 0.014 8.24 2795 7.85
8/11/2021 6:00:00 PM 28.59 83.462 0.009 8.21 2822 7.63
8/11/2021 6:15:00 PM 28.23 82.814 0.007 8.19 2852 7.36
8/11/2021 6:30:00 PM 28.14 82.652 0.003 8.17 2897 7.12
8/11/2021 6:45:00 PM 28 82.4 0.003 8.15 2899 6.92
8/11/2021 7:00:00 PM 27.71 81.878 0.003 8.13 2727 6.77
8/11/2021 7:15:00 PM 27.63 81.734 0.003 8.11 2770 6.62
8/11/2021 7:30:00 PM 27.52 81.536 0.003 8.1 2939 6.45
8/11/2021 7:45:00 PM 27.36 81.248 0.003 8.08 2950 6.34
8/11/2021 8:00:00 PM 27.23 81.014 0.003 8.06 3011 6.21
8/11/2021 8:15:00 PM 27.02 80.636 0.003 8.05 2918 6.05
8/11/2021 8:30:00 PM 26.96 80.528 0.003 8.03 2925 5.78
8/11/2021 8:45:00 PM 26.85 80.33 0.003 8.02 3040 5.84
8/11/2021 9:00:00 PM 26.82 80.276 0.003 8.01 3071 5.73
8/11/2021 9:15:00 PM 26.72 80.096 0.003 8 3431 5.66
8/11/2021 9:30:00 PM 26.68 80.024 0.004 7.99 3294 5.74
8/11/2021 9:45:00 PM 26.55 79.79 0.004 7.98 3312 5.71
8/11/2021 10:00:00 PM 26.53 79.754 0.004 7.97 3269 5.63
8/11/2021 10:15:00 PM 26.41 79.538 0.004 7.96 3366 5.6
8/11/2021 10:30:00 PM 26.42 79.556 0.004 7.94 3108 5.53
8/11/2021 10:45:00 PM 26.42 79.556 0.004 7.95 3218 5.45
8/11/2021 11:00:00 PM 26.36 79.448 0.004 7.95 2972 5.47
8/11/2021 11:15:00 PM 26.24 79.232 0.004 7.94 3075 5.48
8/11/2021 11:30:00 PM 26.28 79.304 0.004 7.94 3067 5.47
8/11/2021 11:45:00 PM 26.22 79.196 0.004 7.93 3123 5.42
8/12/2021 12:00:00 AM 26.17 79.106 0.004 7.93 3169 5.41
8/12/2021 12:15:00 AM 26.14 79.052 0.004 7.92 3391 5.49
8/12/2021 12:30:00 AM 26.04 78.872 0.004 7.93 3381 5.52
8/12/2021 12:45:00 AM 25.96 78.728 0.004 7.93 3340 5.49
8/12/2021 1:00:00 AM 25.98 78.764 0.004 7.92 3382 5.47
8/12/2021 1:15:00 AM 25.89 78.602 0.004 7.92 3416 5.46
8/12/2021 1:30:00 AM 25.91 78.638 0.004 7.91 3512 5.45
8/12/2021 1:45:00 AM 25.79 78.422 0.004 7.92 3554 5.48
8/12/2021 2:00:00 AM 25.86 78.548 0.004 7.91 3536 5.42
8/12/2021 2:15:00 AM 25.75 78.35 0.004 7.91 3570 5.41
8/12/2021 2:30:00 AM 25.81 78.458 0.004 7.91 3193 5.5
8/12/2021 2:45:00 AM 25.78 78.404 0.004 7.91 3433 5.53
8/12/2021 3:00:00 AM 25.75 78.35 0.004 7.91 3330 5.55
8/12/2021 3:15:00 AM 25.71 78.278 0.005 7.9 3386 5.53
8/12/2021 3:30:00 AM 25.63 78.134 0.005 7.9 3472 5.53
8/12/2021 3:45:00 AM 25.63 78.134 0.005 7.9 3568 5.51
8/12/2021 4:00:00 AM 25.5 77.9 0.005 7.9 3812 5.55
8/12/2021 4:15:00 AM 25.56 78.008 0.005 7.9 3666 5.53
8/12/2021 4:30:00 AM 25.57 78.026 0.005 7.9 3676 5.58
8/12/2021 4:45:00 AM 25.47 77.846 0.006 7.89 3474 5.58
8/12/2021 5:00:00 AM 25.48 77.864 0.006 7.9 3442 5.61
8/12/2021 5:15:00 AM 25.43 77.774 0.006 7.9 3443 5.59
8/12/2021 5:30:00 AM 25.41 77.738 0.007 7.9 3457 5.62
8/12/2021 5:45:00 AM 25.41 77.738 0.007 7.9 3766 5.61
8/12/2021 6:00:00 AM 25.4 77.72 0.007 7.9 3969 5.66
8/12/2021 6:15:00 AM 25.3 77.54 0.007 7.91 3901 5.61
8/12/2021 6:30:00 AM 25.34 77.612 0.007 7.9 4107 5.64
8/12/2021 6:45:00 AM 25.32 77.576 0.007 7.9 4151 5.59
8/12/2021 7:00:00 AM 25.29 77.522 0.007 7.9 4188 5.41
8/12/2021 7:15:00 AM 25.31 77.558 0.008 7.89 4606 5.48
8/12/2021 7:30:00 AM 25.33 77.594 0.012 7.89 4356 5.57
8/12/2021 7:45:00 AM 25.37 77.666 0.014 7.89 3801 5.68
8/12/2021 8:00:00 AM 25.39 77.702 0.014 7.9 3954 5.81
8/12/2021 8:15:00 AM 25.36 77.648 0.013 7.91 4264 5.88
8/12/2021 8:30:00 AM 25.47 77.846 0.013 7.92 4582 6.04
8/12/2021 8:45:00 AM 25.54 77.972 0.012 7.92 4170 6.24
8/12/2021 9:00:00 AM 25.57 78.026 0.013 7.94 4116 6.45
8/12/2021 9:15:00 AM 25.71 78.278 0.013 7.95 4746 6.58
8/12/2021 9:30:00 AM 25.74 78.332 0.013 7.96 4782 6.79
8/12/2021 9:45:00 AM 25.84 78.512 0.013 7.98 4712 6.91
8/12/2021 10:00:00 AM 25.93 78.674 0.012 7.98 4772 7.06
8/12/2021 10:15:00 AM 26.01 78.818 0.012 8 4753 7.19
8/12/2021 10:30:00 AM 26.09 78.962 0.011 8.02 5956 7.34
8/12/2021 10:45:00 AM 26.21 79.17799 0.012 8.03 4661 7.56
8/12/2021 11:00:00 AM 26.32 79.376 0.012 8.05 4891 7.74
8/12/2021 11:15:00 AM 26.53 79.754 0.014 8.06 5755 7.84
8/12/2021 11:30:00 AM 26.7 80.06 0.014 8.09 5176 8.17
8/12/2021 11:45:00 AM 26.92 80.456 0.016 8.11 6180 8.45
8/12/2021 12:00:00 PM 27.26 81.068 0.015 8.13 6180 8.81
8/12/2021 12:15:00 PM 27.56 81.608 0.014 8.16 6180 9.04
8/12/2021 12:30:00 PM 27.78 82.004 0.014 8.18 6179 9.32
8/12/2021 12:45:00 PM 28.31 82.958 0.012 8.2 6179 9.76
8/12/2021 1:00:00 PM 28.52 83.336 0.012 8.23 6180 10.04
8/12/2021 1:15:00 PM 28.97 84.146 0.01 8.26 6179 10.41
8/12/2021 1:30:00 PM 29.46 85.028 0.01 8.28 6180 10.65
8/12/2021 1:45:00 PM 29.85 85.73 0.007 8.29 6180 10.83
8/12/2021 2:00:00 PM 29.87 85.76601 0.007 8.32 6180 11.05
8/12/2021 2:15:00 PM 30.43 86.774 0.004 8.33 6180 11.13
8/12/2021 2:30:00 PM 30.57 87.026 0.007 8.35 6180 11.42
8/12/2021 2:45:00 PM 31.01 87.818 0.003 8.36 6180 11.5
8/12/2021 3:00:00 PM 31.05 87.89 0.003 8.37 6180 11.46
8/12/2021 3:15:00 PM 31.08 87.944 0.003 8.37 6179 11.58
8/12/2021 3:30:00 PM 31.35 88.43 0.003 8.36 6179 11.38
8/12/2021 3:45:00 PM 31.86 89.348 0.003 8.37 6180 11.49
8/12/2021 4:00:00 PM 31.71 89.078 0.002 8.37 6179 11.55
8/12/2021 4:15:00 PM 31.61 88.89799 0.002 8.36 6179 11.41
8/12/2021 4:30:00 PM 31.66 88.988 0.002 8.34 6179 11.31
8/12/2021 4:45:00 PM 31.74 89.132 0.002 8.34 6178 11.1
8/12/2021 5:00:00 PM 31.41 88.538 0.002 8.33 6178 10.74
8/12/2021 5:15:00 PM 30.87 87.566 0.002 8.34 6179 10.75
8/12/2021 5:30:00 PM 30.82 87.476 0.002 8.33 6178 10.56
8/12/2021 5:45:00 PM 30.58 87.044 0.002 8.31 6179 10.25
8/12/2021 6:00:00 PM 30.62 87.116 0.002 8.3 6178 9.61
8/12/2021 6:15:00 PM 30.4 86.72 0.002 8.28 6179 9.21
8/12/2021 6:30:00 PM 30.38 86.684 0.002 8.26 6179 8.36
8/12/2021 6:45:00 PM 29.72 85.49599 0.002 8.23 6179 8.49
8/12/2021 7:00:00 PM 29.55 85.18999 0.002 8.21 6046 8.06
8/12/2021 7:15:00 PM 29.66 85.388 0.002 8.19 6177 7.7
8/12/2021 7:30:00 PM 29.16 84.488 0.002 8.17 6178 7.31
8/12/2021 7:45:00 PM 29.18 84.524 0.002 8.11 6178 6.98
8/12/2021 8:00:00 PM 29.07 84.326 0.002 8.11 6028 6.65
8/12/2021 8:15:00 PM 28.87 83.966 0.003 8.08 5886 6.4
8/12/2021 8:30:00 PM 28.68 83.624 0.003 8.06 5811 6.2
8/12/2021 8:45:00 PM 28.45 83.21001 0.003 8.04 6029 6.07
8/12/2021 9:00:00 PM 28.22 82.796 0.003 8.03 6090 5.98
8/12/2021 9:15:00 PM 28.15 82.67 0.004 8.01 5725 5.83
8/12/2021 9:30:00 PM 28.01 82.418 0.004 7.99 5860 5.74
8/12/2021 9:45:00 PM 27.88 82.184 0.003 7.97 5979 5.63
8/12/2021 10:00:00 PM 27.66 81.788 0.004 7.97 6101 5.55
8/12/2021 10:15:00 PM 27.62 81.716 0.005 7.96 5396 5.35
8/12/2021 10:30:00 PM 27.51 81.518 0.008 7.96 5810 5.34
8/12/2021 10:45:00 PM 27.36 81.248 0.012 7.95 5807 5.22
8/12/2021 11:00:00 PM 27.3 81.14 0.014 7.94 3420 5.35
8/12/2021 11:15:00 PM 27.21 80.978 0.014 7.93 4470 5.25
8/12/2021 11:30:00 PM 27.13 80.834 0.014 7.93 6125 5.2
8/12/2021 11:45:00 PM 27 80.6 0.013 7.93 6181 5.21
8/13/2021 12:00:00 AM 26.92 80.456 0.013 7.93 4999 5.2
8/13/2021 12:15:00 AM 26.92 80.456 0.014 7.93 5790 5.23
8/13/2021 12:30:00 AM 26.84 80.312 0.015 7.92 5831 5.28
8/13/2021 12:45:00 AM 26.79 80.222 0.017 7.92 5183 5.24
8/13/2021 1:00:00 AM 26.73 80.114 0.02 7.92 4961 5.37
8/13/2021 1:15:00 AM 26.66 79.988 0.026 7.92 6063 5.18
8/13/2021 1:30:00 AM 26.63 79.934 0.036 7.92 3965 5.28
8/13/2021 1:45:00 AM 26.61 79.898 0.056 7.91 3869 5.27
8/13/2021 2:00:00 AM 26.53 79.754 0.074 7.91 4172 5.31
8/13/2021 2:15:00 AM 26.47 79.646 0.076 7.92 6181 5.32
8/13/2021 2:30:00 AM 26.46 79.628 0.092 7.92 3413 5.36
8/13/2021 2:45:00 AM 26.43 79.574 0.098 7.93 3382 5.34
8/13/2021 3:00:00 AM 26.35 79.43 0.116 7.92 3333 5.31
8/13/2021 3:15:00 AM 26.32 79.376 0.137 7.92 3866 5.34
8/13/2021 3:30:00 AM 26.23 79.214 0.154 7.92 4240 5.35
8/13/2021 3:45:00 AM 26.22 79.196 0.164 7.92 3774 5.43
8/13/2021 4:00:00 AM 26.2 79.16 0.169 7.92 2818 5.44
8/13/2021 4:15:00 AM 26.14 79.052 0.192 7.92 3139 5.27
8/13/2021 4:30:00 AM 26.09 78.962 0.178 7.93 3142 5.51
8/13/2021 4:45:00 AM 26.04 78.872 0.184 7.93 3306 5.46
8/13/2021 5:00:00 AM 26.02 78.836 0.196 7.92 2492 5.5
8/13/2021 5:15:00 AM 25.97 78.746 0.198 7.93 2612 5.53
8/13/2021 5:30:00 AM 25.91 78.638 0.197 7.92 2606 5.52
8/13/2021 5:45:00 AM 25.86 78.548 0.191 7.92 5251 5.45
8/13/2021 6:00:00 AM 25.84 78.512 0.189 7.92 2990 5.46
8/13/2021 6:15:00 AM 25.74 78.332 0.19 7.91 3731 5.43
8/13/2021 6:30:00 AM 25.76 78.368 0.173 7.91 3694 5.49
8/13/2021 6:45:00 AM 25.72 78.296 0.16 7.91 3705 5.46
8/13/2021 7:00:00 AM 25.7 78.26 0.154 7.91 1787 5.47
8/13/2021 7:15:00 AM 25.7 78.26 0.151 7.91 2392 5.53
8/13/2021 7:30:00 AM 25.7 78.26 0.134 7.91 2418 5.64
8/13/2021 7:45:00 AM 25.65 78.17 0.121 7.92 2426 5.68
8/13/2021 8:00:00 AM 25.73 78.314 0.115 7.93 2424 5.79
8/13/2021 8:15:00 AM 25.79 78.422 0.104 7.93 2576 5.84
8/13/2021 8:30:00 AM 25.84 78.512 0.094 7.94 3389 6.11
8/13/2021 8:45:00 AM 25.91 78.638 0.091 7.95 3837 6.14
8/13/2021 9:00:00 AM 25.9 78.62 0.086 7.96 4579 6.33
8/13/2021 9:15:00 AM 26.03 78.854 0.072 7.97 2501 6.52
8/13/2021 9:30:00 AM 26.16 79.088 0.063 7.99 3495 6.71
8/13/2021 9:45:00 AM 26.21 79.17799 0.048 8 4016 6.82
8/13/2021 10:00:00 AM 26.22 79.196 0.049 8.01 4047 6.98
8/13/2021 10:15:00 AM 26.29 79.32201 0.043 8.03 4010 7.2
8/13/2021 10:30:00 AM 26.39 79.502 0.046 8.04 4370 7.29
8/13/2021 10:45:00 AM 26.54 79.772 0.05 8.06 3955 7.49
8/13/2021 11:00:00 AM 26.6 79.88 0.037 8.07 3949 7.67
8/13/2021 11:15:00 AM 26.66 79.988 0.041 8.09 3438 7.89
8/13/2021 11:30:00 AM 27.03 80.654 0.033 8.1 3418 8.21
8/13/2021 11:45:00 AM 27.22 80.996 0.025 8.13 3464 8.42
8/13/2021 12:00:00 PM 27.53 81.554 0.021 8.16 3616 8.82
8/13/2021 12:15:00 PM 27.79 82.022 0.023 8.18 3386 9.08
8/13/2021 12:30:00 PM 28.15 82.67 0.016 8.2 2955 9.42
8/13/2021 12:45:00 PM 28.53 83.354 0.018 8.23 2824 9.79
8/13/2021 1:00:00 PM 28.91 84.038 0.018 8.25 2728 10.04
8/13/2021 1:15:00 PM 29.39 84.902 0.023 8.27 3468 10.37
8/13/2021 1:30:00 PM 29.68 85.424 0.022 8.3 3448 10.69
8/13/2021 1:45:00 PM 29.6 85.28 0.031 8.32 3298 10.42
8/13/2021 2:00:00 PM 29.74 85.532 0.021 8.31 3540 10.4
8/13/2021 2:15:00 PM 30.28 86.50401 0.018 8.32 3328 10.89
8/13/2021 2:30:00 PM 30.53 86.954 0.019 8.36 2792 11.32
8/13/2021 2:45:00 PM 30.69 87.242 0.015 8.36 2786 11.3
8/13/2021 3:00:00 PM 30.38 86.684 0.016 8.35 2895 10.49
8/13/2021 3:15:00 PM 29.74 85.532 0.268 8.32 2843 9.66
8/13/2021 3:30:00 PM 29.31 84.758 0.178 8.28 4482 8.58
8/13/2021 3:45:00 PM 29.19 84.542 0.266 8.27 4580 8.29
8/13/2021 4:00:00 PM 29.07 84.326 0.483 8.23 2903 8
8/13/2021 4:15:00 PM 28.95 84.11 0.494 8.21 2132 7.65
8/13/2021 4:30:00 PM 28.77 83.786 0.498 8.19 3535 7.44
8/13/2021 4:45:00 PM 28.58 83.444 0.464 8.17 3817 7.21
8/13/2021 5:00:00 PM 28.42 83.156 0.321 8.15 4255 7.19
8/13/2021 5:15:00 PM 28.38 83.084 0.241 8.15 4116 7.23
8/13/2021 5:30:00 PM 28.32 82.976 0.194 8.14 3841 7.29
8/13/2021 5:45:00 PM 28.23 82.814 0.204 8.15 4729 7.36
8/13/2021 6:00:00 PM 28.14 82.652 0.229 8.13 3854 7.16
8/13/2021 6:15:00 PM 28.06 82.508 0.214 8.14 3936 7.22
8/13/2021 6:30:00 PM 28.03 82.454 0.152 8.14 3290 7.15
8/13/2021 6:45:00 PM 27.98 82.364 0.126 8.14 3902 7.31
8/13/2021 7:00:00 PM 27.96 82.328 0.1 8.14 3260 7.31
8/13/2021 7:15:00 PM 27.91 82.238 0.099 8.14 3053 7.24
8/13/2021 7:30:00 PM 27.88 82.184 0.151 8.14 3077 7.21
8/13/2021 7:45:00 PM 27.82 82.076 0.237 8.13 3203 7.06
8/13/2021 8:00:00 PM 27.72 81.896 0.293 8.12 2422 6.9
8/13/2021 8:15:00 PM 27.71 81.878 0.334 8.11 2836 6.8
8/13/2021 8:30:00 PM 27.65 81.77 0.365 8.11 3300 6.64
8/13/2021 8:45:00 PM 27.6 81.68 0.396 8.09 3348 6.51
8/13/2021 9:00:00 PM 27.48 81.464 0.404 8.08 3309 6.37
8/13/2021 9:15:00 PM 27.43 81.374 0.445 8.07 3415 6.27
8/13/2021 9:30:00 PM 27.36 81.248 0.441 8.06 3055 6.15
8/13/2021 9:45:00 PM 27.29 81.122 0.44 8.05 3013 6.02
8/13/2021 10:00:00 PM 27.21 80.978 0.45 8.02 3023 5.88
8/13/2021 10:15:00 PM 27.16 80.888 0.456 8.01 3085 5.81
8/13/2021 10:30:00 PM 27.08 80.744 0.462 8.01 3065 5.7
8/13/2021 10:45:00 PM 27.04 80.672 0.48 7.99 2790 5.67
8/13/2021 11:00:00 PM 27.01 80.618 0.488 7.98 3030 5.6
8/13/2021 11:15:00 PM 26.98 80.564 0.497 7.97 2935 5.55
8/13/2021 11:30:00 PM 26.93 80.474 0.502 7.97 2912 5.52
8/13/2021 11:45:00 PM 26.9 80.42 0.505 7.96 2929 5.5
8/14/2021 12:00:00 AM 26.89 80.402 0.516 7.95 2906 5.48
8/14/2021 12:15:00 AM 26.87 80.366 0.52 7.95 3331 5.52
8/14/2021 12:30:00 AM 26.85 80.33 0.523 7.95 3210 5.54
8/14/2021 12:45:00 AM 26.83 80.294 0.521 7.95 3246 5.56
8/14/2021 1:00:00 AM 26.8 80.24 0.519 7.94 3052 5.54
8/14/2021 1:15:00 AM 26.78 80.204 0.515 7.95 3068 5.51
8/14/2021 1:30:00 AM 26.76 80.168 0.503 7.94 3195 5.53
8/14/2021 1:45:00 AM 26.74 80.132 0.503 7.94 3056 5.52
8/14/2021 2:00:00 AM 26.72 80.096 0.491 7.94 2659 5.54
8/14/2021 2:15:00 AM 26.68 80.024 0.484 7.94 2693 5.55
8/14/2021 2:30:00 AM 26.65 79.97 0.474 7.94 2629 5.56
8/14/2021 2:45:00 AM 26.63 79.934 0.463 7.94 2754 5.55
8/14/2021 3:00:00 AM 26.57 79.826 0.46 7.94 2871 5.5
8/14/2021 3:15:00 AM 26.55 79.79 0.433 7.94 2871 5.56
8/14/2021 3:30:00 AM 26.54 79.772 0.427 7.94 3681 5.55
8/14/2021 3:45:00 AM 26.51 79.718 0.408 7.93 2437 5.54
8/14/2021 4:00:00 AM 26.49 79.682 0.387 7.93 2255 5.54
8/14/2021 4:15:00 AM 26.46 79.628 0.373 7.93 2286 5.53
8/14/2021 4:30:00 AM 26.43 79.574 0.354 7.94 2323 5.57
8/14/2021 4:45:00 AM 26.4 79.52 0.336 7.93 2348 5.57
8/14/2021 5:00:00 AM 26.37 79.466 0.306 7.93 3670 5.52
8/14/2021 5:15:00 AM 26.34 79.412 0.267 7.93 4508 5.54
8/14/2021 5:30:00 AM 26.32 79.376 0.247 7.92 5462 5.47
8/14/2021 5:45:00 AM 26.29 79.32201 0.227 7.92 4560 5.47
8/14/2021 6:00:00 AM 26.26 79.268 0.213 7.92 3149 5.45
8/14/2021 6:15:00 AM 26.23 79.214 0.185 7.92 5103 5.48
8/14/2021 6:30:00 AM 26.2 79.16 0.144 7.91 4926 5.45
8/14/2021 6:45:00 AM 26.12 79.016 0.135 7.92 5103 5.46
8/14/2021 7:00:00 AM 26.12 79.016 0.107 7.91 5119 5.49
8/14/2021 7:15:00 AM 26.15 79.07 0.084 7.91 5185 5.57
8/14/2021 7:30:00 AM 26.15 79.07 0.063 7.91 5008 5.67
8/14/2021 7:45:00 AM 26.22 79.196 0.049 7.92 4763 5.78
8/14/2021 8:00:00 AM 26.26 79.268 0.04 7.92 4822 5.9
8/14/2021 8:15:00 AM 26.3 79.34 0.035 7.93 4827 6.04
8/14/2021 8:30:00 AM 26.29 79.32201 0.032 7.94 5093 6.06
8/14/2021 8:45:00 AM 26.28 79.304 0.032 7.94 4743 6.13
8/14/2021 9:00:00 AM 26.32 79.376 0.03 7.95 4936 6.33
8/14/2021 9:15:00 AM 26.42 79.556 0.027 7.97 4905 6.64
8/14/2021 9:30:00 AM 26.48 79.664 0.024 7.98 5006 6.9
8/14/2021 9:45:00 AM 26.6 79.88 0.022 8.01 5025 7.24
8/14/2021 10:00:00 AM 26.62 79.916 0.02 8.03 5799 7.45
8/14/2021 10:15:00 AM 26.63 79.934 0.019 8.05 5863 7.45
8/14/2021 10:30:00 AM 26.64 79.952 0.019 8.06 5737 7.37
8/14/2021 10:45:00 AM 26.67 80.006 0.017 8.06 5576 7.45
8/14/2021 11:00:00 AM 26.71 80.078 0.016 8.07 5729 7.69
8/14/2021 11:15:00 AM 26.73 80.114 0.013 8.09 2745 7.8
8/14/2021 11:30:00 AM 26.78 80.204 0.012 8.11 3104 8.06
8/14/2021 11:45:00 AM 26.76 80.168 0.011 8.13 3791 8.07
8/14/2021 12:00:00 PM 26.8 80.24 0.01 8.13 4430 8.07
8/14/2021 12:15:00 PM 26.85 80.33 0.01 8.14 4035 8.23
8/14/2021 12:30:00 PM 26.95 80.51 0.01 8.16 3955 8.59
8/14/2021 12:45:00 PM 27.04 80.672 0.009 8.18 4022 8.88
8/14/2021 1:00:00 PM 27.1 80.78 0.009 8.21 3980 9.2
8/14/2021 1:15:00 PM 27.19 80.942 0.008 8.23 3648 9.39
8/14/2021 1:30:00 PM 27.33 81.194 0.008 8.25 3375 9.62
8/14/2021 1:45:00 PM 27.88 82.184 0.007 8.27 3371 10.11
8/14/2021 2:00:00 PM 28.18 82.724 0.007 8.3 3357 10.51
8/14/2021 2:15:00 PM 28.55 83.39 0.006 8.32 3340 10.65
8/14/2021 2:30:00 PM 28.75 83.75 0.003 8.33 3322 10.81
8/14/2021 2:45:00 PM 28.91 84.038 0.003 8.35 3336 10.94
8/14/2021 3:00:00 PM 29.24 84.632 0.003 8.36 3378 11.02
8/14/2021 3:15:00 PM 29.5 85.1 0.004 8.37 3500 11.2
8/14/2021 3:30:00 PM 29.36 84.848 0.004 8.37 4001 11
8/14/2021 3:45:00 PM 29.43 84.974 0.003 8.36 3976 10.9
8/14/2021 4:00:00 PM 29.38 84.884 0.003 8.36 3951 10.82
8/14/2021 4:15:00 PM 29.65 85.37 0.002 8.36 3938 10.79
8/14/2021 4:30:00 PM 29.64 85.35201 0.002 8.36 3922 10.98
8/14/2021 4:45:00 PM 29.77 85.586 0.002 8.36 3910 10.83
8/14/2021 5:00:00 PM 29.15 84.47 0.002 8.37 3898 10.67
8/14/2021 5:15:00 PM 29.25 84.65 0.002 8.35 3697 10.32
8/14/2021 5:30:00 PM 28.96 84.128 0.002 8.35 2537 10.09
8/14/2021 5:45:00 PM 28.66 83.588 0.002 8.33 2257 9.52
8/14/2021 6:00:00 PM 28.36 83.048 0.002 8.3 2164 9.05
8/14/2021 6:15:00 PM 28.34 83.012 0.002 8.28 2282 8.83
8/14/2021 6:30:00 PM 28.14 82.652 0.002 8.28 2265 8.79
8/14/2021 6:45:00 PM 27.86 82.148 0.002 8.27 2240 8.61
8/14/2021 7:00:00 PM 27.76 81.968 0.002 8.25 5247 8.27
8/14/2021 7:15:00 PM 27.58 81.644 0.002 8.24 5231 7.98
8/14/2021 7:30:00 PM 27.45 81.41 0.002 8.22 5279 7.7
8/14/2021 7:45:00 PM 27.26 81.068 0.002 8.19 4434 7.41
8/14/2021 8:00:00 PM 27.16 80.888 0.002 8.17 4441 7.18
8/14/2021 8:15:00 PM 26.86 80.348 0.002 8.15 4438 6.92
8/14/2021 8:30:00 PM 26.86 80.348 0.002 8.13 3894 6.68
8/14/2021 8:45:00 PM 26.46 79.628 0.003 8.12 3828 6.54
8/14/2021 9:00:00 PM 26.57 79.826 0.002 8.1 3823 6.4
8/14/2021 9:15:00 PM 26.46 79.628 0.003 8.08 3476 6.25
8/14/2021 9:30:00 PM 26.37 79.466 0.003 8.07 4014 6.12
8/14/2021 9:45:00 PM 26.26 79.268 0.003 8.05 4002 5.98
8/14/2021 10:00:00 PM 26.2 79.16 0.004 8.04 4070 5.86
8/14/2021 10:15:00 PM 26.2 79.16 0.004 8.02 5452 5.74
8/14/2021 10:30:00 PM 26.17 79.106 0.006 8.01 3986 5.53
8/14/2021 10:45:00 PM 26.12 79.016 0.006 8 4262 5.64
8/14/2021 11:00:00 PM 26.08 78.944 0.007 7.99 4681 5.64
8/14/2021 11:15:00 PM 26.05 78.89 0.007 7.98 4653 5.66
8/14/2021 11:30:00 PM 25.99 78.782 0.009 7.97 4475 5.63
8/14/2021 11:45:00 PM 25.94 78.692 0.012 7.97 4081 5.63
8/15/2021 12:00:00 AM 25.93 78.674 0.016 7.96 4114 5.65
8/15/2021 12:15:00 AM 25.86 78.548 0.018 7.96 4171 5.62
8/15/2021 12:30:00 AM 25.85 78.53 0.019 7.96 4201 5.62
8/15/2021 12:45:00 AM 25.8 78.44 0.02 7.95 4190 5.62
8/15/2021 1:00:00 AM 25.81 78.458 0.022 7.95 4123 5.64
8/15/2021 1:15:00 AM 25.77 78.386 0.024 7.95 5040 5.55
8/15/2021 1:30:00 AM 25.75 78.35 0.025 7.95 4701 5.58
8/15/2021 1:45:00 AM 25.67 78.206 0.026 7.95 4749 5.61
8/15/2021 2:00:00 AM 25.66 78.188 0.029 7.95 4768 5.59
8/15/2021 2:15:00 AM 25.62 78.116 0.035 7.95 4819 5.6
8/15/2021 2:30:00 AM 25.55 77.99 0.037 7.95 4837 5.64
8/15/2021 2:45:00 AM 25.45 77.81 0.041 7.95 3690 5.67
8/15/2021 3:00:00 AM 25.42 77.756 0.052 7.96 3600 5.72
8/15/2021 3:15:00 AM 25.38 77.684 0.051 7.96 3605 5.74
8/15/2021 3:30:00 AM 25.31 77.558 0.043 7.96 3720 5.75
8/15/2021 3:45:00 AM 25.32 77.576 0.044 7.96 4315 5.78
8/15/2021 4:00:00 AM 25.26 77.468 0.041 7.96 4266 5.58
8/15/2021 4:15:00 AM 25.26 77.468 0.041 7.96 4055 5.67
8/15/2021 4:30:00 AM 25.21 77.378 0.038 7.96 4669 5.71
8/15/2021 4:45:00 AM 25.14 77.252 0.043 7.96 4776 5.66
8/15/2021 5:00:00 AM 25.12 77.216 0.039 7.96 4740 5.74
8/15/2021 5:15:00 AM 25.08 77.144 0.037 7.96 4768 5.66
8/15/2021 5:30:00 AM 25.05 77.09 0.04 7.95 4862 5.67
8/15/2021 5:45:00 AM 24.99 76.982 0.041 7.96 4904 5.77
8/15/2021 6:00:00 AM 24.86 76.748 0.038 7.96 5056 5.71
8/15/2021 6:15:00 AM 24.87 76.766 0.031 7.95 5100 5.74
8/15/2021 6:30:00 AM 24.79 76.622 0.032 7.96 5012 5.78
8/15/2021 6:45:00 AM 24.71 76.478 0.028 7.95 5100 5.8
8/15/2021 7:00:00 AM 24.69 76.442 0.024 7.96 5186 5.82
8/15/2021 7:15:00 AM 24.66 76.388 0.022 7.95 4717 5.89
8/15/2021 7:30:00 AM 24.62 76.316 0.018 7.96 4720 5.93
8/15/2021 7:45:00 AM 24.59 76.262 0.013 7.97 4731 6.01
8/15/2021 8:00:00 AM 24.57 76.226 0.013 7.96 4750 6.11
8/15/2021 8:15:00 AM 24.58 76.244 0.011 7.97 4700 6.28
8/15/2021 8:30:00 AM 24.61 76.298 0.008 7.98 5179 6.43
8/15/2021 8:45:00 AM 24.62 76.316 0.008 8 5228 6.62
8/15/2021 9:00:00 AM 24.66 76.388 0.009 8 5227 6.75
8/15/2021 9:15:00 AM 24.72 76.496 0.008 8.02 5249 6.93
8/15/2021 9:30:00 AM 24.77 76.586 0.01 8.03 5229 7.16
8/15/2021 9:45:00 AM 24.82 76.676 0.009 8.05 5205 7.47
8/15/2021 10:00:00 AM 24.91 76.838 0.008 8.08 5430 7.74
8/15/2021 10:15:00 AM 24.93 76.874 0.007 8.11 4974 7.99
8/15/2021 10:30:00 AM 25.01 77.018 0.007 8.12 5336 8.23
8/15/2021 10:45:00 AM 25.15 77.27 0.008 8.14 5324 8.5
8/15/2021 11:00:00 AM 25.22 77.396 0.007 8.17 5272 8.8
8/15/2021 11:15:00 AM 25.32 77.576 0.005 8.19 5368 9.05
8/15/2021 11:30:00 AM 25.51 77.918 0.006 8.21 4708 9.3
8/15/2021 11:45:00 AM 25.6 78.08 0.006 8.23 4748 9.52
8/15/2021 12:00:00 PM 25.65 78.17 0.006 8.25 5522 9.77
8/15/2021 12:15:00 PM 26.01 78.818 0.005 8.27 5132 10.02
8/15/2021 12:30:00 PM 26.31 79.358 0.005 8.29 5008 10.29
8/15/2021 12:45:00 PM 26.58 79.844 0.004 8.31 4871 10.7
8/15/2021 1:00:00 PM 26.86 80.348 0.004 8.33 4936 10.9
8/15/2021 1:15:00 PM 26.94 80.492 0.003 8.35 5049 11.11
8/15/2021 1:30:00 PM 27.55 81.59 0.004 8.37 5210 11.31
8/15/2021 1:45:00 PM 27.87 82.166 0.004 8.38 6008 11.4
8/15/2021 2:00:00 PM 27.77 81.986 0.004 8.4 5499 11.54
8/15/2021 2:15:00 PM 27.91 82.238 0.004 8.4 6182 11.62
8/15/2021 2:30:00 PM 28.11 82.598 0.007 8.41 6182 11.77
8/15/2021 2:45:00 PM 28.45 83.21001 0.004 8.41 6140 11.93
8/15/2021 3:00:00 PM 28.71 83.67799 0.004 8.42 6120 12
8/15/2021 3:15:00 PM 28.52 83.336 0.004 8.42 5782 12.01
8/15/2021 3:30:00 PM 28.5 83.3 0.003 8.42 5288 11.78
8/15/2021 3:45:00 PM 28.44 83.192 0.003 8.42 5878 11.7
8/15/2021 4:00:00 PM 28.49 83.282 0.003 8.42 6181 11.81
8/15/2021 4:15:00 PM 28.27 82.886 0.003 8.41 6181 11.26
8/15/2021 4:30:00 PM 28.07 82.526 0.003 8.4 6180 11.14
8/15/2021 4:45:00 PM 27.81 82.058 0.002 8.4 6180 11.08
8/15/2021 5:00:00 PM 27.69 81.842 0.003 8.39 6181 10.76
8/15/2021 5:15:00 PM 27.56 81.608 0.002 8.39 6180 10.64
8/15/2021 5:30:00 PM 27.36 81.248 0.002 8.38 6179 10.44
8/15/2021 5:45:00 PM 27.23 81.014 0.002 8.37 6180 10.18
8/15/2021 6:00:00 PM 27 80.6 0.002 8.35 6181 9.84
8/15/2021 6:15:00 PM 26.86 80.348 0.002 8.34 6181 9.54
8/15/2021 6:30:00 PM 26.58 79.844 0.002 8.32 6181 9.27
8/15/2021 6:45:00 PM 26.41 79.538 0.002 8.31 6181 8.94
8/15/2021 7:00:00 PM 26.24 79.232 0.002 8.29 6182 8.63
8/15/2021 7:15:00 PM 26.2 79.16 0.003 8.27 6181 8.37
8/15/2021 7:30:00 PM 26.06 78.908 0.002 8.25 6182 8.04
8/15/2021 7:45:00 PM 25.92 78.656 0.003 8.23 6181 7.77
8/15/2021 8:00:00 PM 25.84 78.512 0.003 8.21 6123 7.46
8/15/2021 8:15:00 PM 25.81 78.458 0.003 8.18 6080 7.12
8/15/2021 8:30:00 PM 25.57 78.026 0.003 8.17 6181 7.01
8/15/2021 8:45:00 PM 25.62 78.116 0.003 8.14 6181 6.83
8/15/2021 9:00:00 PM 25.54 77.972 0.003 8.12 6179 6.67
8/15/2021 9:15:00 PM 25.42 77.756 0.003 8.11 6180 6.48
8/15/2021 9:30:00 PM 25.36 77.648 0.003 8.09 6181 6.36
8/15/2021 9:45:00 PM 25.32 77.576 0.003 8.08 6180 6.21
8/15/2021 10:00:00 PM 25.26 77.468 0.004 8.06 6182 6.11
8/15/2021 10:15:00 PM 25.24 77.432 0.004 8.05 6180 6.07
8/15/2021 10:30:00 PM 25.17 77.306 0.004 8.04 6181 6.01
8/15/2021 10:45:00 PM 25.16 77.288 0.004 8.03 6181 5.93
8/15/2021 11:00:00 PM 25.1 77.18 0.004 8.02 6181 5.9
8/15/2021 11:15:00 PM 25.08 77.144 0.005 8.01 6181 5.87
8/15/2021 11:30:00 PM 25.04 77.07201 0.005 8.01 6181 5.82
8/15/2021 11:45:00 PM 25.02 77.036 0.005 7.99 6181 5.76
8/16/2021 12:00:00 AM 25 77 0.005 7.99 6181 5.76
8/16/2021 12:15:00 AM 25.01 77.018 0.005 7.99 6182 5.79
8/16/2021 12:30:00 AM 24.98 76.964 0.005 7.98 6181 5.79
8/16/2021 12:45:00 AM 24.95 76.91 0.005 7.99 6181 5.8
8/16/2021 1:00:00 AM 24.92 76.856 0.005 7.98 6180 5.83
8/16/2021 1:15:00 AM 24.93 76.874 0.005 7.98 6181 5.82
8/16/2021 1:30:00 AM 24.91 76.838 0.006 7.98 6181 5.75
8/16/2021 1:45:00 AM 24.86 76.748 0.006 7.97 6180 5.79
8/16/2021 2:00:00 AM 24.85 76.73 0.006 7.97 6182 5.78
8/16/2021 2:15:00 AM 24.84 76.712 0.005 7.97 6182 5.79
8/16/2021 2:30:00 AM 24.8 76.64 0.006 7.98 6181 5.83
8/16/2021 2:45:00 AM 24.79 76.622 0.007 7.98 6182 5.86
8/16/2021 3:00:00 AM 24.79 76.622 0.007 7.98 6182 5.85
8/16/2021 3:15:00 AM 24.74 76.532 0.008 7.98 6182 5.84
8/16/2021 3:30:00 AM 24.73 76.514 0.009 7.98 6182 5.84
8/16/2021 3:45:00 AM 24.71 76.478 0.009 7.98 6181 5.86
8/16/2021 4:00:00 AM 24.62 76.316 0.01 7.98 6181 5.91
8/16/2021 4:15:00 AM 24.66 76.388 0.012 7.98 6181 5.9
8/16/2021 4:30:00 AM 24.66 76.388 0.014 7.98 6182 5.87
8/16/2021 4:45:00 AM 24.63 76.334 0.019 7.98 6182 5.92
8/16/2021 5:00:00 AM 24.59 76.262 0.02 7.97 6182 5.89
8/16/2021 5:15:00 AM 24.55 76.19 0.019 7.98 6181 5.94
8/16/2021 5:30:00 AM 24.56 76.208 0.024 7.98 6182 5.94
8/16/2021 5:45:00 AM 24.52 76.136 0.027 7.98 6181 5.95
8/16/2021 6:00:00 AM 24.51 76.118 0.03 7.98 6182 5.93
8/16/2021 6:15:00 AM 24.48 76.064 0.031 7.98 5196 5.95
8/16/2021 6:30:00 AM 24.43 75.974 0.033 7.98 5164 5.95
8/16/2021 6:45:00 AM 24.41 75.938 0.037 7.97 5149 5.92
8/16/2021 7:00:00 AM 24.4 75.92 0.041 7.98 5181 5.98
8/16/2021 7:15:00 AM 24.35 75.83 0.041 7.98 5168 5.98
8/16/2021 7:30:00 AM 24.37 75.866 0.047 7.98 5170 6.03
8/16/2021 7:45:00 AM 24.35 75.83 0.044 7.98 5183 6.1
8/16/2021 8:00:00 AM 24.33 75.794 0.055 7.97 5377 6.07
8/16/2021 8:15:00 AM 24.28 75.704 0.06 7.98 5464 6.07
8/16/2021 8:30:00 AM 24.31 75.758 0.069 7.98 5914 6.24
8/16/2021 8:45:00 AM 24.3 75.74 0.075 7.98 5514 6.33
8/16/2021 9:00:00 AM 24.29 75.722 0.081 7.99 6182 6.43
8/16/2021 9:15:00 AM 24.27 75.686 0.097 8 6113 6.5
8/16/2021 9:30:00 AM 24.31 75.758 0.113 8 6181 6.58
8/16/2021 9:45:00 AM 24.33 75.794 0.097 8.01 6181 6.82
8/16/2021 10:00:00 AM 24.34 75.812 0.107 8.03 6181 7.07
8/16/2021 10:15:00 AM 24.4 75.92 0.113 8.04 6181 7.24
8/16/2021 10:30:00 AM 24.43 75.974 0.138 8.06 6181 7.36
8/16/2021 10:45:00 AM 24.52 76.136 0.164 8.08 6181 7.56
8/16/2021 11:00:00 AM 24.62 76.316 0.189 8.1 4168 8.01
8/16/2021 11:15:00 AM 24.81 76.658 0.214 8.14 4016 8.53
8/16/2021 11:30:00 AM 24.93 76.874 0.217 8.17 4351 8.9
8/16/2021 11:45:00 AM 24.92 76.856 0.198 8.2 4575 9.1
8/16/2021 12:00:00 PM 24.95 76.91 0.188 8.21 5434 9.18
8/16/2021 12:15:00 PM 25.12 77.216 0.181 8.23 5459 9.49
8/16/2021 12:30:00 PM 25.14 77.252 0.168 8.26 5868 9.8
8/16/2021 12:45:00 PM 25.17 77.306 0.212 8.27 6181 9.77
8/16/2021 1:00:00 PM 25.12 77.216 0.202 8.26 5934 9.54
8/16/2021 1:15:00 PM 25.16 77.288 0.215 8.26 5458 9.49
8/16/2021 1:30:00 PM 25.16 77.288 0.242 8.26 5776 9.48
8/16/2021 1:45:00 PM 25.19 77.342 0.266 8.27 4195 9.42
8/16/2021 2:00:00 PM 25.21 77.378 0.274 8.28 4924 9.53
8/16/2021 2:15:00 PM 25.24 77.432 0.286 8.3 5329 9.55
8/16/2021 2:30:00 PM 25.33 77.594 0.317 8.31 3958 9.81
8/16/2021 2:45:00 PM 25.37 77.666 0.332 8.33 4310 10.1
8/16/2021 3:00:00 PM 25.33 77.594 0.35 8.33 5040 9.94
8/16/2021 3:15:00 PM 25.31 77.558 0.369 8.33 5323 9.8
8/16/2021 3:30:00 PM 25.32 77.576 0.344 8.33 5390 9.76
8/16/2021 3:45:00 PM 25.28 77.504 0.306 8.33 5707 9.67
8/16/2021 4:00:00 PM 25.26 77.468 0.316 8.32 3498 9.57
8/16/2021 4:15:00 PM 25.24 77.432 0.265 8.32 3867 9.48
8/16/2021 4:30:00 PM 25.25 77.45 0.253 8.32 4964 9.45
8/16/2021 4:45:00 PM 25.21 77.378 0.253 8.32 4821 9.27
8/16/2021 5:00:00 PM 25.26 77.468 0.249 8.31 5054 9.17
8/16/2021 5:15:00 PM 25.28 77.504 0.249 8.32 4305 9.3
8/16/2021 5:30:00 PM 25.25 77.45 0.228 8.31 4339 9.2
8/16/2021 5:45:00 PM 25.19 77.342 0.235 8.3 4291 8.87
8/16/2021 6:00:00 PM 25.12 77.216 0.216 8.28 4302 8.58
8/16/2021 6:15:00 PM 25.08 77.144 0.208 8.27 4338 8.39
8/16/2021 6:30:00 PM 25.04 77.07201 0.23 8.26 4150 8.26
8/16/2021 6:45:00 PM 25.02 77.036 0.222 8.24 4212 8.08
8/16/2021 7:00:00 PM 24.96 76.92799 0.208 8.23 4229 7.88
8/16/2021 7:15:00 PM 24.92 76.856 0.225 8.21 4266 7.64
8/16/2021 7:30:00 PM 24.87 76.766 0.24 8.19 4008 7.41
8/16/2021 7:45:00 PM 24.84 76.712 0.241 8.18 4010 7.27
8/16/2021 8:00:00 PM 24.79 76.622 0.249 8.16 3675 7.06
8/16/2021 8:15:00 PM 24.73 76.514 0.266 8.15 3759 6.96
8/16/2021 8:30:00 PM 24.7 76.46 0.261 8.13 3722 6.82
8/16/2021 8:45:00 PM 24.66 76.388 0.269 8.12 4398 6.7
8/16/2021 9:00:00 PM 24.62 76.316 0.272 8.1 4984 6.6
8/16/2021 9:15:00 PM 24.6 76.28 0.263 8.09 4977 6.47
8/16/2021 9:30:00 PM 24.58 76.244 0.266 8.08 4285 6.41
8/16/2021 9:45:00 PM 24.57 76.226 0.262 8.07 4376 6.38
8/16/2021 10:00:00 PM 24.55 76.19 0.268 8.05 4377 6.31
8/16/2021 10:15:00 PM 24.52 76.136 0.289 8.04 4397 6.27
8/16/2021 10:30:00 PM 24.5 76.1 0.314 8.04 4598 6.24
8/16/2021 10:45:00 PM 24.47 76.046 0.344 8.03 5397 6.24
8/16/2021 11:00:00 PM 24.45 76.01 0.408 8.03 4991 6.24
8/16/2021 11:15:00 PM 24.42 75.956 0.482 8.03 5148 6.26
8/16/2021 11:30:00 PM 24.39 75.902 0.513 8.03 5336 6.29
8/16/2021 11:45:00 PM 24.37 75.866 0.515 8.02 5883 6.31
8/17/2021 12:00:00 AM 24.33 75.794 0.516 8.02 5990 6.3
8/17/2021 12:15:00 AM 24.32 75.776 0.514 8.01 6062 6.3
8/17/2021 12:30:00 AM 24.3 75.74 0.513 8 5896 6.23
8/17/2021 12:45:00 AM 24.3 75.74 0.514 8.01 6095 6.21
8/17/2021 1:00:00 AM 24.27 75.686 0.515 8 6181 6.22
8/17/2021 1:15:00 AM 24.27 75.686 0.516 8 6181 6.2
8/17/2021 1:30:00 AM 24.26 75.668 0.517 7.99 6182 6.18
8/17/2021 1:45:00 AM 24.25 75.65 0.517 7.99 6182 6.22
8/17/2021 2:00:00 AM 24.24 75.632 0.517 7.99 6182 6.11
8/17/2021 2:15:00 AM 24.2 75.56 0.517 7.98 6182 6.09
8/17/2021 2:30:00 AM 24.2 75.56 0.518 7.98 6182 6.18
8/17/2021 2:45:00 AM 24.19 75.542 0.52 7.98 6181 6.2
8/17/2021 3:00:00 AM 24.19 75.542 0.521 7.98 6181 6.2
8/17/2021 3:15:00 AM 24.19 75.542 0.522 7.98 6181 6.09
8/17/2021 3:30:00 AM 24.18 75.524 0.523 7.98 4826 6.21
8/17/2021 3:45:00 AM 24.17 75.506 0.524 7.98 5785 6.21
8/17/2021 4:00:00 AM 24.17 75.506 0.525 7.97 5783 6.21
8/17/2021 4:15:00 AM 24.16 75.488 0.526 7.97 5831 6.24
8/17/2021 4:30:00 AM 24.14 75.452 0.527 7.97 6180 6.16
8/17/2021 4:45:00 AM 24.13 75.434 0.527 7.98 6180 6.24
8/17/2021 5:00:00 AM 24.12 75.416 0.528 7.97 6153 6.19
8/17/2021 5:15:00 AM 24.11 75.398 0.528 7.97 5897 6.22
8/17/2021 5:30:00 AM 24.1 75.38 0.529 7.97 6180 6.2
8/17/2021 5:45:00 AM 24.08 75.344 0.529 7.97 6180 6.19
8/17/2021 6:00:00 AM 24.06 75.308 0.529 7.97 6180 6.16
8/17/2021 6:15:00 AM 24.05 75.29 0.529 7.97 6180 6.14
8/17/2021 6:30:00 AM 24.03 75.254 0.529 7.97 5763 6.15
8/17/2021 6:45:00 AM 24.01 75.218 0.53 7.96 6181 6.18
8/17/2021 7:00:00 AM 24 75.2 0.53 7.97 6181 6.17
8/17/2021 7:15:00 AM 23.98 75.164 0.53 7.97 6181 6.2
8/17/2021 7:30:00 AM 23.98 75.164 0.53 7.96 6180 6.26
8/17/2021 7:45:00 AM 23.98 75.164 0.53 7.96 6180 6.3
8/17/2021 8:00:00 AM 23.99 75.182 0.53 7.96 6180 6.41
8/17/2021 8:15:00 AM 24.01 75.218 0.53 7.98 6180 6.53
8/17/2021 8:30:00 AM 24.02 75.236 0.529 7.98 6180 6.63
8/17/2021 8:45:00 AM 24.02 75.236 0.529 7.99 6180 6.71
8/17/2021 9:00:00 AM 24.02 75.236 0.529 8 6181 6.66
8/17/2021 9:15:00 AM 24.01 75.218 0.529 8 6181 6.79
8/17/2021 9:30:00 AM 24.03 75.254 0.529 8.01 6181 6.89
8/17/2021 9:45:00 AM 24.19 75.542 0.528 8.03 6181 7.29
8/17/2021 10:00:00 AM 24.25 75.65 0.527 8.06 6181 7.71
8/17/2021 10:15:00 AM 24.28 75.704 0.526 8.08 5205 7.94
8/17/2021 10:30:00 AM 24.34 75.812 0.526 8.1 5475 8.16
8/17/2021 10:45:00 AM 24.38 75.884 0.525 8.13 5918 8.4
8/17/2021 11:00:00 AM 24.42 75.956 0.525 8.15 6024 8.51
8/17/2021 11:15:00 AM 24.49 76.082 0.524 8.17 4763 8.78
8/17/2021 11:30:00 AM 24.62 76.316 0.523 8.19 6180 9.17
8/17/2021 11:45:00 AM 24.72 76.496 0.522 8.22 6180 9.43
8/17/2021 12:00:00 PM 24.91 76.838 0.521 8.24 5724 9.76
8/17/2021 12:15:00 PM 25.05 77.09 0.52 8.27 6181 10.09
8/17/2021 12:30:00 PM 25.29 77.522 0.519 8.3 6181 10.38
8/17/2021 12:45:00 PM 25.37 77.666 0.519 8.31 4721 10.59
8/17/2021 1:00:00 PM 25.44 77.792 0.518 8.33 3694 10.64
8/17/2021 1:15:00 PM 25.49 77.882 0.517 8.34 3638 10.73
8/17/2021 1:30:00 PM 25.59 78.062 0.517 8.35 6181 10.83
8/17/2021 1:45:00 PM 25.69 78.242 0.516 8.36 5773 10.94
8/17/2021 2:00:00 PM 25.78 78.404 0.515 8.37 5920 11
8/17/2021 2:15:00 PM 25.86 78.548 0.515 8.38 5932 10.99
8/17/2021 2:30:00 PM 25.86 78.548 0.515 8.37 5944 10.76
8/17/2021 2:45:00 PM 25.88 78.584 0.515 8.37 6030 10.72
8/17/2021 3:00:00 PM 25.84 78.512 0.515 8.37 6174 10.63
8/17/2021 3:15:00 PM 25.83 78.494 0.515 8.37 6180 10.54
8/17/2021 3:30:00 PM 25.72 78.296 0.469 8.35 6181 10.28
8/17/2021 3:45:00 PM 25.69 78.242 0.514 8.35 6180 10.12
8/17/2021 4:00:00 PM 25.72 78.296 0.514 8.35 6179 10.19
8/17/2021 4:15:00 PM 25.71 78.278 0.514 8.35 6180 10.02
8/17/2021 4:30:00 PM 25.65 78.17 0.479 8.34 6180 9.9
8/17/2021 4:45:00 PM 25.61 78.098 0.511 8.34 6180 9.81
8/17/2021 5:00:00 PM 25.62 78.116 0.507 8.33 4914 9.77
8/17/2021 5:15:00 PM 25.67 78.206 0.514 8.33 4160 9.82
8/17/2021 5:30:00 PM 25.62 78.116 0.514 8.33 3987 9.67
8/17/2021 5:45:00 PM 25.62 78.116 0.514 8.32 4016 9.62
8/17/2021 6:00:00 PM 25.59 78.062 0.514 8.32 4956 9.54
8/17/2021 6:15:00 PM 25.52 77.936 0.514 8.31 5402 9.34
8/17/2021 6:30:00 PM 25.45 77.81 0.515 8.29 3821 9.12
8/17/2021 6:45:00 PM 25.37 77.666 0.515 8.28 3834 8.82
8/17/2021 7:00:00 PM 25.3 77.54 0.516 8.26 3901 8.61
8/17/2021 7:15:00 PM 25.23 77.414 0.516 8.25 3995 8.4
8/17/2021 7:30:00 PM 25.17 77.306 0.517 8.24 4586 8.17
8/17/2021 7:45:00 PM 25.09 77.162 0.517 8.23 2966 7.96
8/17/2021 8:00:00 PM 25 77 0.518 8.21 2911 7.75
8/17/2021 8:15:00 PM 24.9 76.82 0.518 8.19 2869 7.52
8/17/2021 8:30:00 PM 24.81 76.658 0.519 8.17 3043 7.32
8/17/2021 8:45:00 PM 24.75 76.55 0.52 8.15 3083 7.12
8/17/2021 9:00:00 PM 24.69 76.442 0.52 8.13 3029 6.97
8/17/2021 9:15:00 PM 24.63 76.334 0.52 8.11 2942 6.83
8/17/2021 9:30:00 PM 24.56 76.208 0.517 8.1 2984 6.68
8/17/2021 9:45:00 PM 24.48 76.064 0.518 8.09 3007 6.65
8/17/2021 10:00:00 PM 24.41 75.938 0.52 8.07 3122 6.51
8/17/2021 10:15:00 PM 24.36 75.848 0.52 8.07 3036 6.42
8/17/2021 10:30:00 PM 24.32 75.776 0.521 8.05 3083 6.27
8/17/2021 10:45:00 PM 24.28 75.704 0.521 8.04 2792 6.23
8/17/2021 11:00:00 PM 24.24 75.632 0.521 8.04 3209 6.23
8/17/2021 11:15:00 PM 24.22 75.596 0.521 8.03 2935 6.2
8/17/2021 11:30:00 PM 24.19 75.542 0.521 8.02 3760 6.22
8/17/2021 11:45:00 PM 24.17 75.506 0.521 8.02 3723 6.24
8/18/2021 12:00:00 AM 24.15 75.47 0.521 8.02 3233 6.24
8/18/2021 12:15:00 AM 24.13 75.434 0.521 8.01 3598 6.25
8/18/2021 12:30:00 AM 24.11 75.398 0.521 8.01 3759 6.22
8/18/2021 12:45:00 AM 24.09 75.362 0.521 8.01 3944 6.22
8/18/2021 1:00:00 AM 24.08 75.344 0.521 8.01 3723 6.22
8/18/2021 1:15:00 AM 24.06 75.308 0.521 8 3235 6.18
8/18/2021 1:30:00 AM 24.05 75.29 0.519 8.01 4300 6.24
8/18/2021 1:45:00 AM 24 75.2 0.505 8.02 4077 6.4
8/18/2021 2:00:00 AM 23.81 74.858 0.455 8.04 3585 6.64
8/18/2021 2:15:00 AM 23.74 74.732 0.377 8.05 3572 6.62
8/18/2021 2:30:00 AM 23.75 74.75 0.365 8.02 3088 6.77
8/18/2021 2:45:00 AM 23.76 74.768 0.38 7.99 3136 6.79
8/18/2021 3:00:00 AM 23.76 74.768 0.394 7.97 1270 6.76
8/18/2021 3:15:00 AM 23.75 74.75 0.396 7.96 1658 6.74
8/18/2021 3:30:00 AM 23.75 74.75 0.4 7.95 1687 6.69
8/18/2021 3:45:00 AM 23.73 74.714 0.407 7.94 1691 6.75
8/18/2021 4:00:00 AM 23.7 74.66 0.41 7.94 2090 6.86
8/18/2021 4:15:00 AM 23.71 74.67799 0.414 7.94 2257 6.86
8/18/2021 4:30:00 AM 23.72 74.696 0.428 7.94 2403 6.84
8/18/2021 4:45:00 AM 23.73 74.714 0.441 7.93 2566 6.81
8/18/2021 5:00:00 AM 23.72 74.696 0.445 7.94 3099 6.8
8/18/2021 5:15:00 AM 23.71 74.67799 0.446 7.94 3343 6.84
8/18/2021 5:30:00 AM 23.69 74.642 0.445 7.95 4206 6.9
8/18/2021 5:45:00 AM 23.7 74.66 0.45 7.94 3902 6.92
8/18/2021 6:00:00 AM 23.7 74.66 0.458 7.94 4044 6.92
8/18/2021 6:15:00 AM 23.69 74.642 0.441 7.94 3874 6.9
8/18/2021 6:30:00 AM 23.68 74.624 0.46 7.95 2361 6.92
8/18/2021 6:45:00 AM 23.68 74.624 0.463 7.95 4107 6.9
8/18/2021 7:00:00 AM 23.67 74.606 0.467 7.95 3939 6.94
8/18/2021 7:15:00 AM 23.67 74.606 0.472 7.96 4007 6.95
8/18/2021 7:30:00 AM 23.67 74.606 0.476 7.95 4513 6.97
8/18/2021 7:45:00 AM 23.68 74.624 0.478 7.96 4719 7
8/18/2021 8:00:00 AM 23.7 74.66 0.481 7.96 4652 7.03
8/18/2021 8:15:00 AM 23.74 74.732 0.482 7.97 4643 7.11
8/18/2021 8:30:00 AM 23.78 74.804 0.483 7.98 5104 7.18
8/18/2021 8:45:00 AM 23.83 74.894 0.485 7.99 5113 7.25
8/18/2021 9:00:00 AM 23.87 74.966 0.485 8 4696 7.35
8/18/2021 9:15:00 AM 23.9 75.02 0.486 8.02 5477 7.42
8/18/2021 9:30:00 AM 23.96 75.128 0.486 8.02 5170 7.53
8/18/2021 9:45:00 AM 24.01 75.218 0.487 8.04 4342 7.58
8/18/2021 10:00:00 AM 24.05 75.29 0.487 8.04 1884 7.63
8/18/2021 10:15:00 AM 24.12 75.416 0.488 8.06 1941 7.63
8/18/2021 10:30:00 AM 24.21 75.578 0.488 8.07 2426 7.75
8/18/2021 10:45:00 AM 24.3 75.74 0.488 8.08 1545 7.92
8/18/2021 11:00:00 AM 24.35 75.83 0.489 8.1 2159 7.95
8/18/2021 11:15:00 AM 24.41 75.938 0.489 8.11 3758 8.03
8/18/2021 11:30:00 AM 24.47 76.046 0.489 8.12 3190 8.05
8/18/2021 11:45:00 AM 24.64 76.352 0.489 8.13 5387 8.24
8/18/2021 12:00:00 PM 24.67 76.406 0.489 8.15 3383 8.27
8/18/2021 12:15:00 PM 24.78 76.604 0.489 8.15 3034 8.38
8/18/2021 12:30:00 PM 24.83 76.694 0.489 8.16 1892 8.45
8/18/2021 12:45:00 PM 24.86 76.748 0.489 8.17 1734 8.43
8/18/2021 1:00:00 PM 24.84 76.712 0.488 8.18 2622 8.45
8/18/2021 1:15:00 PM 24.79 76.622 0.489 8.17 2125 8.26
8/18/2021 1:30:00 PM 24.82 76.676 0.488 8.17 4727 8.31
8/18/2021 1:45:00 PM 24.79 76.622 0.487 8.17 625.1 8.2
8/18/2021 2:00:00 PM 24.79 76.622 0.487 8.16 3143 8.2
8/18/2021 2:15:00 PM 24.76 76.568 0.487 8.16 3566 8.11
8/18/2021 2:30:00 PM 24.68 76.424 0.486 8.15 3731 7.93
8/18/2021 2:45:00 PM 24.65 76.37 0.486 8.15 3835 7.78
8/18/2021 3:00:00 PM 24.61 76.298 0.486 8.14 3757 7.78
8/18/2021 3:15:00 PM 24.56 76.208 0.482 8.14 4047 7.68
8/18/2021 3:30:00 PM 24.46 76.028 0.458 8.14 4491 7.61
8/18/2021 3:45:00 PM 24.59 76.262 0.411 8.14 3949 7.48
8/18/2021 4:00:00 PM 24.68 76.424 0.404 8.12 4140 7.64
8/18/2021 4:15:00 PM 24.6 76.28 0.427 8.1 4323 7.63
8/18/2021 4:30:00 PM 24.56 76.208 0.416 8.09 4353 7.42
8/18/2021 4:45:00 PM 24.51 76.118 0.404 8.06 4681 7.27
8/18/2021 5:00:00 PM 24.46 76.028 0.405 8.03 3451 7.2
8/18/2021 5:15:00 PM 24.41 75.938 0.41 8.01 4583 7.17
8/18/2021 5:30:00 PM 24.36 75.848 0.416 7.99 4891 7.16
8/18/2021 5:45:00 PM 24.31 75.758 0.419 7.98 3102 7.1
8/18/2021 6:00:00 PM 24.24 75.632 0.416 7.97 5373 7.04
8/18/2021 6:15:00 PM 24.27 75.686 0.376 7.99 4842 7.16
8/18/2021 6:30:00 PM 24.27 75.686 0.329 8 5576 7.26
8/18/2021 6:45:00 PM 24.22 75.596 0.312 7.97 5785 7.27
8/18/2021 7:00:00 PM 24.19 75.542 0.279 7.93 4625 7.21
8/18/2021 7:15:00 PM 24.16 75.488 0.261 7.87 6180 7.12
8/18/2021 7:30:00 PM 24.09 75.362 0.267 7.82 6180 7.08
8/18/2021 7:45:00 PM 24 75.2 0.29 7.79 3515 7.03
8/18/2021 8:00:00 PM 23.91 75.038 0.315 7.77 6178 7.01
8/18/2021 8:15:00 PM 23.84 74.912 0.332 7.77 6178 7.03
8/18/2021 8:30:00 PM 23.76 74.768 0.353 7.77 6178 7.07
8/18/2021 8:45:00 PM 23.72 74.696 0.365 7.78 5451 7.13
8/18/2021 9:00:00 PM 23.67 74.606 0.376 7.79 5803 7.14
8/18/2021 9:15:00 PM 23.65 74.57 0.377 7.8 6164 7.16
8/18/2021 9:30:00 PM 23.62 74.516 0.389 7.82 6179 7.2
8/18/2021 9:45:00 PM 23.59 74.462 0.392 7.83 6176 7.24
8/18/2021 10:00:00 PM 23.57 74.426 0.399 7.84 5717 7.25
8/18/2021 10:15:00 PM 23.54 74.372 0.406 7.85 4621 7.29
8/18/2021 10:30:00 PM 23.51 74.318 0.41 7.85 4018 7.37
8/18/2021 10:45:00 PM 23.47 74.246 0.414 7.87 4374 7.4
8/18/2021 11:00:00 PM 23.42 74.156 0.415 7.87 4264 7.43
8/18/2021 11:15:00 PM 23.36 74.048 0.416 7.88 3654 7.44
8/18/2021 11:30:00 PM 23.32 73.976 0.414 7.87 4245 7.43
8/18/2021 11:45:00 PM 23.28 73.904 0.41 7.87 4046 7.45
8/19/2021 12:00:00 AM 23.22 73.796 0.403 7.87 4145 7.44
8/19/2021 12:15:00 AM 23.18 73.724 0.395 7.86 3831 7.43
8/19/2021 12:30:00 AM 23.13 73.634 0.386 7.84 4000 7.41
8/19/2021 12:45:00 AM 23.09 73.562 0.377 7.84 4469 7.37
8/19/2021 1:00:00 AM 23.05 73.49 0.37 7.82 4753 7.37
8/19/2021 1:15:00 AM 23.01 73.418 0.362 7.81 4294 7.39
8/19/2021 1:30:00 AM 22.97 73.346 0.356 7.8 3873 7.37
8/19/2021 1:45:00 AM 22.94 73.292 0.353 7.78 3512 7.36
8/19/2021 2:00:00 AM 22.91 73.238 0.35 7.77 3943 7.33
8/19/2021 2:15:00 AM 22.87 73.166 0.348 7.76 5307 7.35
8/19/2021 2:30:00 AM 22.83 73.094 0.346 7.75 4252 7.33
8/19/2021 2:45:00 AM 22.79 73.022 0.346 7.75 5368 7.31
8/19/2021 3:00:00 AM 22.75 72.95 0.345 7.73 5343 7.32
8/19/2021 3:15:00 AM 22.72 72.896 0.345 7.71 5505 7.3
8/19/2021 3:30:00 AM 22.69 72.842 0.346 7.72 5691 7.31
8/19/2021 3:45:00 AM 22.64 72.752 0.347 7.71 5041 7.29
8/19/2021 4:00:00 AM 22.61 72.698 0.347 7.7 4600 7.28
8/19/2021 4:15:00 AM 22.57 72.626 0.347 7.7 4159 7.29
8/19/2021 4:30:00 AM 22.54 72.57201 0.347 7.7 4623 7.29
8/19/2021 4:45:00 AM 22.51 72.518 0.347 7.69 4399 7.27
8/19/2021 5:00:00 AM 22.48 72.464 0.346 7.69 4422 7.27
8/19/2021 5:15:00 AM 22.46 72.42799 0.346 7.67 4547 7.26
8/19/2021 5:30:00 AM 22.44 72.392 0.345 7.68 4778 7.26
8/19/2021 5:45:00 AM 22.42 72.356 0.345 7.68 4532 7.25
8/19/2021 6:00:00 AM 22.39 72.302 0.344 7.67 4534 7.28
8/19/2021 6:15:00 AM 22.37 72.266 0.344 7.67 4652 7.27
8/19/2021 6:30:00 AM 22.34 72.212 0.344 7.67 4482 7.28
8/19/2021 6:45:00 AM 22.32 72.176 0.344 7.66 4608 7.26
8/19/2021 7:00:00 AM 22.3 72.14 0.344 7.67 4661 7.24
8/19/2021 7:15:00 AM 22.28 72.104 0.345 7.66 4964 7.25
8/19/2021 7:30:00 AM 22.27 72.086 0.346 7.65 6173 7.26
8/19/2021 7:45:00 AM 22.27 72.086 0.346 7.65 5265 7.26
8/19/2021 8:00:00 AM 22.26 72.068 0.347 7.66 5334 7.27
8/19/2021 8:15:00 AM 22.26 72.068 0.347 7.65 5348 7.29
8/19/2021 8:30:00 AM 22.27 72.086 0.347 7.65 5376 7.29
8/19/2021 8:45:00 AM 22.26 72.068 0.348 7.66 5606 7.29
8/19/2021 9:00:00 AM 22.27 72.086 0.348 7.66 5466 7.32
8/19/2021 9:15:00 AM 22.28 72.104 0.348 7.66 4391 7.36
8/19/2021 9:30:00 AM 22.31 72.158 0.348 7.67 5284 7.37
8/19/2021 9:45:00 AM 22.34 72.212 0.347 7.66 4977 7.39
8/19/2021 10:00:00 AM 22.36 72.248 0.347 7.67 4655 7.41
8/19/2021 10:15:00 AM 22.4 72.32 0.346 7.67 4460 7.45
8/19/2021 10:30:00 AM 22.47 72.446 0.346 7.67 3888 7.49
8/19/2021 10:45:00 AM 22.51 72.518 0.346 7.68 4234 7.55
8/19/2021 11:00:00 AM 22.57 72.626 0.346 7.68 3925 7.62
8/19/2021 11:15:00 AM 22.65 72.77 0.346 7.68 3953 7.64
8/19/2021 11:30:00 AM 22.75 72.95 0.346 7.69 3886 7.72
8/19/2021 11:45:00 AM 22.82 73.076 0.346 7.7 3861 7.72
8/19/2021 12:00:00 PM 22.92 73.256 0.346 7.71 3819 7.78
8/19/2021 12:15:00 PM 23.03 73.454 0.346 7.72 4093 7.81
8/19/2021 12:30:00 PM 23.11 73.598 0.346 7.72 4308 7.88
8/19/2021 12:45:00 PM 23.11 73.598 0.346 7.73 4449 7.86
8/19/2021 1:00:00 PM 23.06 73.508 0.346 7.73 4705 7.82
8/19/2021 1:15:00 PM 23.01 73.418 0.346 7.72 4653 7.77
8/19/2021 1:30:00 PM 22.98 73.364 0.345 7.72 4608 7.73
8/19/2021 1:45:00 PM 23.12 73.616 0.344 7.73 4724 7.8
8/19/2021 2:00:00 PM 23.18 73.724 0.344 7.74 2199 7.84
8/19/2021 2:15:00 PM 23.21 73.778 0.343 7.73 2156 7.83
8/19/2021 2:30:00 PM 23.35 74.03 0.343 7.74 3492 7.88
8/19/2021 2:45:00 PM 23.41 74.138 0.342 7.75 3167 7.93
8/19/2021 3:00:00 PM 23.6 74.48 0.342 7.75 3135 7.97
8/19/2021 3:15:00 PM 23.76 74.768 0.342 7.76 3038 8
8/19/2021 3:30:00 PM 23.79 74.82201 0.342 7.77 2988 8.02
8/19/2021 3:45:00 PM 23.88 74.984 0.342 7.77 3035 8.03
8/19/2021 4:00:00 PM 23.99 75.182 0.343 7.77 3051 8.09
8/19/2021 4:15:00 PM 24 75.2 0.344 7.79 3023 8.03
8/19/2021 4:30:00 PM 23.93 75.074 0.345 7.78 2995 7.94
8/19/2021 4:45:00 PM 24.05 75.29 0.346 7.79 3170 7.94
8/19/2021 5:00:00 PM 23.97 75.146 0.347 7.79 2731 7.79
8/19/2021 5:15:00 PM 23.9 75.02 0.348 7.79 2714 7.76
8/19/2021 5:30:00 PM 23.86 74.948 0.35 7.79 2763 7.71
8/19/2021 5:45:00 PM 23.85 74.93 0.352 7.78 2698 7.67
8/19/2021 6:00:00 PM 23.85 74.93 0.354 7.78 3021 7.64
8/19/2021 6:15:00 PM 23.86 74.948 0.355 7.79 2826 7.62
8/19/2021 6:30:00 PM 23.88 74.984 0.357 7.79 2933 7.61
8/19/2021 6:45:00 PM 23.89 75.002 0.359 7.79 3212 7.61
8/19/2021 7:00:00 PM 23.9 75.02 0.361 7.79 3151 7.59
8/19/2021 7:15:00 PM 23.92 75.056 0.363 7.8 3463 7.55
8/19/2021 7:30:00 PM 23.93 75.074 0.365 7.8 3676 7.53
8/19/2021 7:45:00 PM 23.95 75.11 0.367 7.8 2461 7.5
8/19/2021 8:00:00 PM 23.96 75.128 0.368 7.8 2705 7.48
8/19/2021 8:15:00 PM 23.97 75.146 0.37 7.8 3235 7.42
8/19/2021 8:30:00 PM 23.99 75.182 0.372 7.8 2075 7.44
8/19/2021 8:45:00 PM 24 75.2 0.373 7.81 2395 7.38
8/19/2021 9:00:00 PM 24.02 75.236 0.375 7.81 4738 7.37
8/19/2021 9:15:00 PM 24.04 75.272 0.376 7.8 4179 7.35
8/19/2021 9:30:00 PM 24.07 75.326 0.377 7.8 4466 7.31
8/19/2021 9:45:00 PM 24.08 75.344 0.379 7.8 4001 7.28
8/19/2021 10:00:00 PM 24.1 75.38 0.38 7.8 4003 7.28
8/19/2021 10:15:00 PM 24.13 75.434 0.381 7.8 3877 7.25
8/19/2021 10:30:00 PM 24.15 75.47 0.382 7.8 5398 7.3
8/19/2021 10:45:00 PM 24.16 75.488 0.384 7.8 5143 7.3
8/19/2021 11:00:00 PM 24.17 75.506 0.385 7.81 6006 7.24
8/19/2021 11:15:00 PM 24.17 75.506 0.386 7.8 2731 7.25
8/19/2021 11:30:00 PM 24.16 75.488 0.388 7.8 2920 7.25
8/19/2021 11:45:00 PM 24.15 75.47 0.388 7.8 3271 7.24
8/20/2021 12:00:00 AM 24.13 75.434 0.39 7.8 3420 7.19
8/20/2021 12:15:00 AM 24.11 75.398 0.392 7.79 2885 7.21
8/20/2021 12:30:00 AM 24.09 75.362 0.393 7.8 3343 7.21
8/20/2021 12:45:00 AM 24.08 75.344 0.395 7.79 3099 7.19
8/20/2021 1:00:00 AM 24.06 75.308 0.396 7.79 3750 7.17
8/20/2021 1:15:00 AM 24.03 75.254 0.397 7.79 3388 7.15
8/20/2021 1:30:00 AM 24.01 75.218 0.399 7.78 4575 7.18
8/20/2021 1:45:00 AM 23.98 75.164 0.4 7.78 4573 7.14
8/20/2021 2:00:00 AM 23.96 75.128 0.4 7.78 4779 7.15
8/20/2021 2:15:00 AM 23.93 75.074 0.402 7.78 5064 7.15
8/20/2021 2:30:00 AM 23.9 75.02 0.403 7.78 5150 7.11
8/20/2021 2:45:00 AM 23.86 74.948 0.404 7.77 5313 7.11
8/20/2021 3:00:00 AM 23.83 74.894 0.405 7.78 3832 7.11
8/20/2021 3:15:00 AM 23.81 74.858 0.406 7.78 4057 7.1
8/20/2021 3:30:00 AM 23.78 74.804 0.406 7.77 4090 7.1
8/20/2021 3:45:00 AM 23.75 74.75 0.407 7.77 4157 7.09
8/20/2021 4:00:00 AM 23.72 74.696 0.407 7.77 4212 7.08
8/20/2021 4:15:00 AM 23.69 74.642 0.408 7.77 4555 7.07
8/20/2021 4:30:00 AM 23.66 74.588 0.409 7.77 4456 7.08
8/20/2021 4:45:00 AM 23.63 74.534 0.409 7.77 4832 7.07
8/20/2021 5:00:00 AM 23.6 74.48 0.409 7.77 4883 7.06
8/20/2021 5:15:00 AM 23.57 74.426 0.409 7.77 4939 7.03
8/20/2021 5:30:00 AM 23.54 74.372 0.409 7.76 4991 7.04
8/20/2021 5:45:00 AM 23.52 74.336 0.409 7.76 5183 7.03
8/20/2021 6:00:00 AM 23.49 74.282 0.409 7.76 5245 7.02
8/20/2021 6:15:00 AM 23.47 74.246 0.409 7.76 5287 7
8/20/2021 6:30:00 AM 23.44 74.192 0.409 7.75 5199 7
8/20/2021 6:45:00 AM 23.42 74.156 0.408 7.75 5435 7.02
8/20/2021 7:00:00 AM 23.4 74.12 0.374 7.76 5488 7
8/20/2021 7:15:00 AM 23.38 74.084 0.364 7.75 5580 6.99
8/20/2021 7:30:00 AM 23.36 74.048 0.399 7.74 5393 6.99
8/20/2021 7:45:00 AM 23.35 74.03 0.406 7.75 5451 7.01
8/20/2021 8:00:00 AM 23.35 74.03 0.37 7.75 5393 7.01
8/20/2021 8:15:00 AM 23.34 74.012 0.382 7.75 4973 7.04
8/20/2021 8:30:00 AM 23.34 74.012 0.4 7.75 5141 7.07
8/20/2021 8:45:00 AM 23.34 74.012 0.398 7.75 5171 7.06
8/20/2021 9:00:00 AM 23.35 74.03 0.401 7.75 5123 7.12
8/20/2021 9:15:00 AM 23.35 74.03 0.403 7.75 5213 7.14
8/20/2021 9:30:00 AM 23.36 74.048 0.373 7.75 5206 7.17
8/20/2021 9:45:00 AM 23.36 74.048 0.402 7.76 5066 7.21
8/20/2021 10:00:00 AM 23.37 74.066 0.402 7.76 5740 7.22
8/20/2021 10:15:00 AM 23.38 74.084 0.401 7.76 5643 7.26
8/20/2021 10:30:00 AM 23.4 74.12 0.401 7.76 5645 7.31
8/20/2021 10:45:00 AM 23.42 74.156 0.4 7.77 5565 7.34
8/20/2021 11:00:00 AM 23.44 74.192 0.4 7.78 5551 7.36
8/20/2021 11:15:00 AM 23.47 74.246 0.399 7.78 5535 7.45
8/20/2021 11:30:00 AM 23.49 74.282 0.399 7.78 3712 7.49
8/20/2021 11:45:00 AM 23.51 74.318 0.399 7.79 3741 7.54
8/20/2021 12:00:00 PM 23.55 74.39 0.399 7.79 3567 7.57
8/20/2021 12:15:00 PM 23.58 74.444 0.399 7.8 3793 7.61
8/20/2021 12:30:00 PM 23.63 74.534 0.377 7.8 3503 7.69
8/20/2021 12:45:00 PM 23.69 74.642 0.398 7.82 3724 7.76
8/20/2021 1:00:00 PM 23.77 74.786 0.398 7.82 3639 7.81
8/20/2021 1:15:00 PM 23.81 74.858 0.398 7.83 4086 7.84
8/20/2021 1:30:00 PM 23.89 75.002 0.398 7.84 4075 7.83
8/20/2021 1:45:00 PM 23.96 75.128 0.398 7.85 4213 7.85
8/20/2021 2:00:00 PM 24.08 75.344 0.398 7.86 4046 8.02
8/20/2021 2:15:00 PM 24.18 75.524 0.399 7.86 4482 8.05
8/20/2021 2:30:00 PM 24.34 75.812 0.399 7.86 4544 8.08
8/20/2021 2:45:00 PM 24.32 75.776 0.4 7.87 4563 8.09
8/20/2021 3:00:00 PM 24.47 76.046 0.4 7.87 4496 8.1
8/20/2021 3:15:00 PM 24.64 76.352 0.401 7.88 3488 8.19
8/20/2021 3:30:00 PM 24.79 76.622 0.401 7.88 3484 8.09
8/20/2021 3:45:00 PM 24.89 76.802 0.401 7.89 3564 8.19
8/20/2021 4:00:00 PM 24.98 76.964 0.4 7.9 4260 8.24
8/20/2021 4:15:00 PM 25.05 77.09 0.402 7.9 3917 8.23
8/20/2021 4:30:00 PM 25.1 77.18 0.403 7.89 3706 8.2
8/20/2021 4:45:00 PM 25.14 77.252 0.403 7.9 3717 8.24
8/20/2021 5:00:00 PM 25.13 77.234 0.386 7.9 3809 8.23
8/20/2021 5:15:00 PM 25.13 77.234 0.389 7.91 1526 8.19
8/20/2021 5:30:00 PM 25.09 77.162 0.403 7.92 3553 8
8/20/2021 5:45:00 PM 25.01 77.018 0.404 7.92 6175 7.95
8/20/2021 6:00:00 PM 24.89 76.802 0.404 7.9 5318 7.85
8/20/2021 6:15:00 PM 24.73 76.514 0.404 7.9 5223 7.71
8/20/2021 6:30:00 PM 24.6 76.28 0.404 7.89 4701 7.64
8/20/2021 6:45:00 PM 24.48 76.064 0.405 7.87 4442 7.51
8/20/2021 7:00:00 PM 24.38 75.884 0.405 7.87 6176 7.37
8/20/2021 7:15:00 PM 24.29 75.722 0.405 7.85 5024 7.32
8/20/2021 7:30:00 PM 24.22 75.596 0.405 7.85 5527 7.24
8/20/2021 7:45:00 PM 24.16 75.488 0.405 7.84 5921 7.11
8/20/2021 8:00:00 PM 24.11 75.398 0.405 7.83 4432 7.1
8/20/2021 8:15:00 PM 24.07 75.326 0.395 7.82 5078 7.03
8/20/2021 8:30:00 PM 24.04 75.272 0.403 7.81 5704 7.02
8/20/2021 8:45:00 PM 24.01 75.218 0.377 7.81 6116 6.94
8/20/2021 9:00:00 PM 23.99 75.182 0.404 7.8 6173 7.01
8/20/2021 9:15:00 PM 23.97 75.146 0.404 7.8 6070 6.94
8/20/2021 9:30:00 PM 23.96 75.128 0.401 7.79 6176 6.94
8/20/2021 9:45:00 PM 23.95 75.11 0.367 7.79 6176 6.96
8/20/2021 10:00:00 PM 23.94 75.092 0.403 7.8 6175 6.94
8/20/2021 10:15:00 PM 23.93 75.074 0.381 7.79 6175 6.94
8/20/2021 10:30:00 PM 23.92 75.056 0.402 7.79 6176 6.95
8/20/2021 10:45:00 PM 23.92 75.056 0.401 7.79 4283 6.98
8/20/2021 11:00:00 PM 23.91 75.038 0.401 7.79 3323 6.97
8/20/2021 11:15:00 PM 23.92 75.056 0.4 7.79 2459 6.96
8/20/2021 11:30:00 PM 23.92 75.056 0.399 7.79 2920 7
8/20/2021 11:45:00 PM 23.91 75.038 0.399 7.8 4566 7
8/21/2021 12:00:00 AM 23.9 75.02 0.398 7.79 4961 7
8/21/2021 12:15:00 AM 23.9 75.02 0.398 7.8 4505 7.01
8/21/2021 12:30:00 AM 23.9 75.02 0.396 7.79 5098 7.02
8/21/2021 12:45:00 AM 23.9 75.02 0.396 7.8 6093 7.02
8/21/2021 1:00:00 AM 23.9 75.02 0.395 7.8 6175 7.04
8/21/2021 1:15:00 AM 23.89 75.002 0.395 7.81 6176 7.04
8/21/2021 1:30:00 AM 23.89 75.002 0.394 7.81 6175 7.03
8/21/2021 1:45:00 AM 23.89 75.002 0.394 7.81 6175 7.02
8/21/2021 2:00:00 AM 23.9 75.02 0.393 7.81 6174 7.04
8/21/2021 2:15:00 AM 23.91 75.038 0.393 7.81 6174 7.04
8/21/2021 2:30:00 AM 23.91 75.038 0.392 7.81 6175 7.02
8/21/2021 2:45:00 AM 23.92 75.056 0.391 7.82 6174 7.05
8/21/2021 3:00:00 AM 23.92 75.056 0.391 7.82 6174 7.05
8/21/2021 3:15:00 AM 23.92 75.056 0.39 7.82 6177 7.02
8/21/2021 3:30:00 AM 23.93 75.074 0.39 7.81 6176 7.03
8/21/2021 3:45:00 AM 23.93 75.074 0.384 7.81 6175 7.01
8/21/2021 4:00:00 AM 23.92 75.056 0.389 7.82 6176 7
8/21/2021 4:15:00 AM 23.91 75.038 0.389 7.81 6174 7
8/21/2021 4:30:00 AM 23.9 75.02 0.388 7.81 6175 6.98
8/21/2021 4:45:00 AM 23.89 75.002 0.388 7.81 6174 6.94
8/21/2021 5:00:00 AM 23.87 74.966 0.386 7.81 5759 6.98
8/21/2021 5:15:00 AM 23.85 74.93 0.387 7.81 6172 6.98
8/21/2021 5:30:00 AM 23.83 74.894 0.387 7.81 6172 6.95
8/21/2021 5:45:00 AM 23.82 74.876 0.387 7.8 4995 6.95
8/21/2021 6:00:00 AM 23.79 74.82201 0.387 7.79 4785 6.94
8/21/2021 6:15:00 AM 23.78 74.804 0.386 7.8 4067 6.94
8/21/2021 6:30:00 AM 23.76 74.768 0.386 7.79 3886 6.94
8/21/2021 6:45:00 AM 23.74 74.732 0.386 7.79 4127 6.93
8/21/2021 7:00:00 AM 23.72 74.696 0.386 7.78 4198 6.92
8/21/2021 7:15:00 AM 23.71 74.67799 0.386 7.79 4751 6.96
8/21/2021 7:30:00 AM 23.7 74.66 0.386 7.78 4728 6.92
8/21/2021 7:45:00 AM 23.7 74.66 0.386 7.78 4482 6.97
8/21/2021 8:00:00 AM 23.7 74.66 0.387 7.78 4909 7
8/21/2021 8:15:00 AM 23.71 74.67799 0.387 7.78 4841 6.96
8/21/2021 8:30:00 AM 23.71 74.67799 0.387 7.78 5299 7
8/21/2021 8:45:00 AM 23.73 74.714 0.387 7.78 4771 7.12
8/21/2021 9:00:00 AM 23.75 74.75 0.387 7.78 4727 7.12
8/21/2021 9:15:00 AM 23.77 74.786 0.387 7.79 4781 7.16
8/21/2021 9:30:00 AM 23.79 74.82201 0.387 7.79 4780 7.19
8/21/2021 9:45:00 AM 23.8 74.84 0.387 7.8 4765 7.22
8/21/2021 10:00:00 AM 23.82 74.876 0.385 7.8 4967 7.28
8/21/2021 10:15:00 AM 23.85 74.93 0.387 7.79 4803 7.3
8/21/2021 10:30:00 AM 23.89 75.002 0.386 7.81 4533 7.38
8/21/2021 10:45:00 AM 23.95 75.11 0.386 7.82 5426 7.44
8/21/2021 11:00:00 AM 24 75.2 0.386 7.82 5035 7.54
8/21/2021 11:15:00 AM 24.09 75.362 0.386 7.83 5243 7.62
8/21/2021 11:30:00 AM 24.21 75.578 0.386 7.85 5243 7.72
8/21/2021 11:45:00 AM 24.29 75.722 0.386 7.85 5622 7.81
8/21/2021 12:00:00 PM 24.42 75.956 0.386 7.86 5694 7.77
8/21/2021 12:15:00 PM 24.58 76.244 0.386 7.87 5219 7.94
8/21/2021 12:30:00 PM 24.79 76.622 0.386 7.88 5215 8.1
8/21/2021 12:45:00 PM 25.05 77.09 0.385 7.9 6177 8.09
8/21/2021 1:00:00 PM 25.29 77.522 0.385 7.91 4975 8.2
8/21/2021 1:15:00 PM 25.44 77.792 0.386 7.91 4973 8.27
8/21/2021 1:30:00 PM 25.66 78.188 0.364 7.94 5311 8.5
8/21/2021 1:45:00 PM 25.78 78.404 0.385 7.95 5389 8.55
8/21/2021 2:00:00 PM 25.95 78.71 0.385 7.96 5772 8.61
8/21/2021 2:15:00 PM 26.08 78.944 0.385 7.95 5779 8.65
8/21/2021 2:30:00 PM 26.2 79.16 0.385 7.96 5784 8.69
8/21/2021 2:45:00 PM 26.03 78.854 0.385 7.99 5390 8.6
8/21/2021 3:00:00 PM 25.84 78.512 0.385 7.99 5975 8.34
8/21/2021 3:15:00 PM 25.93 78.674 0.384 7.99 6176 8.4
8/21/2021 3:30:00 PM 26.02 78.836 0.383 8 6177 8.37
8/21/2021 3:45:00 PM 26.03 78.854 0.385 8 6177 8.52
8/21/2021 4:00:00 PM 26.03 78.854 0.377 8.01 6061 8.47
8/21/2021 4:15:00 PM 25.77 78.386 0.34 8.01 6178 8.31
8/21/2021 4:30:00 PM 25.82 78.476 0.383 8.01 5315 8.29
8/21/2021 4:45:00 PM 25.94 78.692 0.375 8 5136 8.34
8/21/2021 5:00:00 PM 25.89 78.602 0.369 8.02 4843 8.29
8/21/2021 5:15:00 PM 25.82 78.476 0.384 8.01 6176 8.22
8/21/2021 5:30:00 PM 25.82 78.476 0.384 8.01 5333 8.18
8/21/2021 5:45:00 PM 25.77 78.386 0.384 8 6175 8.12
8/21/2021 6:00:00 PM 25.69 78.242 0.384 7.99 6156 8.05
8/21/2021 6:15:00 PM 25.62 78.116 0.384 7.99 6134 7.96
8/21/2021 6:30:00 PM 25.48 77.864 0.383 7.98 6171 7.82
8/21/2021 6:45:00 PM 25.37 77.666 0.384 7.97 6178 7.67
8/21/2021 7:00:00 PM 25.26 77.468 0.384 7.96 5608 7.56
8/21/2021 7:15:00 PM 25.17 77.306 0.385 7.95 6178 7.44
8/21/2021 7:30:00 PM 25.08 77.144 0.342 7.93 6177 7.38
8/21/2021 7:45:00 PM 24.98 76.964 0.385 7.92 6178 7.29
8/21/2021 8:00:00 PM 24.89 76.802 0.385 7.91 5648 7.16
8/21/2021 8:15:00 PM 24.81 76.658 0.386 7.9 6109 7.06
8/21/2021 8:30:00 PM 24.74 76.532 0.386 7.89 5803 6.96
8/21/2021 8:45:00 PM 24.68 76.424 0.386 7.86 6015 6.88
8/21/2021 9:00:00 PM 24.63 76.334 0.386 7.86 4167 6.82
8/21/2021 9:15:00 PM 24.58 76.244 0.385 7.85 3879 6.75
8/21/2021 9:30:00 PM 24.53 76.154 0.386 7.84 3860 6.68
8/21/2021 9:45:00 PM 24.49 76.082 0.386 7.82 3267 6.68
8/21/2021 10:00:00 PM 24.46 76.028 0.387 7.83 2096 6.62
8/21/2021 10:15:00 PM 24.44 75.992 0.387 7.82 3858 6.64
8/21/2021 10:30:00 PM 24.41 75.938 0.387 7.82 3677 6.65
8/21/2021 10:45:00 PM 24.39 75.902 0.387 7.81 3621 6.66
8/21/2021 11:00:00 PM 24.37 75.866 0.387 7.81 3598 6.67
8/21/2021 11:15:00 PM 24.35 75.83 0.387 7.81 3571 6.65
8/21/2021 11:30:00 PM 24.34 75.812 0.387 7.8 3583 6.67
8/21/2021 11:45:00 PM 24.33 75.794 0.387 7.8 3543 6.68
8/22/2021 12:00:00 AM 24.32 75.776 0.387 7.81 3523 6.67
8/22/2021 12:15:00 AM 24.32 75.776 0.387 7.81 3501 6.68
8/22/2021 12:30:00 AM 24.31 75.758 0.386 7.81 3639 6.67
8/22/2021 12:45:00 AM 24.31 75.758 0.386 7.81 3360 6.66
8/22/2021 1:00:00 AM 24.31 75.758 0.386 7.8 2696 6.7
8/22/2021 1:15:00 AM 24.32 75.776 0.385 7.81 2899 6.73
8/22/2021 1:30:00 AM 24.32 75.776 0.385 7.81 4044 6.75
8/22/2021 1:45:00 AM 24.32 75.776 0.385 7.82 3364 6.75
8/22/2021 2:00:00 AM 24.32 75.776 0.385 7.83 3392 6.75
8/22/2021 2:15:00 AM 24.33 75.794 0.385 7.84 3960 6.78
8/22/2021 2:30:00 AM 24.33 75.794 0.385 7.83 3986 6.77
8/22/2021 2:45:00 AM 24.34 75.812 0.385 7.84 3982 6.8
8/22/2021 3:00:00 AM 24.35 75.83 0.385 7.84 4048 6.82
8/22/2021 3:15:00 AM 24.35 75.83 0.385 7.83 4084 6.81
8/22/2021 3:30:00 AM 24.36 75.848 0.385 7.83 4081 6.8
8/22/2021 3:45:00 AM 24.37 75.866 0.385 7.83 4222 6.82
8/22/2021 4:00:00 AM 24.38 75.884 0.385 7.85 4084 6.83
8/22/2021 4:15:00 AM 24.39 75.902 0.385 7.84 3917 6.83
8/22/2021 4:30:00 AM 24.4 75.92 0.385 7.85 4045 6.81
8/22/2021 4:45:00 AM 24.42 75.956 0.385 7.86 4216 6.76
8/22/2021 5:00:00 AM 24.43 75.974 0.386 7.85 4203 6.77
8/22/2021 5:15:00 AM 24.46 76.028 0.386 7.86 4972 6.79
8/22/2021 5:30:00 AM 24.46 76.028 0.386 7.85 5080 6.76
8/22/2021 5:45:00 AM 24.48 76.064 0.386 7.86 4940 6.74
8/22/2021 6:00:00 AM 24.49 76.082 0.386 7.85 5167 6.8
8/22/2021 6:15:00 AM 24.5 76.1 0.387 7.86 3616 6.78
8/22/2021 6:30:00 AM 24.51 76.118 0.388 7.85 3882 6.7
8/22/2021 6:45:00 AM 24.53 76.154 0.359 7.86 3871 6.76
8/22/2021 7:00:00 AM 24.53 76.154 0.387 7.85 3870 6.78
8/22/2021 7:15:00 AM 24.53 76.154 0.388 7.85 3862 6.73
8/22/2021 7:30:00 AM 24.54 76.172 0.388 7.86 3793 6.77
8/22/2021 7:45:00 AM 24.55 76.19 0.385 7.86 3835 6.78
8/22/2021 8:00:00 AM 24.56 76.208 0.389 7.85 3835 6.81
8/22/2021 8:15:00 AM 24.56 76.208 0.389 7.86 3756 6.84
8/22/2021 8:30:00 AM 24.58 76.244 0.39 7.86 3708 6.87
8/22/2021 8:45:00 AM 24.59 76.262 0.39 7.87 3701 6.9
8/22/2021 9:00:00 AM 24.61 76.298 0.39 7.87 3654 6.99
8/22/2021 9:15:00 AM 24.63 76.334 0.39 7.88 3623 7.02
8/22/2021 9:30:00 AM 24.65 76.37 0.391 7.88 3569 7.14
8/22/2021 9:45:00 AM 24.67 76.406 0.391 7.88 3610 7.21
8/22/2021 10:00:00 AM 24.7 76.46 0.391 7.89 3583 7.29
8/22/2021 10:15:00 AM 24.73 76.514 0.391 7.91 3622 7.39
8/22/2021 10:30:00 AM 24.77 76.586 0.391 7.92 3185 7.44
8/22/2021 10:45:00 AM 24.81 76.658 0.392 7.93 2994 7.63
8/22/2021 11:00:00 AM 24.82 76.676 0.392 7.94 3017 7.64
8/22/2021 11:15:00 AM 24.83 76.694 0.392 7.96 2898 7.7
8/22/2021 11:30:00 AM 24.83 76.694 0.392 7.97 2861 7.71
8/22/2021 11:45:00 AM 24.83 76.694 0.392 7.97 2954 7.75
8/22/2021 12:00:00 PM 24.84 76.712 0.393 7.99 2960 7.74
8/22/2021 12:15:00 PM 24.84 76.712 0.393 7.99 2958 7.76
8/22/2021 12:30:00 PM 24.83 76.694 0.393 7.99 3005 7.73
8/22/2021 12:45:00 PM 24.82 76.676 0.393 7.98 3132 7.71
8/22/2021 1:00:00 PM 24.82 76.676 0.393 7.98 3357 7.73
8/22/2021 1:15:00 PM 24.82 76.676 0.393 7.97 3685 7.71
8/22/2021 1:30:00 PM 24.82 76.676 0.386 7.98 3724 7.75
8/22/2021 1:45:00 PM 24.82 76.676 0.391 7.99 3677 7.77
8/22/2021 2:00:00 PM 24.83 76.694 0.394 7.99 3729 7.82
8/22/2021 2:15:00 PM 24.82 76.676 0.394 7.99 3618 7.85
8/22/2021 2:30:00 PM 24.79 76.622 0.394 8 3571 7.82
8/22/2021 2:45:00 PM 24.79 76.622 0.394 8 3526 7.8
8/22/2021 3:00:00 PM 24.79 76.622 0.395 8.01 3286 7.86
8/22/2021 3:15:00 PM 24.78 76.604 0.395 8.01 3255 7.85
8/22/2021 3:30:00 PM 24.79 76.622 0.392 8.02 3249 7.9
8/22/2021 3:45:00 PM 24.78 76.604 0.396 8.02 3690 7.92
8/22/2021 4:00:00 PM 24.75 76.55 0.396 8.01 3707 7.88
8/22/2021 4:15:00 PM 24.73 76.514 0.397 8.01 3715 7.86
8/22/2021 4:30:00 PM 24.71 76.478 0.397 8.01 3660 7.84
8/22/2021 4:45:00 PM 24.68 76.424 0.398 8.01 3650 7.84
8/22/2021 5:00:00 PM 24.68 76.424 0.398 8 3822 7.83
8/22/2021 5:15:00 PM 24.7 76.46 0.399 8.01 3836 7.89
8/22/2021 5:30:00 PM 24.71 76.478 0.399 8.02 3832 7.92
8/22/2021 5:45:00 PM 24.7 76.46 0.399 8.01 3659 7.91
8/22/2021 6:00:00 PM 24.67 76.406 0.4 8.02 3145 7.89
8/22/2021 6:15:00 PM 24.65 76.37 0.4 8.02 3115 7.77
8/22/2021 6:30:00 PM 24.62 76.316 0.401 8.02 3124 7.72
8/22/2021 6:45:00 PM 24.59 76.262 0.402 8.01 3056 7.67
8/22/2021 7:00:00 PM 24.53 76.154 0.402 8 4233 7.5
8/22/2021 7:15:00 PM 24.47 76.046 0.403 7.98 4504 7.36
8/22/2021 7:30:00 PM 24.41 75.938 0.404 7.97 4669 7.22
8/22/2021 7:45:00 PM 24.35 75.83 0.404 7.95 4488 7.05
8/22/2021 8:00:00 PM 24.29 75.722 0.405 7.93 4684 6.98
8/22/2021 8:15:00 PM 24.24 75.632 0.405 7.9 3755 6.85
8/22/2021 8:30:00 PM 24.19 75.542 0.406 7.9 2800 6.73
8/22/2021 8:45:00 PM 24.15 75.47 0.406 7.88 5547 6.67
8/22/2021 9:00:00 PM 24.11 75.398 0.407 7.86 5748 6.62
8/22/2021 9:15:00 PM 24.07 75.326 0.407 7.86 3621 6.58
8/22/2021 9:30:00 PM 24.03 75.254 0.407 7.85 3703 6.55
8/22/2021 9:45:00 PM 24 75.2 0.408 7.85 3688 6.51
8/22/2021 10:00:00 PM 23.97 75.146 0.408 7.85 3641 6.53
8/22/2021 10:15:00 PM 23.94 75.092 0.409 7.83 3632 6.54
8/22/2021 10:30:00 PM 23.92 75.056 0.409 7.83 3674 6.52
8/22/2021 10:45:00 PM 23.89 75.002 0.41 7.84 3633 6.55
8/22/2021 11:00:00 PM 23.86 74.948 0.411 7.83 3619 6.54
8/22/2021 11:15:00 PM 23.84 74.912 0.411 7.84 3726 6.56
8/22/2021 11:30:00 PM 23.81 74.858 0.412 7.84 3699 6.56
8/22/2021 11:45:00 PM 23.79 74.82201 0.412 7.82 3664 6.55
8/23/2021 12:00:00 AM 23.76 74.768 0.413 7.83 3585 6.58
8/23/2021 12:15:00 AM 23.74 74.732 0.414 7.83 3682 6.59
8/23/2021 12:30:00 AM 23.72 74.696 0.414 7.83 3623 6.59
8/23/2021 12:45:00 AM 23.69 74.642 0.415 7.84 3852 6.61
8/23/2021 1:00:00 AM 23.67 74.606 0.412 7.83 4012 6.61
8/23/2021 1:15:00 AM 23.64 74.552 0.416 7.83 3828 6.64
8/23/2021 1:30:00 AM 23.62 74.516 0.416 7.84 3826 6.62
8/23/2021 1:45:00 AM 23.59 74.462 0.417 7.84 3869 6.66
8/23/2021 2:00:00 AM 23.57 74.426 0.417 7.84 4996 6.69
8/23/2021 2:15:00 AM 23.55 74.39 0.418 7.84 4807 6.69
8/23/2021 2:30:00 AM 23.53 74.354 0.418 7.85 4958 6.68
8/23/2021 2:45:00 AM 23.51 74.318 0.419 7.85 4882 6.69
8/23/2021 3:00:00 AM 23.49 74.282 0.419 7.86 4838 6.71
8/23/2021 3:15:00 AM 23.47 74.246 0.417 7.86 4823 6.75
8/23/2021 3:30:00 AM 23.46 74.228 0.42 7.86 4765 6.75
8/23/2021 3:45:00 AM 23.44 74.192 0.42 7.86 4791 6.77
8/23/2021 4:00:00 AM 23.43 74.174 0.42 7.86 4783 6.78
8/23/2021 4:15:00 AM 23.41 74.138 0.421 7.87 4954 6.81
8/23/2021 4:30:00 AM 23.38 74.084 0.421 7.87 5077 6.81
8/23/2021 4:45:00 AM 23.36 74.048 0.421 7.87 5483 6.83
8/23/2021 5:00:00 AM 23.35 74.03 0.42 7.88 5528 6.84
8/23/2021 5:15:00 AM 23.32 73.976 0.422 7.88 6175 6.79
8/23/2021 5:30:00 AM 23.29 73.922 0.423 7.87 6175 6.81
8/23/2021 5:45:00 AM 23.26 73.868 0.423 7.88 6175 6.9
8/23/2021 6:00:00 AM 23.23 73.814 0.423 7.88 6175 6.83
8/23/2021 6:15:00 AM 23.2 73.76 0.424 7.89 6174 6.84
8/23/2021 6:30:00 AM 23.17 73.706 0.424 7.89 6175 6.9
8/23/2021 6:45:00 AM 23.15 73.67 0.424 7.89 6174 6.87
8/23/2021 7:00:00 AM 23.13 73.634 0.425 7.89 6177 6.88
8/23/2021 7:15:00 AM 23.11 73.598 0.425 7.89 6177 6.84
8/23/2021 7:30:00 AM 23.12 73.616 0.426 7.89 6176 6.92
8/23/2021 7:45:00 AM 23.13 73.634 0.426 7.89 6176 6.94
8/23/2021 8:00:00 AM 23.15 73.67 0.426 7.9 6176 7.05
8/23/2021 8:15:00 AM 23.17 73.706 0.427 7.91 6176 7.09
8/23/2021 8:30:00 AM 23.19 73.742 0.427 7.91 6175 7.15
8/23/2021 8:45:00 AM 23.24 73.832 0.427 7.92 6177 7.24
8/23/2021 9:00:00 AM 23.28 73.904 0.427 7.93 6177 7.33
8/23/2021 9:15:00 AM 23.32 73.976 0.428 7.95 6177 7.39
8/23/2021 9:30:00 AM 23.36 74.048 0.428 7.95 6177 7.44
8/23/2021 9:45:00 AM 23.4 74.12 0.428 7.97 6177 7.53
8/23/2021 10:00:00 AM 23.44 74.192 0.429 7.97 6177 7.59
8/23/2021 10:15:00 AM 23.48 74.264 0.429 7.98 6176 7.69
8/23/2021 10:30:00 AM 23.53 74.354 0.43 8 6176 7.79
8/23/2021 10:45:00 AM 23.61 74.498 0.43 8.01 6176 7.87
8/23/2021 11:00:00 AM 23.71 74.67799 0.43 8.02 6176 7.99
8/23/2021 11:15:00 AM 23.82 74.876 0.43 8.04 6176 8.11
8/23/2021 11:30:00 AM 23.94 75.092 0.43 8.05 6176 8.25
8/23/2021 11:45:00 AM 24.15 75.47 0.43 8.07 6176 8.39
8/23/2021 12:00:00 PM 24.31 75.758 0.43 8.09 6176 8.56
8/23/2021 12:15:00 PM 24.55 76.19 0.431 8.1 6177 8.67
8/23/2021 12:30:00 PM 24.77 76.586 0.431 8.12 6176 8.83
8/23/2021 12:45:00 PM 24.93 76.874 0.431 8.13 6175 8.8
8/23/2021 1:00:00 PM 25.08 77.144 0.431 8.15 6175 8.96
8/23/2021 1:15:00 PM 25.09 77.162 0.431 8.16 6174 8.97
8/23/2021 1:30:00 PM 25.37 77.666 0.431 8.17 6173 9.06
8/23/2021 1:45:00 PM 25.53 77.954 0.431 8.17 6096 9.09
8/23/2021 2:00:00 PM 25.77 78.386 0.432 8.18 6001 9.14
8/23/2021 2:15:00 PM 25.96 78.728 0.432 8.19 6052 9.21
8/23/2021 2:30:00 PM 26.11 78.998 0.432 8.19 6014 9.25
8/23/2021 2:45:00 PM 26.34 79.412 0.432 8.2 5933 9.32
8/23/2021 3:00:00 PM 26.37 79.466 0.433 8.21 5925 9.36
8/23/2021 3:15:00 PM 26.51 79.718 0.433 8.22 5799 9.32
8/23/2021 3:30:00 PM 26.76 80.168 0.433 8.22 6171 9.38
8/23/2021 3:45:00 PM 26.87 80.366 0.434 8.22 5247 9.38
8/23/2021 4:00:00 PM 26.96 80.528 0.434 8.23 5319 9.37
8/23/2021 4:15:00 PM 27.01 80.618 0.434 8.24 5032 9.33
8/23/2021 4:30:00 PM 27.06 80.708 0.435 8.24 4167 9.31
8/23/2021 4:45:00 PM 27.06 80.708 0.435 8.24 3844 9.26
8/23/2021 5:00:00 PM 26.99 80.582 0.436 8.24 4016 9.19
8/23/2021 5:15:00 PM 26.84 80.312 0.436 8.24 6173 9.05
8/23/2021 5:30:00 PM 26.74 80.132 0.437 8.22 6173 8.95
8/23/2021 5:45:00 PM 26.55 79.79 0.437 8.21 5007 8.82
8/23/2021 6:00:00 PM 26.36 79.448 0.438 8.2 2990 8.6
8/23/2021 6:15:00 PM 26.12 79.016 0.438 8.18 2941 8.39
8/23/2021 6:30:00 PM 25.86 78.548 0.439 8.16 2953 8.15
8/23/2021 6:45:00 PM 25.64 78.152 0.44 8.14 3190 7.85
8/23/2021 7:00:00 PM 25.48 77.864 0.441 8.11 3610 7.71
8/23/2021 7:15:00 PM 25.33 77.594 0.441 8.09 3283 7.55
8/23/2021 7:30:00 PM 25.19 77.342 0.442 8.08 2770 7.4
8/23/2021 7:45:00 PM 25.05 77.09 0.442 8.06 2718 7.28
8/23/2021 8:00:00 PM 24.94 76.892 0.443 8.04 2837 7.11
8/23/2021 8:15:00 PM 24.83 76.694 0.443 8.02 2981 6.99
8/23/2021 8:30:00 PM 24.74 76.532 0.444 8.01 4519 6.83
8/23/2021 8:45:00 PM 24.67 76.406 0.444 7.99 4472 6.77
8/23/2021 9:00:00 PM 24.6 76.28 0.445 7.98 4199 6.7
8/23/2021 9:15:00 PM 24.54 76.172 0.445 7.97 4284 6.65
8/23/2021 9:30:00 PM 24.47 76.046 0.445 7.96 4332 6.61
8/23/2021 9:45:00 PM 24.42 75.956 0.446 7.95 4479 6.62
8/23/2021 10:00:00 PM 24.37 75.866 0.447 7.95 4541 6.43
8/23/2021 10:15:00 PM 24.33 75.794 0.448 7.94 4551 6.63
8/23/2021 10:30:00 PM 24.3 75.74 0.448 7.93 4557 6.64
8/23/2021 10:45:00 PM 24.26 75.668 0.449 7.93 4713 6.63
8/23/2021 11:00:00 PM 24.22 75.596 0.45 7.93 4796 6.65
8/23/2021 11:15:00 PM 24.19 75.542 0.45 7.92 4840 6.65
8/23/2021 11:30:00 PM 24.16 75.488 0.451 7.91 4910 6.68
8/23/2021 11:45:00 PM 24.14 75.452 0.451 7.92 5212 6.69
8/24/2021 12:00:00 AM 24.11 75.398 0.452 7.91 5548 6.67
8/24/2021 12:15:00 AM 24.09 75.362 0.452 7.92 5539 6.69
8/24/2021 12:30:00 AM 24.07 75.326 0.453 7.92 6175 6.71
8/24/2021 12:45:00 AM 24.05 75.29 0.453 7.92 6173 6.73
8/24/2021 1:00:00 AM 24.03 75.254 0.453 7.93 6174 6.72
8/24/2021 1:15:00 AM 24.01 75.218 0.453 7.92 6174 6.75
8/24/2021 1:30:00 AM 24 75.2 0.454 7.93 6174 6.73
8/24/2021 1:45:00 AM 23.98 75.164 0.454 7.92 6175 6.74
8/24/2021 2:00:00 AM 23.97 75.146 0.454 7.92 6173 6.72
8/24/2021 2:15:00 AM 23.96 75.128 0.454 7.94 6175 6.73
8/24/2021 2:30:00 AM 23.94 75.092 0.454 7.93 6175 6.75
8/24/2021 2:45:00 AM 23.94 75.092 0.454 7.94 6175 6.79
8/24/2021 3:00:00 AM 23.93 75.074 0.454 7.93 6175 6.79
8/24/2021 3:15:00 AM 23.93 75.074 0.454 7.94 6176 6.81
8/24/2021 3:30:00 AM 23.92 75.056 0.45 7.94 6176 6.79
8/24/2021 3:45:00 AM 23.92 75.056 0.454 7.93 6176 6.78
8/24/2021 4:00:00 AM 23.91 75.038 0.437 7.94 6176 6.79
8/24/2021 4:15:00 AM 23.92 75.056 0.414 7.95 6176 6.82
8/24/2021 4:30:00 AM 23.91 75.038 0.403 7.95 6176 6.81
8/24/2021 4:45:00 AM 23.91 75.038 0.377 7.95 6176 6.85
8/24/2021 5:00:00 AM 23.91 75.038 0.426 7.96 5805 6.84
8/24/2021 5:15:00 AM 23.91 75.038 0.454 7.96 5710 6.86
8/24/2021 5:30:00 AM 23.92 75.056 0.433 7.96 5587 6.87
8/24/2021 5:45:00 AM 23.92 75.056 0.452 7.97 5686 6.85
8/24/2021 6:00:00 AM 23.94 75.092 0.38 7.97 5398 6.88
8/24/2021 6:15:00 AM 23.95 75.11 0.436 7.97 6176 6.86
8/24/2021 6:30:00 AM 23.96 75.128 0.439 7.97 6176 6.88
8/24/2021 6:45:00 AM 23.97 75.146 0.439 7.98 6176 6.84
8/24/2021 7:00:00 AM 23.99 75.182 0.388 7.98 6176 6.88
8/24/2021 7:15:00 AM 24.01 75.218 0.406 7.99 6176 6.91
8/24/2021 7:30:00 AM 24.04 75.272 0.407 7.98 6176 6.95
8/24/2021 7:45:00 AM 24.08 75.344 0.398 8 6176 6.98
8/24/2021 8:00:00 AM 24.13 75.434 0.427 8 6176 7.05
8/24/2021 8:15:00 AM 24.18 75.524 0.411 8 6176 7.09
8/24/2021 8:30:00 AM 24.24 75.632 0.415 8.01 6176 7.18
8/24/2021 8:45:00 AM 24.31 75.758 0.419 8.02 5027 7.23
8/24/2021 9:00:00 AM 24.37 75.866 0.432 8.04 6176 7.36
8/24/2021 9:15:00 AM 24.43 75.974 0.419 8.05 4618 7.42
8/24/2021 9:30:00 AM 24.5 76.1 0.438 8.06 2377 7.55
8/24/2021 9:45:00 AM 24.57 76.226 0.423 8.06 4248 7.58
8/24/2021 10:00:00 AM 24.62 76.316 0.44 8.08 3933 7.69
8/24/2021 10:15:00 AM 24.68 76.424 0.462 8.1 3899 7.78
8/24/2021 10:30:00 AM 24.74 76.532 0.463 8.1 3180 7.84
8/24/2021 10:45:00 AM 24.82 76.676 0.444 8.12 3312 7.98
8/24/2021 11:00:00 AM 24.92 76.856 0.44 8.13 3240 8.12
8/24/2021 11:15:00 AM 25.02 77.036 0.438 8.16 3553 8.25
8/24/2021 11:30:00 AM 25.19 77.342 0.436 8.17 3535 8.41
8/24/2021 11:45:00 AM 25.36 77.648 0.448 8.18 3403 8.54
8/24/2021 12:00:00 PM 25.58 78.044 0.447 8.19 3391 8.71
8/24/2021 12:15:00 PM 25.79 78.422 0.46 8.21 3356 8.84
8/24/2021 12:30:00 PM 26.04 78.872 0.463 8.23 3130 9
8/24/2021 12:45:00 PM 26.29 79.32201 0.464 8.24 3304 9.16
8/24/2021 1:00:00 PM 26.58 79.844 0.455 8.25 3286 9.28
8/24/2021 1:15:00 PM 26.86 80.348 0.455 8.27 3289 9.44
8/24/2021 1:30:00 PM 27.13 80.834 0.456 8.28 3319 9.54
8/24/2021 1:45:00 PM 27.42 81.356 0.456 8.29 3291 9.61
8/24/2021 2:00:00 PM 27.64 81.752 0.457 8.3 3368 9.69
8/24/2021 2:15:00 PM 27.89 82.202 0.454 8.31 3075 9.73
8/24/2021 2:30:00 PM 28.09 82.562 0.458 8.31 2810 9.86
8/24/2021 2:45:00 PM 28.28 82.904 0.457 8.32 4363 9.91
8/24/2021 3:00:00 PM 28.42 83.156 0.456 8.33 4415 9.92
8/24/2021 3:15:00 PM 28.54 83.372 0.429 8.33 6176 9.96
8/24/2021 3:30:00 PM 28.62 83.51601 0.426 8.33 6175 9.99
8/24/2021 3:45:00 PM 28.66 83.588 0.426 8.34 6175 9.8
8/24/2021 4:00:00 PM 28.73 83.714 0.43 8.34 6174 9.88
8/24/2021 4:15:00 PM 28.79 83.82201 0.456 8.34 6174 9.89
8/24/2021 4:30:00 PM 28.8 83.84 0.45 8.32 6176 9.78
8/24/2021 4:45:00 PM 28.79 83.82201 0.449 8.32 6176 9.79
8/24/2021 5:00:00 PM 28.7 83.66 0.448 8.32 6176 9.64
8/24/2021 5:15:00 PM 28.61 83.498 0.45 8.32 6176 9.48
8/24/2021 5:30:00 PM 28.42 83.156 0.458 8.3 6176 9.25
8/24/2021 5:45:00 PM 28.22 82.796 0.46 8.3 6176 9.12
8/24/2021 6:00:00 PM 27.97 82.346 0.466 8.28 6176 8.86
8/24/2021 6:15:00 PM 27.73 81.914 0.456 8.26 6176 8.59
8/24/2021 6:30:00 PM 27.46 81.42799 0.445 8.24 6176 8.32
8/24/2021 6:45:00 PM 27.23 81.014 0.447 8.21 6176 8.04
8/24/2021 7:00:00 PM 27 80.6 0.45 8.19 6177 7.83
8/24/2021 7:15:00 PM 26.77 80.186 0.448 8.17 6176 7.53
8/24/2021 7:30:00 PM 26.61 79.898 0.453 8.14 6176 7.36
8/24/2021 7:45:00 PM 26.43 79.574 0.457 8.12 6177 7.18
8/24/2021 8:00:00 PM 26.29 79.32201 0.453 8.11 6177 6.98
8/24/2021 8:15:00 PM 26.13 79.034 0.471 8.08 6177 6.87
8/24/2021 8:30:00 PM 26 78.8 0.478 8.07 6177 6.76
8/24/2021 8:45:00 PM 25.89 78.602 0.479 8.05 5303 6.67
8/24/2021 9:00:00 PM 25.77 78.386 0.479 8.03 5092 6.47
8/24/2021 9:15:00 PM 25.66 78.188 0.48 8.02 5060 6.53
8/24/2021 9:30:00 PM 25.57 78.026 0.48 8.01 5037 6.45
8/24/2021 9:45:00 PM 25.5 77.9 0.48 8 5047 6.09
8/24/2021 10:00:00 PM 25.43 77.774 0.481 7.99 4906 6.43
8/24/2021 10:15:00 PM 25.36 77.648 0.481 7.99 4890 6.41
8/24/2021 10:30:00 PM 25.29 77.522 0.482 7.98 4885 6.28
8/24/2021 10:45:00 PM 25.23 77.414 0.482 7.97 5669 6.44
8/24/2021 11:00:00 PM 25.17 77.306 0.483 7.97 5749 6.44
8/24/2021 11:15:00 PM 25.13 77.234 0.483 7.97 5818 6.43
8/24/2021 11:30:00 PM 25.08 77.144 0.483 7.96 6069 6.44
8/24/2021 11:45:00 PM 25.04 77.07201 0.484 7.96 6039 6.44
8/25/2021 12:00:00 AM 25 77 0.484 7.96 6046 6.48
8/25/2021 12:15:00 AM 24.95 76.91 0.484 7.96 5716 6.44
8/25/2021 12:30:00 AM 24.92 76.856 0.485 7.96 5512 6.5
8/25/2021 12:45:00 AM 24.89 76.802 0.485 7.96 5532 6.5
8/25/2021 1:00:00 AM 24.86 76.748 0.485 7.96 4964 6.5
8/25/2021 1:15:00 AM 24.83 76.694 0.485 7.96 5105 6.55
8/25/2021 1:30:00 AM 24.8 76.64 0.485 7.96 5124 6.53
8/25/2021 1:45:00 AM 24.77 76.586 0.486 7.96 5105 6.57
8/25/2021 2:00:00 AM 24.74 76.532 0.486 7.97 5119 6.49
8/25/2021 2:15:00 AM 24.72 76.496 0.486 7.97 5103 6.57
8/25/2021 2:30:00 AM 24.7 76.46 0.486 7.96 5067 6.59
8/25/2021 2:45:00 AM 24.67 76.406 0.486 7.97 4924 6.61
8/25/2021 3:00:00 AM 24.64 76.352 0.486 7.97 5142 6.62
8/25/2021 3:15:00 AM 24.62 76.316 0.487 7.96 5149 6.59
8/25/2021 3:30:00 AM 24.6 76.28 0.487 7.96 5149 6.65
8/25/2021 3:45:00 AM 24.59 76.262 0.487 7.97 5122 6.62
8/25/2021 4:00:00 AM 24.57 76.226 0.487 7.97 5126 6.61
8/25/2021 4:15:00 AM 24.55 76.19 0.487 7.96 5134 6.64
8/25/2021 4:30:00 AM 24.54 76.172 0.486 7.96 5188 6.65
8/25/2021 4:45:00 AM 24.52 76.136 0.486 7.97 5200 6.68
8/25/2021 5:00:00 AM 24.51 76.118 0.486 7.97 5206 6.71
8/25/2021 5:15:00 AM 24.46 76.028 0.486 7.98 5261 6.67
8/25/2021 5:30:00 AM 24.47 76.046 0.486 7.97 5928 6.67
8/25/2021 5:45:00 AM 24.46 76.028 0.486 7.98 5724 6.71
8/25/2021 6:00:00 AM 24.45 76.01 0.486 7.98 6178 6.73
8/25/2021 6:15:00 AM 24.45 76.01 0.486 7.99 5711 6.71
8/25/2021 6:30:00 AM 24.43 75.974 0.486 7.98 5383 6.62
8/25/2021 6:45:00 AM 24.43 75.974 0.486 7.99 5439 6.7
8/25/2021 7:00:00 AM 24.42 75.956 0.486 7.99 5494 6.7
8/25/2021 7:15:00 AM 24.44 75.992 0.486 7.98 5527 6.76
8/25/2021 7:30:00 AM 24.45 76.01 0.486 7.99 5525 6.75
8/25/2021 7:45:00 AM 24.47 76.046 0.486 8 5682 6.74
8/25/2021 8:00:00 AM 24.5 76.1 0.486 8 5636 6.82
8/25/2021 8:15:00 AM 24.55 76.19 0.486 8.01 5975 6.98
8/25/2021 8:30:00 AM 24.61 76.298 0.486 8.02 6012 7.08
8/25/2021 8:45:00 AM 24.68 76.424 0.486 8.03 5937 7.18
8/25/2021 9:00:00 AM 24.76 76.568 0.487 8.04 5884 7.28
8/25/2021 9:15:00 AM 24.84 76.712 0.487 8.06 5869 7.4
8/25/2021 9:30:00 AM 24.93 76.874 0.487 8.07 5877 7.45
8/25/2021 9:45:00 AM 25.01 77.018 0.487 8.08 5923 7.62
8/25/2021 10:00:00 AM 23.63 74.534 0 8.11 6177 8.27
8/25/2021 10:15:00 AM 25.19 77.342 8.09 461.4 2.54 99.5
8/25/2021 10:30:00 AM 25.29 77.522 8.1 461.6 3.71 100.6
8/25/2021 10:45:00 AM 25.41 77.738 8.15 461.9 5.28 102.5
8/25/2021 11:00:00 AM 25.52 77.936 8.16 462.1 2.67 104.3
8/25/2021 11:15:00 AM 25.68 78.224 8.19 462.1 2 106.2
8/25/2021 11:30:00 AM 25.86 78.548 8.19 462.5 1.83 108.5
8/25/2021 11:45:00 AM 26.07 78.926 8.23 462.7 1.91 111
8/25/2021 12:00:00 PM 26.32 79.376 8.24 462.6 2.46 113.6
8/25/2021 12:15:00 PM 26.57 79.826 8.26 462.6 2.7 116.3
8/25/2021 12:30:00 PM 26.87 80.366 8.26 462.3 2.4 119.1
8/25/2021 12:45:00 PM 27.1 80.78 8.31 462.1 1.57 122.4
8/25/2021 1:00:00 PM 27.4 81.32 8.37 462.1 3.59 125
8/25/2021 1:15:00 PM 27.73 81.914 8.35 461.7 2.58 128.2
8/25/2021 1:30:00 PM 28 82.4 8.39 461.7 2 130.5
8/25/2021 1:45:00 PM 28.32 82.976 8.38 461.8 4.59 132.7
8/25/2021 2:00:00 PM 28.49 83.282 8.39 461.5 2.79 134.1
8/25/2021 2:15:00 PM 28.76 83.768 8.4 461.7 3.74 136.1
8/25/2021 2:30:00 PM 28.84 83.912 8.38 462 3.23 136.6
8/25/2021 2:45:00 PM 29.04 84.272 8.4 461.9 2.02 137.4
8/25/2021 3:00:00 PM 29.26 84.668 8.42 462.1 1.85 139.5
8/25/2021 3:15:00 PM 29.49 85.082 8.43 461 1.77 140.6
8/25/2021 3:30:00 PM 29.67 85.406 8.43 461.1 1.95 141
8/25/2021 3:45:00 PM 29.6 85.28 8.41 461.4 2.45 139.7
8/25/2021 4:00:00 PM 29.53 85.15401 8.41 461.5 2.01 137.3
8/25/2021 4:15:00 PM 29.65 85.37 8.42 461 1.7 138.8
8/25/2021 4:30:00 PM 29.65 85.37 8.41 461.2 2.64 138.7
8/25/2021 4:45:00 PM 29.58 85.244 8.4 461.5 2.46 137.5
8/25/2021 5:00:00 PM 29.49 85.082 8.37 461.7 2.68 135.6
8/25/2021 5:15:00 PM 29.38 84.884 8.37 461.9 2.43 133.3
8/25/2021 5:30:00 PM 29.2 84.56001 8.37 462.4 1.99 130.5
8/25/2021 5:45:00 PM 28.99 84.182 8.34 462.9 1.97 127
8/25/2021 6:00:00 PM 28.76 83.768 8.34 463.4 2.92 124
8/25/2021 6:15:00 PM 28.46 83.228 8.3 464.5 1.98 119.1
8/25/2021 6:30:00 PM 28.19 82.742 8.28 465.5 2.21 114.3
8/25/2021 6:45:00 PM 27.91 82.238 8.26 466.4 2.2 109.4
8/25/2021 7:00:00 PM 27.71 81.878 8.23 467.2 2.43 105.6
8/25/2021 7:15:00 PM 27.53 81.554 8.2 467.8 2.59 102.3
8/25/2021 7:30:00 PM 27.36 81.248 8.17 468.4 5.08 99.1
8/25/2021 7:45:00 PM 27.16 80.888 8.17 469.1 2.4 96.1
8/25/2021 8:00:00 PM 27.02 80.636 8.15 469.7 2.78 93.1
8/25/2021 8:15:00 PM 26.88 80.384 8.13 470.3 3.6 91
8/25/2021 8:30:00 PM 26.74 80.132 8.1 471 3.05 89
8/25/2021 8:45:00 PM 26.63 79.934 8.09 471.5 3.43 86.9
8/25/2021 9:00:00 PM 26.52 79.736 8.08 472.1 3.22 85.3
8/25/2021 9:15:00 PM 26.44 79.592 8.06 472.4 5.15 84.2
8/25/2021 9:30:00 PM 26.35 79.43 8.05 472.8 4.93 83.1
8/25/2021 9:45:00 PM 26.29 79.32201 8.04 473.3 4.26 82.1
8/25/2021 10:00:00 PM 26.23 79.214 8.04 473.3 4.73 81.3
8/25/2021 10:15:00 PM 26.17 79.106 8.04 473.6 4.35 81.1
8/25/2021 10:30:00 PM 26.11 78.998 8.03 473.7 4.32 80.7
8/25/2021 10:45:00 PM 26.06 78.908 8.03 473.8 5.25 80.5
8/25/2021 11:00:00 PM 26.01 78.818 8.03 473.9 5.71 80.5
8/25/2021 11:15:00 PM 25.97 78.746 8.02 474 4.78 80.4
8/25/2021 11:30:00 PM 25.92 78.656 8.02 474 3.33 80.5
8/25/2021 11:45:00 PM 25.88 78.584 8.01 474 8.53 80.4
8/26/2021 12:00:00 AM 25.83 78.494 8.02 474.2 3.94 80.5
8/26/2021 12:15:00 AM 25.79 78.422 8.02 474.7 4.14 80.5
8/26/2021 12:30:00 AM 25.74 78.332 8.03 474.8 3.3 80.4
8/26/2021 12:45:00 AM 25.7 78.26 8.02 474.7 5.31 80.8
8/26/2021 1:00:00 AM 25.65 78.17 8.03 474.7 3.73 80.6
8/26/2021 1:15:00 AM 25.6 78.08 8.02 474.7 4.38 80.7
8/26/2021 1:30:00 AM 25.55 77.99 8.03 474.5 3.63 80.7
8/26/2021 1:45:00 AM 25.51 77.918 8.03 474.6 4.86 80.7
8/26/2021 2:00:00 AM 25.46 77.828 8.01 474.7 4.04 80.7
8/26/2021 2:15:00 AM 25.42 77.756 8.04 474.9 2.32 81
8/26/2021 2:30:00 AM 25.38 77.684 8.04 475.2 3.65 80.9
8/26/2021 2:45:00 AM 25.34 77.612 8.03 475.3 3.67 81.1
8/26/2021 3:00:00 AM 25.3 77.54 8.04 475.3 5.53 81.2
8/26/2021 3:15:00 AM 25.27 77.486 8.03 475.6 3.45 81.2
8/26/2021 3:30:00 AM 25.23 77.414 8.04 475.6 6.32 81.2
8/26/2021 3:45:00 AM 25.19 77.342 8.03 475.4 5.03 81.1
8/26/2021 4:00:00 AM 25.17 77.306 8.04 473.3 3.41 81.2
8/26/2021 4:15:00 AM 25.15 77.27 8.04 475.5 3.81 81.2
8/26/2021 4:30:00 AM 25.12 77.216 8.04 475.5 3.17 81.3
8/26/2021 4:45:00 AM 25.1 77.18 8.04 475.7 2.95 81.6
8/26/2021 5:00:00 AM 25.07 77.126 8.04 475.5 5.92 81.5
8/26/2021 5:15:00 AM 25.05 77.09 8.04 475.6 3.72 81.7
8/26/2021 5:30:00 AM 25.03 77.054 8.04 475.5 4.59 81.5
8/26/2021 5:45:00 AM 25.01 77.018 8.04 475.3 2.96 81.6
8/26/2021 6:00:00 AM 25 77 8.03 475.2 4.9 82.1
8/26/2021 6:15:00 AM 24.98 76.964 8.04 475.1 4.32 81.9
8/26/2021 6:30:00 AM 24.97 76.946 8.04 474.8 3.66 81.9
8/26/2021 6:45:00 AM 24.95 76.91 8.05 474.5 3.94 82
8/26/2021 7:00:00 AM 24.94 76.892 8.04 474.3 4.2 82.2
8/26/2021 7:15:00 AM 24.94 76.892 8.05 474.2 3.37 82.5
8/26/2021 7:30:00 AM 24.95 76.91 8.05 473.7 3.93 82.9
8/26/2021 7:45:00 AM 24.98 76.964 8.06 473.3 2.75 83.8
8/26/2021 8:00:00 AM 25.02 77.036 8.07 473.1 3.49 84.8
8/26/2021 8:15:00 AM 25.05 77.09 8.07 472.7 2.44 86.1
8/26/2021 8:30:00 AM 25.1 77.18 8.09 472.3 2.22 87.4
8/26/2021 8:45:00 AM 25.15 77.27 8.1 471.9 2.39 89
8/26/2021 9:00:00 AM 25.22 77.396 8.12 471.6 2.27 90.8
8/26/2021 9:15:00 AM 25.28 77.504 8.13 471.2 1.85 92.2
8/26/2021 9:30:00 AM 25.37 77.666 8.15 471 1.98 93.9
8/26/2021 9:45:00 AM 25.43 77.774 8.16 470.7 2.12 95.5
8/26/2021 10:00:00 AM 25.5 77.9 8.18 470.2 1.4 97.1
8/26/2021 10:15:00 AM 25.57 78.026 8.2 469.8 1.5 98.8
8/26/2021 10:30:00 AM 25.66 78.188 8.2 469.7 1.4 100.6
8/26/2021 10:45:00 AM 25.75 78.35 8.22 469.2 1.93 102.4
8/26/2021 11:00:00 AM 25.87 78.566 8.24 468.9 1.83 104.7
8/26/2021 11:15:00 AM 26.02 78.836 8.26 468.5 1.7 106.8
8/26/2021 11:30:00 AM 26.23 79.214 8.27 468.2 1.59 109.9
8/26/2021 11:45:00 AM 26.45 79.61 8.29 468 1.71 112.8
8/26/2021 12:00:00 PM 26.7 80.06 8.33 467.8 1.91 116
8/26/2021 12:15:00 PM 26.97 80.546 8.34 467.5 1.65 119.5
8/26/2021 12:30:00 PM 27.28 81.104 8.37 467.2 2.45 122.7
8/26/2021 12:45:00 PM 27.6 81.68 8.39 466.9 1.38 126.2
8/26/2021 1:00:00 PM 27.94 82.292 8.41 466.7 1.45 129.3
8/26/2021 1:15:00 PM 28.25 82.85 8.43 466.5 1.64 132.7
8/26/2021 1:30:00 PM 28.57 83.426 8.43 466.1 1.49 135.6
8/26/2021 1:45:00 PM 28.89 84.002 8.45 465.9 1.76 138.2
8/26/2021 2:00:00 PM 29.2 84.56001 8.46 466 1.44 140.2
8/26/2021 2:15:00 PM 29.44 84.992 8.47 465.9 1.65 142.7
8/26/2021 2:30:00 PM 29.72 85.49599 8.47 465.8 2.03 144.2
8/26/2021 2:45:00 PM 29.93 85.874 8.47 465.3 1.82 145.6
8/26/2021 3:00:00 PM 30.14 86.252 8.47 464.9 1.76 146.9
8/26/2021 3:15:00 PM 30.34 86.612 8.49 465.4 2 147.9
8/26/2021 3:30:00 PM 30.44 86.792 8.48 465.1 2.07 147.2
8/26/2021 3:45:00 PM 30.51 86.918 8.47 465 1.72 147
8/26/2021 4:00:00 PM 30.64 87.152 8.47 464.9 2.88 147.8
8/26/2021 4:15:00 PM 30.65 87.17 8.47 464.8 1.72 147.3
8/26/2021 4:30:00 PM 30.64 87.152 8.47 465.3 2.42 146.8
8/26/2021 4:45:00 PM 30.57 87.026 8.46 465.6 2.01 145.3
8/26/2021 5:00:00 PM 30.4 86.72 8.43 466.3 1.99 142.1
8/26/2021 5:15:00 PM 30.21 86.378 8.41 466.8 2.24 138.9
8/26/2021 5:30:00 PM 30 86 8.4 467.7 2.7 135.6
8/26/2021 5:45:00 PM 29.76 85.568 8.39 468.2 1.93 131.5
8/26/2021 6:00:00 PM 29.4 84.92 8.36 469.7 2.39 124.9
8/26/2021 6:15:00 PM 29.19 84.542 8.33 470.5 2.66 119.3
8/26/2021 6:30:00 PM 28.97 84.146 8.32 471 2.57 115.4
8/26/2021 6:45:00 PM 28.78 83.804 8.3 471.6 2.34 110.9
8/26/2021 7:00:00 PM 28.58 83.444 8.27 472.6 2.35 107.1
8/26/2021 7:15:00 PM 28.38 83.084 8.25 473.3 1.94 103.1
8/26/2021 7:30:00 PM 28.17 82.706 8.23 474.2 2.49 99.5
8/26/2021 7:45:00 PM 28.01 82.418 8.21 474.7 2.39 96.1
8/26/2021 8:00:00 PM 27.84 82.112 8.19 475.5 2.06 92.9
8/26/2021 8:15:00 PM 27.68 81.824 8.17 476.2 2.44 90.4
8/26/2021 8:30:00 PM 27.54 81.57201 8.15 476.9 2.11 88.2
8/26/2021 8:45:00 PM 27.42 81.356 8.13 477.5 2.95 86.1
8/26/2021 9:00:00 PM 27.31 81.158 8.11 471.5 7.35 84.5
8/26/2021 9:15:00 PM 27.21 80.978 8.1 478.3 3.79 82.8
8/26/2021 9:30:00 PM 27.11 80.798 8.08 478.5 4.96 81.6
8/26/2021 9:45:00 PM 27.02 80.636 8.08 479.3 7.64 80.6
8/26/2021 10:00:00 PM 26.95 80.51 8.06 479.2 2.97 80.2
8/26/2021 10:15:00 PM 26.88 80.384 8.06 479.6 3.32 79.7
8/26/2021 10:30:00 PM 26.81 80.258 8.05 479.9 2.7 79.5
8/26/2021 10:45:00 PM 26.75 80.15 8.05 480.2 2.78 79.4
8/26/2021 11:00:00 PM 26.7 80.06 8.05 480.4 2.75 78.9
8/26/2021 11:15:00 PM 26.65 79.97 8.05 480.4 4.15 79.1
8/26/2021 11:30:00 PM 26.61 79.898 8.04 480.4 3.19 78.8
8/26/2021 11:45:00 PM 26.57 79.826 8.04 480.4 3.78 78.9
8/27/2021 12:00:00 AM 26.54 79.772 8.05 480.3 3.76 79
8/27/2021 12:15:00 AM 26.49 79.682 8.05 480.5 3.95 79
8/27/2021 12:30:00 AM 26.46 79.628 8.05 480.6 3.64 79.2
8/27/2021 12:45:00 AM 26.41 79.538 8.04 480.5 3.73 79
8/27/2021 1:00:00 AM 26.36 79.448 8.04 480.9 4.23 79
8/27/2021 1:15:00 AM 26.32 79.376 8.03 480.9 3.95 78.9
8/27/2021 1:30:00 AM 26.29 79.32201 8.05 481 3.35 79.2
8/27/2021 1:45:00 AM 26.24 79.232 8.04 481.2 3.61 79.2
8/27/2021 2:00:00 AM 26.2 79.16 8.04 481.2 3.77 79.3
8/27/2021 2:15:00 AM 26.16 79.088 8.05 481.4 4.92 79.3
8/27/2021 2:30:00 AM 26.13 79.034 8.03 481.5 2.99 79.1
8/27/2021 2:45:00 AM 26.09 78.962 8.04 481.4 4.59 79.1
8/27/2021 3:00:00 AM 26.06 78.908 8.04 481.7 4.49 79.7
8/27/2021 3:15:00 AM 26.02 78.836 8.04 482.4 2.84 79.4
8/27/2021 3:30:00 AM 25.99 78.782 8.04 482.7 5.91 79.4
8/27/2021 3:45:00 AM 25.96 78.728 8.04 482.8 4.36 79.9
8/27/2021 4:00:00 AM 25.93 78.674 8.04 482.8 4.26 79.9
8/27/2021 4:15:00 AM 25.91 78.638 8.04 483 3.3 80.1
8/27/2021 4:30:00 AM 25.9 78.62 8.04 483.1 3.81 80.1
8/27/2021 4:45:00 AM 25.88 78.584 8.04 483.2 3.64 80.2
8/27/2021 5:00:00 AM 25.85 78.53 8.05 483.1 3.14 80.2
8/27/2021 5:15:00 AM 25.85 78.53 8.04 483.4 4.11 80.3
8/27/2021 5:30:00 AM 25.83 78.494 8.05 483.5 3.54 80.6
8/27/2021 5:45:00 AM 25.82 78.476 8.05 483.4 4.62 80.6
8/27/2021 6:00:00 AM 25.8 78.44 8.04 483.5 3.49 80.6
8/27/2021 6:15:00 AM 25.79 78.422 8.05 483.6 2.29 80.7
8/27/2021 6:30:00 AM 25.78 78.404 8.04 483.6 3.82 80.5
8/27/2021 6:45:00 AM 25.77 78.386 8.05 483.6 5.56 80.6
8/27/2021 7:00:00 AM 25.76 78.368 8.05 483.4 2.86 80.9
8/27/2021 7:15:00 AM 25.77 78.386 8.05 483.2 2.93 81
8/27/2021 7:30:00 AM 25.77 78.386 8.05 483.2 2.22 81.6
8/27/2021 7:45:00 AM 25.78 78.404 8.06 483 2.65 82.3
8/27/2021 8:00:00 AM 25.82 78.476 8.06 482.8 2.1 83.2
8/27/2021 8:15:00 AM 25.84 78.512 8.07 482.6 2.37 84.4
8/27/2021 8:30:00 AM 25.88 78.584 8.08 482.1 1.86 85.8
8/27/2021 8:45:00 AM 25.89 78.602 8.09 481.8 2.63 87.1
8/27/2021 9:00:00 AM 25.92 78.656 8.1 481.6 1.85 87.8
8/27/2021 9:15:00 AM 25.96 78.728 8.11 481.1 2.25 89.2
8/27/2021 9:30:00 AM 26.03 78.854 8.14 480.5 2.22 91.7
8/27/2021 9:45:00 AM 26.15 79.07 8.17 479.8 1.81 96.1
8/27/2021 10:00:00 AM 26.24 79.232 8.19 479.5 1.79 99
8/27/2021 10:15:00 AM 26.32 79.376 8.2 478.8 1.48 101.3
8/27/2021 10:30:00 AM 26.4 79.52 8.22 478.3 2.52 103.9
8/27/2021 10:45:00 AM 26.48 79.664 8.24 477.5 1.57 106.5
8/27/2021 11:00:00 AM 26.57 79.826 8.27 477 1.45 109.6
8/27/2021 11:15:00 AM 26.69 80.042 8.3 476.5 3.36 112.3
8/27/2021 11:30:00 AM 26.85 80.33 8.33 475.5 1.49 115.9
8/27/2021 11:45:00 AM 27.04 80.672 8.35 475 2.01 119.5
8/27/2021 12:00:00 PM 27.18 80.924 8.37 474.5 2.41 122.4
8/27/2021 12:15:00 PM 27.28 81.104 8.38 474 1.39 124
8/27/2021 12:30:00 PM 27.4 81.32 8.39 473.6 1.91 126.4
8/27/2021 12:45:00 PM 27.56 81.608 8.41 473.1 1.29 127.9
8/27/2021 1:00:00 PM 27.99 82.382 8.43 472.5 1.71 131.9
8/27/2021 1:15:00 PM 28.21 82.778 8.45 472.1 1.62 136.5
8/27/2021 1:30:00 PM 28.37 83.066 8.46 471.6 1.67 137.4
8/27/2021 1:45:00 PM 28.82 83.876 8.46 471.5 2.63 141.1
8/27/2021 2:00:00 PM 29.14 84.452 8.48 471.1 1.67 143.7
8/27/2021 2:15:00 PM 29.44 84.992 8.49 471 2.16 145.8
8/27/2021 2:30:00 PM 29.69 85.442 8.49 470.8 2.44 148.3
8/27/2021 2:45:00 PM 29.59 85.262 8.47 471.5 1.68 145.8
8/27/2021 3:00:00 PM 29.42 84.956 8.45 471.8 1.65 140.4
8/27/2021 3:15:00 PM 29.3 84.74 8.43 472.6 1.74 136.1
8/27/2021 3:30:00 PM 29.21 84.578 8.44 473.1 3.23 134.8
8/27/2021 3:45:00 PM 29.07 84.326 8.42 473.6 1.93 131.9
8/27/2021 4:00:00 PM 28.9 84.02 8.41 474.5 1.78 127.3
8/27/2021 4:15:00 PM 28.67 83.606 8.38 475.4 1.32 122.5
8/27/2021 4:30:00 PM 28.42 83.156 8.35 476.4 1.61 117
8/27/2021 4:45:00 PM 28.16 82.688 8.33 477.3 1.81 111.5
8/27/2021 5:00:00 PM 27.94 82.292 8.3 478.1 1.36 107.7
8/27/2021 5:15:00 PM 27.73 81.914 8.29 478.9 2.01 103.4
8/27/2021 5:30:00 PM 27.59 81.662 8.27 479.5 1.91 100.3
8/27/2021 5:45:00 PM 27.46 81.42799 8.26 479.9 1.74 97.5
8/27/2021 6:00:00 PM 27.36 81.248 8.24 479.7 1.82 95.2
8/27/2021 6:15:00 PM 27.26 81.068 8.22 480 2.06 92.9
8/27/2021 6:30:00 PM 27.17 80.906 8.21 480.8 2.77 91
8/27/2021 6:45:00 PM 27.09 80.762 8.2 481.6 2.49 90
8/27/2021 7:00:00 PM 27.03 80.654 8.19 481.9 1.46 89.4
8/27/2021 7:15:00 PM 27 80.6 8.19 482.5 2.19 88.4
8/27/2021 7:30:00 PM 26.96 80.528 8.17 482.8 1.76 87.6
8/27/2021 7:45:00 PM 26.93 80.474 8.16 483 1.69 86.4
8/27/2021 8:00:00 PM 26.89 80.402 8.16 483.4 1.99 85.7
8/27/2021 8:15:00 PM 26.86 80.348 8.15 483.6 2.07 85.2
8/27/2021 8:30:00 PM 26.82 80.276 8.14 484.3 4.05 84.3
8/27/2021 8:45:00 PM 26.79 80.222 8.14 484.8 3.22 83.8
8/27/2021 9:00:00 PM 26.74 80.132 8.13 485.4 3.53 83
8/27/2021 9:15:00 PM 26.68 80.024 8.12 485.8 3.28 82.5
8/27/2021 9:30:00 PM 26.65 79.97 8.11 486.6 4.75 81.7
8/27/2021 9:45:00 PM 26.61 79.898 8.11 487.4 3.52 81.3
8/27/2021 10:00:00 PM 26.57 79.826 8.09 487.6 3.94 80.7
8/27/2021 10:15:00 PM 26.53 79.754 8.09 488 4.39 80.9
8/27/2021 10:30:00 PM 26.49 79.682 8.09 488.4 4.42 80.4
8/27/2021 10:45:00 PM 26.45 79.61 8.08 488.6 2.66 80.3
8/27/2021 11:00:00 PM 26.42 79.556 8.08 489.2 3.54 80.4
8/27/2021 11:15:00 PM 26.38 79.484 8.07 489.1 3.34 80.1
8/27/2021 11:30:00 PM 26.34 79.412 8.07 489.7 3.25 80
8/27/2021 11:45:00 PM 26.31 79.358 8.07 489.9 4.2 80
8/28/2021 12:00:00 AM 26.28 79.304 8.06 473 6.53 80
8/28/2021 12:15:00 AM 26.25 79.25 8.06 444.9 5.06 79.9
8/28/2021 12:30:00 AM 26.22 79.196 8.06 491.1 5.69 80.1
8/28/2021 12:45:00 AM 26.18 79.124 8.06 491.8 5.63 80
8/28/2021 1:00:00 AM 26.15 79.07 8.06 492.1 5.47 80.1
8/28/2021 1:15:00 AM 26.12 79.016 8.06 492.5 3.7 80
8/28/2021 1:30:00 AM 26.09 78.962 8.06 493.1 8.44 80.1
8/28/2021 1:45:00 AM 26.07 78.926 8.06 493.5 2.61 80.3
8/28/2021 2:00:00 AM 26.04 78.872 8.06 493.9 4.09 80.3
8/28/2021 2:15:00 AM 26.01 78.818 8.06 494.3 2.99 80.3
8/28/2021 2:30:00 AM 25.97 78.746 8.06 494.8 7.39 80.3
8/28/2021 2:45:00 AM 25.93 78.674 8.06 495 4.12 80.5
8/28/2021 3:00:00 AM 25.9 78.62 8.05 495.4 3.83 80.6
8/28/2021 3:15:00 AM 25.86 78.548 8.05 495.6 4.6 80.4
8/28/2021 3:30:00 AM 25.82 78.476 8.05 495.7 3.66 80.3
8/28/2021 3:45:00 AM 25.78 78.404 8.05 496.1 5.73 79.9
8/28/2021 4:00:00 AM 25.74 78.332 8.04 496.5 10.16 80.2
8/28/2021 4:15:00 AM 25.72 78.296 8.05 496.7 4.77 80.3
8/28/2021 4:30:00 AM 25.69 78.242 8.06 496.8 5.37 80.1
8/28/2021 4:45:00 AM 25.67 78.206 8.05 497 7.32 80.7
8/28/2021 5:00:00 AM 25.65 78.17 8.06 497.3 5.28 80.6
8/28/2021 5:15:00 AM 25.63 78.134 8.06 497.4 3.58 80.7
8/28/2021 5:30:00 AM 25.61 78.098 8.06 497.4 3.46 80.9
8/28/2021 5:45:00 AM 25.6 78.08 8.05 497.5 2.57 80.7
8/28/2021 6:00:00 AM 25.58 78.044 8.05 497.7 5.74 80.8
8/28/2021 6:15:00 AM 25.55 77.99 8.05 497.7 5.08 80.9
8/28/2021 6:30:00 AM 25.52 77.936 8.05 462.2 7.28 81.3
8/28/2021 6:45:00 AM 25.5 77.9 8.05 497.6 4.59 81.3
8/28/2021 7:00:00 AM 25.47 77.846 8.05 497.7 4.93 81.4
8/28/2021 7:15:00 AM 25.45 77.81 8.05 497.8 4.14 81.7
8/28/2021 7:30:00 AM 25.44 77.792 8.06 497.6 2.62 82.4
8/28/2021 7:45:00 AM 25.42 77.756 8.07 497.6 2.28 83.1
8/28/2021 8:00:00 AM 25.41 77.738 8.08 497.4 1.87 83.7
8/28/2021 8:15:00 AM 25.43 77.774 8.09 497.3 2.37 85.2
8/28/2021 8:30:00 AM 25.45 77.81 8.1 497.3 3.05 87
8/28/2021 8:45:00 AM 25.49 77.882 8.1 497.1 2.42 88.6
8/28/2021 9:00:00 AM 25.53 77.954 8.14 496.8 2.2 90.6
8/28/2021 9:15:00 AM 25.57 78.026 8.13 496.6 1.64 92.7
8/28/2021 9:30:00 AM 25.6 78.08 8.17 496.4 1.55 94.8
8/28/2021 9:45:00 AM 25.71 78.278 8.19 496 2.51 97.7
8/28/2021 10:00:00 AM 25.76 78.368 8.2 495.6 1.58 99.9
8/28/2021 10:15:00 AM 25.81 78.458 8.22 495.4 1.4 102
8/28/2021 10:30:00 AM 25.9 78.62 8.24 494.8 1.59 104.5
8/28/2021 10:45:00 AM 26.02 78.836 8.26 494.2 1.37 107.3
8/28/2021 11:00:00 AM 26.14 79.052 8.28 494 2.25 110.6
8/28/2021 11:15:00 AM 26.21 79.17799 8.3 493.6 1.05 112.9
8/28/2021 11:30:00 AM 26.3 79.34 8.31 493.1 1.61 114.5
8/28/2021 11:45:00 AM 26.39 79.502 8.32 492.5 1.57 116.3
8/28/2021 12:00:00 PM 26.61 79.898 8.34 492 1.87 119.7
8/28/2021 12:15:00 PM 26.74 80.132 8.36 491.3 1.42 123
8/28/2021 12:30:00 PM 27.04 80.672 8.37 491.1 2.02 125.8
8/28/2021 12:45:00 PM 27.25 81.05 8.38 490.3 1.7 128.1
8/28/2021 1:00:00 PM 27.45 81.41 8.4 490.1 1.62 129.5
8/28/2021 1:15:00 PM 27.56 81.608 8.4 489.9 3 131.4
8/28/2021 1:30:00 PM 27.51 81.518 8.39 490.1 1.54 128.9
8/28/2021 1:45:00 PM 27.88 82.184 8.4 489.2 2.41 133.2
8/28/2021 2:00:00 PM 28.05 82.49 8.41 489 3.77 134.5
8/28/2021 2:15:00 PM 28.19 82.742 8.4 488.9 1.66 136
8/28/2021 2:30:00 PM 28.25 82.85 8.41 488.8 1.6 135.9
8/28/2021 2:45:00 PM 27.95 82.31 8.39 489.1 1.55 130.4
8/28/2021 3:00:00 PM 28.03 82.454 8.39 489.1 1.83 130.6
8/28/2021 3:15:00 PM 28.26 82.868 8.42 489 1.85 133
8/28/2021 3:30:00 PM 28.5 83.3 8.42 488.6 2.16 135.2
8/28/2021 3:45:00 PM 28.43 83.174 8.4 488.6 1.85 134.3
8/28/2021 4:00:00 PM 28.52 83.336 8.41 488.5 1.6 135
8/28/2021 4:15:00 PM 28.51 83.318 8.4 488.6 2.1 134.3
8/28/2021 4:30:00 PM 28.46 83.228 8.4 488.7 1.92 133
8/28/2021 4:45:00 PM 28.19 82.742 8.37 489.2 2.08 128.5
8/28/2021 5:00:00 PM 27.94 82.292 8.36 490.1 1.91 122.6
8/28/2021 5:15:00 PM 27.77 81.986 8.33 490.9 1.99 118.1
8/28/2021 5:30:00 PM 27.62 81.716 8.33 491.4 3.16 115.5
8/28/2021 5:45:00 PM 27.46 81.42799 8.32 491.8 1.77 112.9
8/28/2021 6:00:00 PM 27.28 81.104 8.3 492.7 1.91 109.1
8/28/2021 6:15:00 PM 27.09 80.762 8.3 493.7 1.99 105.7
8/28/2021 6:30:00 PM 26.91 80.438 8.28 494.4 1.39 102.6
8/28/2021 6:45:00 PM 26.76 80.168 8.26 495.1 1.48 99.5
8/28/2021 7:00:00 PM 26.61 79.898 8.23 496.2 1.29 96.8
8/28/2021 7:15:00 PM 26.47 79.646 8.22 497.1 2.65 93.9
8/28/2021 7:30:00 PM 26.36 79.448 8.21 497.4 2.58 92.1
8/28/2021 7:45:00 PM 26.26 79.268 8.2 498.3 1.74 90.1
8/28/2021 8:00:00 PM 26.16 79.088 8.18 498.9 2.54 88.7
8/28/2021 8:15:00 PM 26.08 78.944 8.17 499.5 3.69 86.9
8/28/2021 8:30:00 PM 26.01 78.818 8.16 499.8 3.51 85.6
8/28/2021 8:45:00 PM 25.95 78.71 8.15 500 3.8 84.9
8/28/2021 9:00:00 PM 25.91 78.638 8.14 500.3 2.97 83.7
8/28/2021 9:15:00 PM 25.87 78.566 8.14 500.3 4.79 83.2
8/28/2021 9:30:00 PM 25.84 78.512 8.13 500.4 2 82.5
8/28/2021 9:45:00 PM 25.8 78.44 8.12 500.5 3.34 82.2
8/28/2021 10:00:00 PM 25.76 78.368 8.13 500.5 2.15 82
8/28/2021 10:15:00 PM 25.7 78.26 8.13 500.3 3.64 81.8
8/28/2021 10:30:00 PM 25.67 78.206 8.12 500.7 2.56 81.8
8/28/2021 10:45:00 PM 25.62 78.116 8.12 500.6 3.61 81.5
8/28/2021 11:00:00 PM 25.59 78.062 8.12 500.9 3.36 81.7
8/28/2021 11:15:00 PM 25.54 77.972 8.12 500.7 2.05 81.8
8/28/2021 11:30:00 PM 25.51 77.918 8.11 500.7 5.45 82
8/28/2021 11:45:00 PM 25.46 77.828 8.11 500.8 3.71 81.7
8/29/2021 12:00:00 AM 25.44 77.792 8.1 500.7 4.54 81.3
8/29/2021 12:15:00 AM 25.42 77.756 8.1 500.9 4.48 81.6
8/29/2021 12:30:00 AM 25.38 77.684 8.1 500.9 4.88 82.1
8/29/2021 12:45:00 AM 25.36 77.648 8.1 501.1 5.69 82.1
8/29/2021 1:00:00 AM 25.32 77.576 8.11 501.1 4.14 82.3
8/29/2021 1:15:00 AM 25.29 77.522 8.1 501.1 3.41 82.7
8/29/2021 1:30:00 AM 25.25 77.45 8.1 501.3 133.2 82.8
8/29/2021 1:45:00 AM 25.23 77.414 8.11 501.4 6.09 82.2
8/29/2021 2:00:00 AM 25.2 77.36 8.09 501.4 4.93 82.6
8/29/2021 2:15:00 AM 25.18 77.324 8.1 501.6 5.18 82.6
8/29/2021 2:30:00 AM 25.15 77.27 8.1 502 3.33 82.8
8/29/2021 2:45:00 AM 25.13 77.234 8.11 502 5.66 83.1
8/29/2021 3:00:00 AM 25.11 77.198 8.1 502.2 4.88 83
8/29/2021 3:15:00 AM 25.08 77.144 8.12 502.3 3.83 83.2
8/29/2021 3:30:00 AM 25.03 77.054 8.12 502.5 3.8 83.6
8/29/2021 3:45:00 AM 25.02 77.036 8.11 502.7 4.28 83.2
8/29/2021 4:00:00 AM 25 77 8.11 502.8 6.96 83.8
8/29/2021 4:15:00 AM 24.97 76.946 8.12 502.8 7.36 83.7
8/29/2021 4:30:00 AM 24.96 76.92799 8.11 502.8 6.82 84.1
8/29/2021 4:45:00 AM 24.92 76.856 8.09 503 7.09 83.9
8/29/2021 5:00:00 AM 24.88 76.784 8.1 503 5.65 83.9
8/29/2021 5:15:00 AM 24.86 76.748 8.08 502.8 13.18 83.9
8/29/2021 5:30:00 AM 24.83 76.694 8.1 502.9 6.33 84.6
8/29/2021 5:45:00 AM 24.81 76.658 8.08 502.8 4.24 85
8/29/2021 6:00:00 AM 24.77 76.586 8.09 502.8 4.13 84.6
8/29/2021 6:15:00 AM 24.74 76.532 8.08 502.7 3.77 85
8/29/2021 6:30:00 AM 24.72 76.496 8.08 502.5 4.08 84.8
8/29/2021 6:45:00 AM 24.7 76.46 8.11 502.5 4.24 85.1
8/29/2021 7:00:00 AM 24.67 76.406 8.11 502.4 4.02 85.1
8/29/2021 7:15:00 AM 24.65 76.37 8.11 502.4 5.09 85.6
8/29/2021 7:30:00 AM 24.63 76.334 8.11 502.4 2.74 85.6
8/29/2021 7:45:00 AM 24.62 76.316 8.11 502.2 4.47 86
8/29/2021 8:00:00 AM 24.6 76.28 8.13 502.1 2.4 86.3
8/29/2021 8:15:00 AM 24.59 76.262 8.11 502 2.98 86.7
8/29/2021 8:30:00 AM 24.6 76.28 8.12 501.8 3.57 87.5
8/29/2021 8:45:00 AM 24.6 76.28 8.14 501.6 2.1 88.2
8/29/2021 9:00:00 AM 24.6 76.28 8.13 501.3 3.11 88.8
8/29/2021 9:15:00 AM 24.6 76.28 8.13 501.1 6.5 90.2
8/29/2021 9:30:00 AM 24.62 76.316 8.15 500.8 2.17 91.2
8/29/2021 9:45:00 AM 24.64 76.352 8.16 500.5 1.92 93.1
8/29/2021 10:00:00 AM 24.67 76.406 8.17 500.3 2.27 94.6
8/29/2021 10:15:00 AM 24.7 76.46 8.19 499.9 3.39 96.2
8/29/2021 10:30:00 AM 24.72 76.496 8.22 499.5 1.99 98
8/29/2021 10:45:00 AM 24.75 76.55 8.2 499.4 2.15 99.2
8/29/2021 11:00:00 AM 24.78 76.604 8.22 499.2 2.29 100.9
8/29/2021 11:15:00 AM 24.81 76.658 8.27 499.3 2.34 102.2
8/29/2021 11:30:00 AM 24.86 76.748 8.25 498.9 1.68 104
8/29/2021 11:45:00 AM 24.91 76.838 8.27 498.7 1.76 105.2
8/29/2021 12:00:00 PM 24.98 76.964 8.27 498.5 1.53 107.3
8/29/2021 12:15:00 PM 25.07 77.126 8.28 498.2 2.22 109.7
8/29/2021 12:30:00 PM 25.16 77.288 8.31 497.9 1.76 112.1
8/29/2021 12:45:00 PM 25.24 77.432 8.32 497.7 2.35 113.9
8/29/2021 1:00:00 PM 25.34 77.612 8.32 497.4 2.38 115.8
8/29/2021 1:15:00 PM 25.37 77.666 8.32 497.3 1.41 116.6
8/29/2021 1:30:00 PM 25.4 77.72 8.34 497.4 2.49 116.8
8/29/2021 1:45:00 PM 25.49 77.882 8.34 497 1.93 117.9
8/29/2021 2:00:00 PM 25.62 78.116 8.35 496.5 2.35 120.5
8/29/2021 2:15:00 PM 25.71 78.278 8.35 496.4 2.19 121.6
8/29/2021 2:30:00 PM 25.82 78.476 8.37 496.2 1.42 123.2
8/29/2021 2:45:00 PM 25.87 78.566 8.36 496 1.5 124
8/29/2021 3:00:00 PM 25.91 78.638 8.37 496 2.73 124.1
8/29/2021 3:15:00 PM 25.93 78.674 8.36 496 2.14 123.4
8/29/2021 3:30:00 PM 25.91 78.638 8.35 496.2 2.45 121.7
8/29/2021 3:45:00 PM 25.96 78.728 8.35 496.2 1.73 121.8
8/29/2021 4:00:00 PM 26.05 78.89 8.36 496.2 2.26 123
8/29/2021 4:15:00 PM 26.04 78.872 8.37 496.2 2.02 122.7
8/29/2021 4:30:00 PM 25.97 78.746 8.34 496.6 2.95 119.5
8/29/2021 4:45:00 PM 25.91 78.638 8.32 497.1 1.89 116.8
8/29/2021 5:00:00 PM 25.84 78.512 8.3 497.9 1.89 114.4
8/29/2021 5:15:00 PM 25.75 78.35 8.28 498.6 1.43 111.1
8/29/2021 5:30:00 PM 25.66 78.188 8.26 499.2 2.96 107.7
8/29/2021 5:45:00 PM 25.57 78.026 8.24 500.1 1.7 104.6
8/29/2021 6:00:00 PM 25.49 77.882 8.22 500.6 2.41 101.7
8/29/2021 6:15:00 PM 25.4 77.72 8.21 501.4 2.02 99
8/29/2021 6:30:00 PM 25.32 77.576 8.19 502 1.89 96.3
8/29/2021 6:45:00 PM 25.27 77.486 8.18 502.6 1.5 94.4
8/29/2021 7:00:00 PM 25.21 77.378 8.17 503 1.65 92.9
8/29/2021 7:15:00 PM 25.15 77.27 8.15 503.4 1.83 91.2
8/29/2021 7:30:00 PM 25.09 77.162 8.13 503.8 2.48 89.6
8/29/2021 7:45:00 PM 25.04 77.07201 8.12 504.5 2.08 88.3
8/29/2021 8:00:00 PM 24.98 76.964 8.11 504.8 3.8 87.4
8/29/2021 8:15:00 PM 24.93 76.874 8.1 505.1 1.84 86.5
8/29/2021 8:30:00 PM 24.89 76.802 8.09 505.2 2.59 85.6
8/29/2021 8:45:00 PM 24.85 76.73 8.09 505.5 4.18 84.9
8/29/2021 9:00:00 PM 24.81 76.658 8.08 505.6 2.57 84.3
8/29/2021 9:15:00 PM 24.77 76.586 8.08 505.5 3.29 83.8
8/29/2021 9:30:00 PM 24.74 76.532 8.09 506 3.18 83.5
8/29/2021 9:45:00 PM 24.71 76.478 8.08 506 3.15 83.3
8/29/2021 10:00:00 PM 24.66 76.388 8.07 506.2 3.56 82.8
8/29/2021 10:15:00 PM 24.64 76.352 8.07 506.2 3.1 82.9
8/29/2021 10:30:00 PM 24.62 76.316 8.07 506.2 3.53 82.7
8/29/2021 10:45:00 PM 24.6 76.28 8.07 506.3 3.56 82.7
8/29/2021 11:00:00 PM 24.58 76.244 8.07 506.3 6.68 82.4
8/29/2021 11:15:00 PM 24.55 76.19 8.06 506.4 3.7 82.6
8/29/2021 11:30:00 PM 24.52 76.136 8.06 506.5 6.23 82.5
8/29/2021 11:45:00 PM 24.49 76.082 8.06 506.4 3.75 82.3
8/30/2021 12:00:00 AM 24.46 76.028 8.06 506.3 4.21 82.4
8/30/2021 12:15:00 AM 24.43 75.974 8.06 506.3 5.25 82.6
8/30/2021 12:30:00 AM 24.41 75.938 8.07 506.3 2.53 82.8
8/30/2021 12:45:00 AM 24.38 75.884 8.07 506.4 2.81 82.7
8/30/2021 1:00:00 AM 24.35 75.83 8.07 506.5 3.28 82.8
8/30/2021 1:15:00 AM 24.32 75.776 8.06 506.2 3.08 82.8
8/30/2021 1:30:00 AM 24.3 75.74 8.08 506.2 3.48 82.9
8/30/2021 1:45:00 AM 24.27 75.686 8.07 506.1 2.82 82.8
8/30/2021 2:00:00 AM 24.24 75.632 8.07 506.1 2.98 82.9
8/30/2021 2:15:00 AM 24.22 75.596 8.07 506 3.08 82.9
8/30/2021 2:30:00 AM 24.19 75.542 8.07 506 3.13 82.8
8/30/2021 2:45:00 AM 24.17 75.506 8.12 505.9 2.81 82.9
8/30/2021 3:00:00 AM 24.15 75.47 8.06 505.8 5.89 82.4
8/30/2021 3:15:00 AM 24.12 75.416 8.07 505.8 4.64 82.7
8/30/2021 3:30:00 AM 24.09 75.362 8.07 505.8 15.82 82.6
8/30/2021 3:45:00 AM 24.06 75.308 8.07 505.7 2.25 82.8
8/30/2021 4:00:00 AM 24.04 75.272 8.07 505.7 4.74 83
8/30/2021 4:15:00 AM 24.01 75.218 8.07 505.3 4.52 83.1
8/30/2021 4:30:00 AM 23.98 75.164 8.07 505.3 5.72 83.3
8/30/2021 4:45:00 AM 23.96 75.128 8.07 505.2 3.23 83.3
8/30/2021 5:00:00 AM 23.95 75.11 8.08 505.2 3.05 83.5
8/30/2021 5:15:00 AM 23.94 75.092 8.08 505.1 3.63 83.7
8/30/2021 5:30:00 AM 23.93 75.074 8.07 505 4.58 83.3
8/30/2021 5:45:00 AM 23.92 75.056 8.08 504.8 3.82 83.7
8/30/2021 6:00:00 AM 23.92 75.056 8.08 505 4.52 83.7
8/30/2021 6:15:00 AM 23.9 75.02 8.08 504.7 5.95 83.6
8/30/2021 6:30:00 AM 23.9 75.02 8.08 504.6 7.01 84
8/30/2021 6:45:00 AM 23.89 75.002 8.08 504.3 2.67 83.9
8/30/2021 7:00:00 AM 23.89 75.002 8.09 504.1 5.28 84.2
8/30/2021 7:15:00 AM 23.9 75.02 8.09 504 3.06 84.5
8/30/2021 7:30:00 AM 23.9 75.02 8.08 503.9 2.92 84.6
8/30/2021 7:45:00 AM 23.93 75.074 8.09 503.6 3.32 85.8
8/30/2021 8:00:00 AM 23.95 75.11 8.1 503.5 2.47 87.1
8/30/2021 8:15:00 AM 23.96 75.128 8.12 503.3 2.34 88
8/30/2021 8:30:00 AM 23.98 75.164 8.12 502.9 4.95 89.1
8/30/2021 8:45:00 AM 24.02 75.236 8.13 502.8 1.76 91
8/30/2021 9:00:00 AM 24.05 75.29 8.16 502.4 2.29 92.7
8/30/2021 9:15:00 AM 24.14 75.452 8.17 501.9 2.71 95.6
8/30/2021 9:30:00 AM 24.22 75.596 8.2 501.1 2.54 98.5
8/30/2021 9:45:00 AM 24.32 75.776 8.23 500.4 1.54 101.5
8/30/2021 10:00:00 AM 24.39 75.902 8.25 499.8 1.73 104.2
8/30/2021 10:15:00 AM 24.44 75.992 8.26 499.1 2.71 106.2
8/30/2021 10:30:00 AM 24.54 76.172 8.27 498.5 1.97 109
8/30/2021 10:45:00 AM 24.6 76.28 8.29 498 1.63 110.7
8/30/2021 11:00:00 AM 24.71 76.478 8.31 497.2 1.77 113.3
8/30/2021 11:15:00 AM 24.84 76.712 8.32 496.7 1.19 116.2
8/30/2021 11:30:00 AM 25 77 8.33 496.2 1.25 118.9
8/30/2021 11:45:00 AM 25.08 77.144 8.34 495.5 1.74 120.5
8/30/2021 12:00:00 PM 25.31 77.558 8.37 494.8 1.42 122.4
8/30/2021 12:15:00 PM 25.47 77.846 8.37 494.6 1.43 124.6
8/30/2021 12:30:00 PM 25.58 78.044 8.38 494 2.34 126
8/30/2021 12:45:00 PM 25.57 78.026 8.39 493.8 1.9 125.7
8/30/2021 1:00:00 PM 25.74 78.332 8.39 493.4 1.51 126.5
8/30/2021 1:15:00 PM 25.99 78.782 8.41 493 1.31 129
8/30/2021 1:30:00 PM 26.14 79.052 8.4 492.8 2.53 128.9
8/30/2021 1:45:00 PM 26.3 79.34 8.41 492.9 2.58 130
8/30/2021 2:00:00 PM 26.57 79.826 8.41 492.4 1.82 131.4
8/30/2021 2:15:00 PM 26.41 79.538 8.39 492.8 2.04 128.3
8/30/2021 2:30:00 PM 26.72 80.096 8.41 492.2 2.06 129.3
8/30/2021 2:45:00 PM 26.6 79.88 8.39 492.8 2.14 127.8
8/30/2021 3:00:00 PM 26.7 80.06 8.39 492.5 1.7 128.4
8/30/2021 3:15:00 PM 26.65 79.97 8.39 492.5 1.73 127.8
8/30/2021 3:30:00 PM 26.78 80.204 8.4 492.7 1.82 126.8
8/30/2021 3:45:00 PM 27.08 80.744 8.39 492.1 5.56 130
8/30/2021 4:00:00 PM 27.06 80.708 8.39 492.4 1.77 130.1
8/30/2021 4:15:00 PM 26.71 80.078 8.36 493.6 3.03 122.6
8/30/2021 4:30:00 PM 26.49 79.682 8.34 493.8 1.95 117.1
8/30/2021 4:45:00 PM 26.09 78.962 8.34 475.3 27.29 109.3
8/30/2021 5:00:00 PM 25.96 78.728 8.29 467.2 7.26 105.5
8/30/2021 5:15:00 PM 26.17 79.106 8.31 453.6 7.01 106.7
8/30/2021 5:30:00 PM 26.05 78.89 8.32 473.2 5.64 107.4
8/30/2021 5:45:00 PM 25.9 78.62 8.3 477.4 5.17 105.6
8/30/2021 6:00:00 PM 25.79 78.422 8.28 477.8 5.19 104
8/30/2021 6:15:00 PM 25.61 78.098 8.25 478.8 6.06 100.7
8/30/2021 6:30:00 PM 25.49 77.882 8.24 479.5 5.64 99
8/30/2021 6:45:00 PM 25.39 77.702 8.23 481.9 6.49 98.1
8/30/2021 7:00:00 PM 25.31 77.558 8.22 485.4 4.36 97.3
8/30/2021 7:15:00 PM 25.22 77.396 8.22 488.1 3.17 95.4
8/30/2021 7:30:00 PM 25.14 77.252 8.2 490.5 3.83 94.3
8/30/2021 7:45:00 PM 25.05 77.09 8.21 492.9 3.06 92.4
8/30/2021 8:00:00 PM 24.97 76.946 8.18 494.5 3.64 90.6
8/30/2021 8:15:00 PM 24.88 76.784 8.16 495.9 2.6 88.7
8/30/2021 8:30:00 PM 24.8 76.64 8.16 497 4.66 87.5
8/30/2021 8:45:00 PM 24.73 76.514 8.15 498 3.45 86.1
8/30/2021 9:00:00 PM 24.67 76.406 8.15 499.1 4.31 85
8/30/2021 9:15:00 PM 24.61 76.298 8.15 500.2 2.9 84.2
8/30/2021 9:30:00 PM 24.55 76.19 8.12 501.1 4.32 83.4
8/30/2021 9:45:00 PM 24.51 76.118 8.13 501.5 9.01 83.1
8/30/2021 10:00:00 PM 24.47 76.046 8.11 502 5.68 83
8/30/2021 10:15:00 PM 24.45 76.01 8.12 502.4 3.56 82.7
8/30/2021 10:30:00 PM 24.42 75.956 8.13 502.5 3.17 82.7
8/30/2021 10:45:00 PM 24.38 75.884 8.12 502.7 2.47 82.5
8/30/2021 11:00:00 PM 24.35 75.83 8.12 503.1 3.12 82.5
8/30/2021 11:15:00 PM 24.33 75.794 8.11 503.3 3.22 82.3
8/30/2021 11:30:00 PM 24.31 75.758 8.11 503.9 4.83 82.4
8/30/2021 11:45:00 PM 24.28 75.704 8.1 504 1.85 82.3
8/31/2021 12:00:00 AM 24.26 75.668 8.11 504.4 3.11 82.4
8/31/2021 12:15:00 AM 24.25 75.65 8.1 504.6 2.68 82.4
8/31/2021 12:30:00 AM 24.23 75.614 8.12 504.9 3.39 82.1
8/31/2021 12:45:00 AM 24.21 75.578 8.11 505.1 5.4 82.2
8/31/2021 1:00:00 AM 24.19 75.542 8.1 505.3 3.01 82.3
8/31/2021 1:15:00 AM 24.17 75.506 8.11 505.3 4.42 82.5
8/31/2021 1:30:00 AM 24.15 75.47 8.1 505.4 2.56 82.4
8/31/2021 1:45:00 AM 24.13 75.434 8.09 505.6 4.86 82.4
8/31/2021 2:00:00 AM 24.11 75.398 8.09 505.6 4 82.5
8/31/2021 2:15:00 AM 24.09 75.362 8.11 505.7 3.89 82.4
8/31/2021 2:30:00 AM 24.07 75.326 8.1 505.8 4 82.6
8/31/2021 2:45:00 AM 24.05 75.29 8.11 505.7 4 82.6
8/31/2021 3:00:00 AM 24.03 75.254 8.12 505.8 3.81 82.6
8/31/2021 3:15:00 AM 24.01 75.218 8.12 505.8 2.85 82.7
8/31/2021 3:30:00 AM 24 75.2 8.12 505.8 3.48 82.8
8/31/2021 3:45:00 AM 23.98 75.164 8.12 505.8 4.13 83.1
8/31/2021 4:00:00 AM 23.96 75.128 8.12 505.9 4.16 83
8/31/2021 4:15:00 AM 23.94 75.092 8.12 505.7 5.24 83
8/31/2021 4:30:00 AM 23.93 75.074 8.11 505.8 8.3 82.9
8/31/2021 4:45:00 AM 23.91 75.038 8.12 505.8 6.94 83.2
8/31/2021 5:00:00 AM 23.88 74.984 8.12 505.6 2.38 83
8/31/2021 5:15:00 AM 23.86 74.948 8.12 505.5 4.72 82.7
8/31/2021 5:30:00 AM 23.85 74.93 8.12 505.5 4.87 83.1
8/31/2021 5:45:00 AM 23.83 74.894 8.11 505 2.87 83.1
8/31/2021 6:00:00 AM 23.82 74.876 8.12 505 3.52 83.3
8/31/2021 6:15:00 AM 23.8 74.84 8.11 505.1 3.79 83.1
8/31/2021 6:30:00 AM 23.78 74.804 8.11 504.8 4.83 82.7
8/31/2021 6:45:00 AM 23.77 74.786 8.12 504.3 18.69 83.1
8/31/2021 7:00:00 AM 23.76 74.768 8.12 504.3 4.36 83.3
8/31/2021 7:15:00 AM 23.76 74.768 8.12 504 2.57 83.7
8/31/2021 7:30:00 AM 23.77 74.786 8.13 503.6 3.03 84.3
8/31/2021 7:45:00 AM 23.8 74.84 8.13 503.1 2.47 85.3
8/31/2021 8:00:00 AM 23.84 74.912 8.14 502.8 2.2 86.7
8/31/2021 8:15:00 AM 23.88 74.984 8.17 502.4 2.29 88.2
8/31/2021 8:30:00 AM 23.93 75.074 8.16 502.1 2.19 89.5
8/31/2021 8:45:00 AM 24.01 75.218 8.18 501.5 5.04 92.1
8/31/2021 9:00:00 AM 24.1 75.38 8.19 500.9 2.95 94.7
8/31/2021 9:15:00 AM 24.15 75.47 8.2 500.6 1.65 96.6
8/31/2021 9:30:00 AM 24.25 75.65 8.22 499.7 1.52 99.3
8/31/2021 9:45:00 AM 24.32 75.776 8.24 499.2 3.11 102.1
8/31/2021 10:00:00 AM 24.41 75.938 8.26 498.6 1.88 104.6
8/31/2021 10:15:00 AM 24.49 76.082 8.28 498.1 1.27 106.8
8/31/2021 10:30:00 AM 24.56 76.208 8.29 497.4 1.46 108.2
8/31/2021 10:45:00 AM 24.62 76.316 8.3 496.9 1.64 109.3
8/31/2021 11:00:00 AM 24.7 76.46 8.32 496.2 1.24 110.7
8/31/2021 11:15:00 AM 24.77 76.586 8.33 495.7 1.1 112.3
8/31/2021 11:30:00 AM 24.85 76.73 8.34 495.1 1.28 113.4
8/31/2021 11:45:00 AM 24.9 76.82 8.35 494.7 1.53 114
8/31/2021 12:00:00 PM 24.94 76.892 8.35 494.7 1.54 114.7
8/31/2021 12:15:00 PM 25 77 8.37 494.5 1.18 115.9
8/31/2021 12:30:00 PM 25.02 77.036 8.37 494.5 1.3 116.7
8/31/2021 12:45:00 PM 25.05 77.09 8.37 494.2 1.3 116.2
8/31/2021 1:00:00 PM 25.11 77.198 8.36 494.3 1.53 117.2
8/31/2021 1:15:00 PM 25.18 77.324 8.38 494 1.55 118
8/31/2021 1:30:00 PM 25.21 77.378 8.38 493.9 1.21 118.5
8/31/2021 1:45:00 PM 25.17 77.306 8.37 494.1 1.47 117
8/31/2021 2:00:00 PM 25.17 77.306 8.36 494.3 1.3 115.5
8/31/2021 2:15:00 PM 25.2 77.36 8.35 494.5 1.41 116.1
8/31/2021 2:30:00 PM 25.27 77.486 8.37 494.2 1.33 117.9
8/31/2021 2:45:00 PM 25.29 77.522 8.37 494 2.46 118.5
8/31/2021 3:00:00 PM 25.26 77.468 8.37 494.2 1.15 116.8
8/31/2021 3:15:00 PM 25.23 77.414 8.36 494.4 1.69 114.7
8/31/2021 3:30:00 PM 25.21 77.378 8.35 494.7 1.94 113.7
8/31/2021 3:45:00 PM 25.19 77.342 8.34 495.1 1.35 112.5
8/31/2021 4:00:00 PM 25.17 77.306 8.34 495.3 1.69 111.5
8/31/2021 4:15:00 PM 25.16 77.288 8.34 495.5 1.92 111.1
8/31/2021 4:30:00 PM 25.13 77.234 8.33 495.4 1.37 109.1
8/31/2021 4:45:00 PM 25.08 77.144 8.35 496 1.51 108
8/31/2021 5:00:00 PM 25.03 77.054 8.32 496.5 2.65 106.1
8/31/2021 5:15:00 PM 25 77 8.32 496.9 1.45 104.6
8/31/2021 5:30:00 PM 24.97 76.946 8.31 497.4 1.71 103.9
8/31/2021 5:45:00 PM 24.93 76.874 8.29 497.9 1.94 102.5
8/31/2021 6:00:00 PM 24.9 76.82 8.28 498.4 1.79 100.8
8/31/2021 6:15:00 PM 24.88 76.784 8.27 498.7 2.64 100.4
8/31/2021 6:30:00 PM 24.82 76.676 8.27 499.3 1.16 98.9
8/31/2021 6:45:00 PM 24.76 76.568 8.26 499.7 1.69 97.4
8/31/2021 7:00:00 PM 24.7 76.46 8.24 500 1.81 95.2
8/31/2021 7:15:00 PM 24.65 76.37 8.24 500.5 2.33 94.1
8/31/2021 7:30:00 PM 24.59 76.262 8.2 501.1 1.78 92.7
8/31/2021 7:45:00 PM 24.53 76.154 8.19 501.7 2.21 91
8/31/2021 8:00:00 PM 24.48 76.064 8.18 502.3 3.38 89.3
8/31/2021 8:15:00 PM 24.42 75.956 8.16 502.6 2.51 87.9
8/31/2021 8:30:00 PM 24.35 75.83 8.15 503.3 126.1 86.5
8/31/2021 8:45:00 PM 24.29 75.722 8.14 503.6 2.53 85.4
8/31/2021 9:00:00 PM 24.24 75.632 8.13 504 3.59 84.8
8/31/2021 9:15:00 PM 24.2 75.56 8.13 504.8 2.78 84
8/31/2021 9:30:00 PM 24.15 75.47 8.12 504.7 2.32 83.6
8/31/2021 9:45:00 PM 24.11 75.398 8.11 504.8 9.24 83
8/31/2021 10:00:00 PM 24.07 75.326 8.11 505.1 6.29 82.6
8/31/2021 10:15:00 PM 24.04 75.272 8.1 505.2 5.52 82.7
8/31/2021 10:30:00 PM 24 75.2 8.1 505.8 2.86 82.5
8/31/2021 10:45:00 PM 23.97 75.146 8.11 505.6 4.6 82.7
8/31/2021 11:00:00 PM 23.94 75.092 8.12 505.6 2.76 82.5
8/31/2021 11:15:00 PM 23.92 75.056 8.11 505.4 4.57 82.6
8/31/2021 11:30:00 PM 23.89 75.002 8.1 505.6 2.51 82.3
8/31/2021 11:45:00 PM 23.87 74.966 8.1 505.9 3.8 82.4
9/1/2021 12:00:00 AM 23.84 74.912 8.09 506.1 2.67 82.2
9/1/2021 12:15:00 AM 23.82 74.876 8.1 505.9 3.46 82.3
9/1/2021 12:30:00 AM 23.79 74.82201 8.1 505.7 3.71 82.5
9/1/2021 12:45:00 AM 23.76 74.768 8.09 505.9 3.79 82.3
9/1/2021 1:00:00 AM 23.74 74.732 8.1 505.8 2.86 82.6
9/1/2021 1:15:00 AM 23.72 74.696 8.09 506 3.53 82.3
9/1/2021 1:30:00 AM 23.69 74.642 8.09 506.2 3.59 82.4
9/1/2021 1:45:00 AM 23.67 74.606 8.1 505.8 3.4 82.5
9/1/2021 2:00:00 AM 23.64 74.552 8.09 505.8 3.65 82.6
9/1/2021 2:15:00 AM 23.62 74.516 8.09 505.2 4.44 82.6
9/1/2021 2:30:00 AM 23.6 74.48 8.12 505.2 4.3 82.8
9/1/2021 2:45:00 AM 23.58 74.444 8.1 504.9 2.97 82.9
9/1/2021 3:00:00 AM 23.56 74.408 8.1 505 2.94 82.9
9/1/2021 3:15:00 AM 23.53 74.354 8.09 504.5 2.59 83
9/1/2021 3:30:00 AM 23.52 74.336 8.08 504 3.64 83
9/1/2021 3:45:00 AM 23.47 74.246 8.09 502.5 4.55 83.2
9/1/2021 4:00:00 AM 23.45 74.21 8.09 502.1 3.8 83.2
9/1/2021 4:15:00 AM 23.43 74.174 8.09 501.6 5.6 83.5
9/1/2021 4:30:00 AM 23.41 74.138 8.09 500.9 3.75 83.7
9/1/2021 4:45:00 AM 23.38 74.084 8.09 500.4 4.17 83.3
9/1/2021 5:00:00 AM 23.36 74.048 8.08 499.7 3.52 83.7
9/1/2021 5:15:00 AM 23.32 73.976 8.09 498.1 5.01 83.8
9/1/2021 5:30:00 AM 23.3 73.94 8.09 497.3 3.91 84
9/1/2021 5:45:00 AM 23.28 73.904 8.09 496.4 8.37 83.9
9/1/2021 6:00:00 AM 23.26 73.868 8.09 494.8 11.65 84.1
9/1/2021 6:15:00 AM 23.22 73.796 8.09 494.3 7.37 84
9/1/2021 6:30:00 AM 23.2 73.76 8.08 493.4 9.51 84.2
9/1/2021 6:45:00 AM 23.16 73.688 8.09 491.7 5.13 83
9/1/2021 7:00:00 AM 23.06 73.508 8.1 481.8 14.08 84.1
9/1/2021 7:15:00 AM 23.02 73.436 8.09 478 8.28 84.7
9/1/2021 7:30:00 AM 22.97 73.346 8.1 470.6 4.71 85.3
9/1/2021 7:45:00 AM 22.8 73.04 8.11 448.7 21.61 87.6
9/1/2021 8:00:00 AM 22.6 72.68 8.09 404.7 11.64 88.3
9/1/2021 8:15:00 AM 22.64 72.752 8.09 416.8 14.03 88.3
9/1/2021 8:30:00 AM 22.59 72.662 8.07 408.3 22.4 87.9
9/1/2021 8:45:00 AM 22.55 72.59 8.05 400 28.2 87.6
9/1/2021 9:00:00 AM 22.5 72.5 8.03 389.1 29.67 87.4
9/1/2021 9:15:00 AM 22.49 72.482 8.02 387.3 20.06 87.3
9/1/2021 9:30:00 AM 22.52 72.536 8.01 393.9 25 87
9/1/2021 9:45:00 AM 22.56 72.608 8 403.6 17.79 87.5
9/1/2021 10:00:00 AM 22.59 72.662 8.01 410.2 16.43 87.6
9/1/2021 10:15:00 AM 22.61 72.698 8.02 413.4 11.99 87.9
9/1/2021 10:30:00 AM 22.62 72.716 8.04 416.5 11.85 88.3
9/1/2021 10:45:00 AM 22.64 72.752 8.04 420.6 8.44 88.8
9/1/2021 11:00:00 AM 22.67 72.806 8.05 421.9 9.68 87.5
9/1/2021 11:15:00 AM 22.67 72.806 8.06 424 9.35 86.9
9/1/2021 11:30:00 AM 22.66 72.788 8.05 426.3 9.26 85.8
9/1/2021 11:45:00 AM 22.66 72.788 8.05 428.1 8.84 87.5
9/1/2021 12:00:00 PM 22.63 72.734 8.06 429.3 6.42 85.4
9/1/2021 12:15:00 PM 22.59 72.662 8.05 427.1 6.29 83.4
9/1/2021 12:30:00 PM 22.54 72.57201 8.05 420.2 6.86 82
9/1/2021 12:45:00 PM 22.46 72.42799 8.04 412.5 10.72 86.6
9/1/2021 1:00:00 PM 22.31 72.158 8.03 384.3 11.55 85.8
9/1/2021 1:15:00 PM 22.16 71.888 7.98 350.8 16.28 82.7
9/1/2021 1:30:00 PM 22.09 71.762 7.96 338.4 24.39 82.1
9/1/2021 1:45:00 PM 21.98 71.564 7.9 317.3 34.9 81.4
9/1/2021 2:00:00 PM 21.92 71.456 7.89 311.3 36.02 80.2
9/1/2021 2:15:00 PM 21.91 71.438 7.9 319.3 34.41 83.4
9/1/2021 2:30:00 PM 21.92 71.456 7.91 329.9 37.52 84.5
9/1/2021 2:45:00 PM 21.9 71.42 7.93 338 33.91 84.2
9/1/2021 3:00:00 PM 21.84 71.312 7.94 340.7 35.79 86.7
9/1/2021 3:15:00 PM 21.78 71.204 7.95 342 30.85 87.6
9/1/2021 3:30:00 PM 21.68 71.024 7.97 342.2 29.7 84.9
9/1/2021 3:45:00 PM 21.55 70.79 7.94 332.9 32.3 81.8
9/1/2021 4:00:00 PM 21.44 70.592 7.95 336.1 28.76 82.7
9/1/2021 4:15:00 PM 21.32 70.376 7.92 334.4 49.14 79.1
9/1/2021 4:30:00 PM 21.25 70.25 7.91 336 52.13 84.3
9/1/2021 4:45:00 PM 21.22 70.196 7.92 351.2 47.8 86.8
9/1/2021 5:00:00 PM 21.19 70.142 7.93 362.8 41.85 86.5
9/1/2021 5:15:00 PM 21.18 70.124 7.95 380.2 38.85 86.7
9/1/2021 5:30:00 PM 21.11 69.998 7.96 381.4 28.1 86.8
9/1/2021 5:45:00 PM 21.01 69.818 7.95 378.3 41.18 86.9
9/1/2021 6:00:00 PM 20.88 69.584 7.94 364.7 39.88 85.6
9/1/2021 6:15:00 PM 20.73 69.314 7.89 342.8 62.73 85.2
9/1/2021 6:30:00 PM 20.62 69.116 7.84 322.6 76.11 86.2
9/1/2021 6:45:00 PM 20.49 68.882 7.8 299.2 111.8 82.6
9/1/2021 7:00:00 PM 20.4 68.72 7.76 286.6 155.2 83.1
9/1/2021 7:15:00 PM 20.33 68.594 7.72 275.3 149.4 87.4
9/1/2021 7:30:00 PM 20.28 68.504 7.68 265.3 159.7 80.4
9/1/2021 7:45:00 PM 20.26 68.468 7.66 257.3 191.4 79.1
9/1/2021 8:00:00 PM 20.27 68.486 7.64 250.4 179.8 75.2
9/1/2021 8:15:00 PM 20.32 68.576 7.63 245.5 191.7 75.4
9/1/2021 8:30:00 PM 20.37 68.666 7.63 239.4 189.4 77.1
9/1/2021 8:45:00 PM 20.45 68.81 7.61 233.2 239.4 71.1
9/1/2021 9:00:00 PM 20.52 68.936 7.61 228.8 249.3 61.9
9/1/2021 9:15:00 PM 20.56 69.008 7.62 223.8 149.8 66
9/1/2021 9:30:00 PM 20.59 69.062 7.61 222.4 182.2 67.6
9/1/2021 9:45:00 PM 20.6 69.08 7.6 219.9 148.3 52.5
9/1/2021 10:00:00 PM 20.59 69.062 7.6 218.4 140.1 37.9
9/1/2021 10:15:00 PM 20.55 68.99 7.58 217.9 135 36.2
9/1/2021 10:30:00 PM 20.5 68.9 7.58 217.7 188.8 35.1
9/1/2021 10:45:00 PM 20.44 68.792 7.59 218.8 167.1 32.8
9/1/2021 11:00:00 PM 20.37 68.666 7.59 220.3 201.6 33
9/1/2021 11:15:00 PM 20.29 68.522 7.61 222.2 188.1 35.7
9/1/2021 11:30:00 PM 20.24 68.432 7.61 223.9 208.2 40.3
9/1/2021 11:45:00 PM 20.18 68.324 7.61 225.9 181.1 40.9
9/2/2021 12:00:00 AM 20.13 68.234 7.62 228 195.1 38.6
9/2/2021 12:15:00 AM 20.09 68.162 7.61 229.7 181.6 34.2
9/2/2021 12:30:00 AM 20.05 68.09 7.62 226.6 237.7 33.7
9/2/2021 12:45:00 AM 20.02 68.036 7.62 231.7 207.6 33.1
9/2/2021 1:00:00 AM 19.98 67.964 7.63 231.4 200.8 30.9
9/2/2021 1:15:00 AM 19.95 67.91 7.65 228 210.8 28.9
9/2/2021 1:30:00 AM 19.92 67.856 7.64 229 218.5 33.5
9/2/2021 1:45:00 AM 19.89 67.802 7.65 226.7 175.1 33.3
9/2/2021 2:00:00 AM 19.85 67.73 7.65 224.1 179.6 32.6
9/2/2021 2:15:00 AM 19.82 67.676 7.64 221 185.5 29.8
9/2/2021 2:30:00 AM 19.78 67.604 7.64 218.4 186.8 28.8
9/2/2021 2:45:00 AM 19.75 67.55 7.65 216 165.1 30
9/2/2021 3:00:00 AM 19.72 67.496 7.65 214.1 116.6 28.3
9/2/2021 3:15:00 AM 19.69 67.442 7.65 212.4 177.8 26.4
9/2/2021 3:30:00 AM 19.66 67.388 7.66 209.6 170 24.7
9/2/2021 3:45:00 AM 19.63 67.334 7.64 207.8 201.5 23.4
9/2/2021 4:00:00 AM 19.6 67.28 7.65 205.5 169.3 24.2
9/2/2021 4:15:00 AM 19.57 67.226 7.66 204.9 143.1 23.4
9/2/2021 4:30:00 AM 19.54 67.172 7.67 202.9 145.5 22.4
9/2/2021 4:45:00 AM 19.51 67.118 7.65 201 165.7 21.6
9/2/2021 5:00:00 AM 19.48 67.064 7.64 199.2 179.8 20.3
9/2/2021 5:15:00 AM 19.45 67.01 7.61 198.3 165 19.1
9/2/2021 5:30:00 AM 19.43 66.974 7.61 196.8 147.8 21.2
9/2/2021 5:45:00 AM 19.41 66.938 7.61 195.7 150 21
9/2/2021 6:00:00 AM 19.38 66.884 7.59 195.2 171.1 24
9/2/2021 6:15:00 AM 19.36 66.848 7.59 194.3 119.3 25.1
9/2/2021 6:30:00 AM 19.34 66.812 7.59 193.6 141.9 22.1
9/2/2021 6:45:00 AM 19.31 66.758 7.56 192 147.7 17.6
9/2/2021 7:00:00 AM 19.29 66.722 7.59 191.5 121.1 11.9
9/2/2021 7:15:00 AM 19.26 66.668 7.56 190.3 136.4 15.6
9/2/2021 7:30:00 AM 19.24 66.632 7.54 189.2 147.5 16.2
9/2/2021 7:45:00 AM 19.22 66.596 7.53 188.8 137.3 18.6
9/2/2021 8:00:00 AM 19.2 66.56 7.53 188.6 137.3 19.4
9/2/2021 8:15:00 AM 19.18 66.524 7.52 188.3 126.4 16
9/2/2021 8:30:00 AM 19.16 66.488 7.51 187.6 159.5 18.7
9/2/2021 8:45:00 AM 19.15 66.47 7.51 187.2 128.4 17.7
9/2/2021 9:00:00 AM 19.14 66.452 7.51 186.9 151.1 18.5
9/2/2021 9:15:00 AM 19.13 66.434 7.5 185.5 114.8 12
9/2/2021 9:30:00 AM 19.13 66.434 7.49 185.4 106.9 13.7
9/2/2021 9:45:00 AM 19.13 66.434 7.49 184.9 111 12
9/2/2021 10:00:00 AM 19.13 66.434 7.49 184.4 107.9 12.4
9/2/2021 10:15:00 AM 19.14 66.452 7.49